<?xml version="1.0" encoding="UTF-8" standalone="no" ?>
<gpx xmlns="http://www.topografix.com/GPX/1/1" xmlns:xsi="http://www.w3.org/2001/XMLSchema-instance" xsi:schemaLocation="http://www.topografix.com/GPX/1/1 http://www.topografix.com/GPX/1/1/gpx.xsd" version="1.1" creator="VisuGPX - https://www.visugpx.com">
  <metadata>
    <name>roc des boeufs skis</name>
    <desc><![CDATA[sortie interessante aprés chute de neige récente]]></desc>
  </metadata>
  <trk>
    <name><![CDATA[ski roc des bouefs]]></name>
    <trkseg>
      <trkpt lat="45.73916" lon="6.15916">
        <ele>1043.5999755859</ele>
        <time>2014-02-22T09:16:28.000Z</time>
      </trkpt>
      <trkpt lat="45.73917" lon="6.15915">
        <ele>1043.1999511719</ele>
        <time>2014-02-22T09:16:29.000Z</time>
      </trkpt>
      <trkpt lat="45.73927" lon="6.15907">
        <ele>1044.1999511719</ele>
        <time>2014-02-22T09:16:38.000Z</time>
      </trkpt>
      <trkpt lat="45.73931" lon="6.15907">
        <ele>1043.1999511719</ele>
        <time>2014-02-22T09:16:41.000Z</time>
      </trkpt>
      <trkpt lat="45.73938" lon="6.15906">
        <ele>1042.5999755859</ele>
        <time>2014-02-22T09:16:46.000Z</time>
      </trkpt>
      <trkpt lat="45.73942" lon="6.15907">
        <ele>1042.5999755859</ele>
        <time>2014-02-22T09:16:50.000Z</time>
      </trkpt>
      <trkpt lat="45.73949" lon="6.15905">
        <ele>1045</ele>
        <time>2014-02-22T09:16:58.000Z</time>
      </trkpt>
      <trkpt lat="45.73953" lon="6.15904">
        <ele>1046</ele>
        <time>2014-02-22T09:17:03.000Z</time>
      </trkpt>
      <trkpt lat="45.73958" lon="6.15903">
        <ele>1048</ele>
        <time>2014-02-22T09:17:11.000Z</time>
      </trkpt>
      <trkpt lat="45.73964" lon="6.15903">
        <ele>1049</ele>
        <time>2014-02-22T09:17:19.000Z</time>
      </trkpt>
      <trkpt lat="45.73966" lon="6.15901">
        <ele>1049</ele>
        <time>2014-02-22T09:17:26.000Z</time>
      </trkpt>
      <trkpt lat="45.73966" lon="6.15901">
        <ele>1050.4000244141</ele>
        <time>2014-02-22T09:17:33.000Z</time>
      </trkpt>
      <trkpt lat="45.73968" lon="6.159">
        <ele>1051.4000244141</ele>
        <time>2014-02-22T09:17:50.000Z</time>
      </trkpt>
      <trkpt lat="45.73974" lon="6.15898">
        <ele>1053.1999511719</ele>
        <time>2014-02-22T09:17:56.000Z</time>
      </trkpt>
      <trkpt lat="45.73978" lon="6.15898">
        <ele>1053.1999511719</ele>
        <time>2014-02-22T09:18:00.000Z</time>
      </trkpt>
      <trkpt lat="45.73984" lon="6.15898">
        <ele>1053.1999511719</ele>
        <time>2014-02-22T09:18:06.000Z</time>
      </trkpt>
      <trkpt lat="45.73986" lon="6.15898">
        <ele>1053.1999511719</ele>
        <time>2014-02-22T09:18:07.000Z</time>
      </trkpt>
      <trkpt lat="45.7399" lon="6.15897">
        <ele>1053.8000488281</ele>
        <time>2014-02-22T09:18:12.000Z</time>
      </trkpt>
      <trkpt lat="45.73993" lon="6.15896">
        <ele>1053.8000488281</ele>
        <time>2014-02-22T09:18:18.000Z</time>
      </trkpt>
      <trkpt lat="45.73999" lon="6.15896">
        <ele>1054.8000488281</ele>
        <time>2014-02-22T09:18:23.000Z</time>
      </trkpt>
      <trkpt lat="45.74006" lon="6.15896">
        <ele>1055.1999511719</ele>
        <time>2014-02-22T09:18:31.000Z</time>
      </trkpt>
      <trkpt lat="45.74011" lon="6.15895">
        <ele>1056.5999755859</ele>
        <time>2014-02-22T09:18:37.000Z</time>
      </trkpt>
      <trkpt lat="45.74017" lon="6.15895">
        <ele>1057.5999755859</ele>
        <time>2014-02-22T09:18:43.000Z</time>
      </trkpt>
      <trkpt lat="45.74023" lon="6.15894">
        <ele>1058.5999755859</ele>
        <time>2014-02-22T09:18:49.000Z</time>
      </trkpt>
      <trkpt lat="45.74029" lon="6.15894">
        <ele>1059.5999755859</ele>
        <time>2014-02-22T09:18:55.000Z</time>
      </trkpt>
      <trkpt lat="45.74036" lon="6.15893">
        <ele>1060.4000244141</ele>
        <time>2014-02-22T09:19:02.000Z</time>
      </trkpt>
      <trkpt lat="45.74036" lon="6.15894">
        <ele>1060.4000244141</ele>
        <time>2014-02-22T09:19:04.000Z</time>
      </trkpt>
      <trkpt lat="45.74037" lon="6.15896">
        <ele>1061.4000244141</ele>
        <time>2014-02-22T09:19:06.000Z</time>
      </trkpt>
      <trkpt lat="45.74044" lon="6.15897">
        <ele>1061.4000244141</ele>
        <time>2014-02-22T09:19:13.000Z</time>
      </trkpt>
      <trkpt lat="45.74049" lon="6.15899">
        <ele>1062.4000244141</ele>
        <time>2014-02-22T09:19:18.000Z</time>
      </trkpt>
      <trkpt lat="45.74054" lon="6.15901">
        <ele>1062.4000244141</ele>
        <time>2014-02-22T09:19:24.000Z</time>
      </trkpt>
      <trkpt lat="45.7406" lon="6.15902">
        <ele>1062.8000488281</ele>
        <time>2014-02-22T09:19:30.000Z</time>
      </trkpt>
      <trkpt lat="45.74066" lon="6.15901">
        <ele>1062.4000244141</ele>
        <time>2014-02-22T09:19:36.000Z</time>
      </trkpt>
      <trkpt lat="45.7407" lon="6.159">
        <ele>1063.8000488281</ele>
        <time>2014-02-22T09:19:41.000Z</time>
      </trkpt>
      <trkpt lat="45.74075" lon="6.15899">
        <ele>1065.8000488281</ele>
        <time>2014-02-22T09:19:48.000Z</time>
      </trkpt>
      <trkpt lat="45.74081" lon="6.15899">
        <ele>1068.1999511719</ele>
        <time>2014-02-22T09:19:55.000Z</time>
      </trkpt>
      <trkpt lat="45.74087" lon="6.15901">
        <ele>1068.5999755859</ele>
        <time>2014-02-22T09:20:01.000Z</time>
      </trkpt>
      <trkpt lat="45.74092" lon="6.15903">
        <ele>1069.5999755859</ele>
        <time>2014-02-22T09:20:07.000Z</time>
      </trkpt>
      <trkpt lat="45.74097" lon="6.15905">
        <ele>1070</ele>
        <time>2014-02-22T09:20:13.000Z</time>
      </trkpt>
      <trkpt lat="45.74102" lon="6.15907">
        <ele>1070.5999755859</ele>
        <time>2014-02-22T09:20:18.000Z</time>
      </trkpt>
      <trkpt lat="45.74105" lon="6.15909">
        <ele>1071.5999755859</ele>
        <time>2014-02-22T09:20:23.000Z</time>
      </trkpt>
      <trkpt lat="45.7411" lon="6.15912">
        <ele>1071.5999755859</ele>
        <time>2014-02-22T09:20:29.000Z</time>
      </trkpt>
      <trkpt lat="45.74114" lon="6.15915">
        <ele>1071.5999755859</ele>
        <time>2014-02-22T09:20:35.000Z</time>
      </trkpt>
      <trkpt lat="45.74118" lon="6.15916">
        <ele>1072.4000244141</ele>
        <time>2014-02-22T09:20:40.000Z</time>
      </trkpt>
      <trkpt lat="45.74123" lon="6.15918">
        <ele>1074.4000244141</ele>
        <time>2014-02-22T09:20:46.000Z</time>
      </trkpt>
      <trkpt lat="45.74129" lon="6.15921">
        <ele>1076.4000244141</ele>
        <time>2014-02-22T09:20:53.000Z</time>
      </trkpt>
      <trkpt lat="45.74133" lon="6.15922">
        <ele>1078.8000488281</ele>
        <time>2014-02-22T09:20:58.000Z</time>
      </trkpt>
      <trkpt lat="45.74137" lon="6.15922">
        <ele>1079.5999755859</ele>
        <time>2014-02-22T09:21:02.000Z</time>
      </trkpt>
      <trkpt lat="45.74144" lon="6.15923">
        <ele>1081.5999755859</ele>
        <time>2014-02-22T09:21:09.000Z</time>
      </trkpt>
      <trkpt lat="45.74149" lon="6.15925">
        <ele>1082.5999755859</ele>
        <time>2014-02-22T09:21:16.000Z</time>
      </trkpt>
      <trkpt lat="45.74154" lon="6.1593">
        <ele>1082.5999755859</ele>
        <time>2014-02-22T09:21:23.000Z</time>
      </trkpt>
      <trkpt lat="45.74158" lon="6.15938">
        <ele>1081.5999755859</ele>
        <time>2014-02-22T09:21:29.000Z</time>
      </trkpt>
      <trkpt lat="45.74159" lon="6.15939">
        <ele>1081.1999511719</ele>
        <time>2014-02-22T09:21:30.000Z</time>
      </trkpt>
      <trkpt lat="45.74164" lon="6.15944">
        <ele>1080.5999755859</ele>
        <time>2014-02-22T09:21:35.000Z</time>
      </trkpt>
      <trkpt lat="45.74167" lon="6.1595">
        <ele>1081.5999755859</ele>
        <time>2014-02-22T09:21:42.000Z</time>
      </trkpt>
      <trkpt lat="45.7417" lon="6.15952">
        <ele>1081.5999755859</ele>
        <time>2014-02-22T09:21:46.000Z</time>
      </trkpt>
      <trkpt lat="45.74176" lon="6.15954">
        <ele>1083.5999755859</ele>
        <time>2014-02-22T09:21:50.000Z</time>
      </trkpt>
      <trkpt lat="45.7418" lon="6.15958">
        <ele>1085</ele>
        <time>2014-02-22T09:21:55.000Z</time>
      </trkpt>
      <trkpt lat="45.74183" lon="6.15963">
        <ele>1084.5999755859</ele>
        <time>2014-02-22T09:21:59.000Z</time>
      </trkpt>
      <trkpt lat="45.74186" lon="6.15969">
        <ele>1087.4000244141</ele>
        <time>2014-02-22T09:22:05.000Z</time>
      </trkpt>
      <trkpt lat="45.74191" lon="6.15972">
        <ele>1088.8000488281</ele>
        <time>2014-02-22T09:22:09.000Z</time>
      </trkpt>
      <trkpt lat="45.74193" lon="6.15976">
        <ele>1090.1999511719</ele>
        <time>2014-02-22T09:22:13.000Z</time>
      </trkpt>
      <trkpt lat="45.74194" lon="6.15979">
        <ele>1091.1999511719</ele>
        <time>2014-02-22T09:22:16.000Z</time>
      </trkpt>
      <trkpt lat="45.74199" lon="6.15984">
        <ele>1089.8000488281</ele>
        <time>2014-02-22T09:22:20.000Z</time>
      </trkpt>
      <trkpt lat="45.742" lon="6.15989">
        <ele>1090.1999511719</ele>
        <time>2014-02-22T09:22:24.000Z</time>
      </trkpt>
      <trkpt lat="45.74203" lon="6.15997">
        <ele>1089.4000244141</ele>
        <time>2014-02-22T09:22:30.000Z</time>
      </trkpt>
      <trkpt lat="45.74205" lon="6.16003">
        <ele>1089.8000488281</ele>
        <time>2014-02-22T09:22:36.000Z</time>
      </trkpt>
      <trkpt lat="45.74206" lon="6.16008">
        <ele>1090.1999511719</ele>
        <time>2014-02-22T09:22:41.000Z</time>
      </trkpt>
      <trkpt lat="45.74207" lon="6.16012">
        <ele>1090.1999511719</ele>
        <time>2014-02-22T09:22:45.000Z</time>
      </trkpt>
      <trkpt lat="45.74207" lon="6.16013">
        <ele>1091.1999511719</ele>
        <time>2014-02-22T09:22:48.000Z</time>
      </trkpt>
      <trkpt lat="45.7421" lon="6.16014">
        <ele>1092.1999511719</ele>
        <time>2014-02-22T09:22:52.000Z</time>
      </trkpt>
      <trkpt lat="45.74211" lon="6.16015">
        <ele>1094.5999755859</ele>
        <time>2014-02-22T09:22:57.000Z</time>
      </trkpt>
      <trkpt lat="45.74212" lon="6.16016">
        <ele>1097.4000244141</ele>
        <time>2014-02-22T09:23:01.000Z</time>
      </trkpt>
      <trkpt lat="45.74213" lon="6.16016">
        <ele>1099.4000244141</ele>
        <time>2014-02-22T09:23:05.000Z</time>
      </trkpt>
      <trkpt lat="45.74215" lon="6.16016">
        <ele>1101.8000488281</ele>
        <time>2014-02-22T09:23:10.000Z</time>
      </trkpt>
      <trkpt lat="45.74217" lon="6.16017">
        <ele>1102.8000488281</ele>
        <time>2014-02-22T09:23:14.000Z</time>
      </trkpt>
      <trkpt lat="45.7422" lon="6.16019">
        <ele>1105.1999511719</ele>
        <time>2014-02-22T09:23:18.000Z</time>
      </trkpt>
      <trkpt lat="45.74222" lon="6.1602">
        <ele>1106.1999511719</ele>
        <time>2014-02-22T09:23:21.000Z</time>
      </trkpt>
      <trkpt lat="45.74224" lon="6.16023">
        <ele>1108.5999755859</ele>
        <time>2014-02-22T09:23:28.000Z</time>
      </trkpt>
      <trkpt lat="45.74226" lon="6.16024">
        <ele>1110</ele>
        <time>2014-02-22T09:23:32.000Z</time>
      </trkpt>
      <trkpt lat="45.74229" lon="6.16025">
        <ele>1112.4000244141</ele>
        <time>2014-02-22T09:23:38.000Z</time>
      </trkpt>
      <trkpt lat="45.74231" lon="6.16026">
        <ele>1114.4000244141</ele>
        <time>2014-02-22T09:23:42.000Z</time>
      </trkpt>
      <trkpt lat="45.74233" lon="6.16026">
        <ele>1115.8000488281</ele>
        <time>2014-02-22T09:23:45.000Z</time>
      </trkpt>
      <trkpt lat="45.74236" lon="6.16027">
        <ele>1119.5999755859</ele>
        <time>2014-02-22T09:23:51.000Z</time>
      </trkpt>
      <trkpt lat="45.74239" lon="6.16028">
        <ele>1120</ele>
        <time>2014-02-22T09:23:55.000Z</time>
      </trkpt>
      <trkpt lat="45.74243" lon="6.1603">
        <ele>1121</ele>
        <time>2014-02-22T09:24:02.000Z</time>
      </trkpt>
      <trkpt lat="45.74245" lon="6.16031">
        <ele>1121.5999755859</ele>
        <time>2014-02-22T09:24:06.000Z</time>
      </trkpt>
      <trkpt lat="45.74249" lon="6.16032">
        <ele>1123.4000244141</ele>
        <time>2014-02-22T09:24:12.000Z</time>
      </trkpt>
      <trkpt lat="45.74251" lon="6.16032">
        <ele>1124.4000244141</ele>
        <time>2014-02-22T09:24:16.000Z</time>
      </trkpt>
      <trkpt lat="45.74253" lon="6.16032">
        <ele>1125.4000244141</ele>
        <time>2014-02-22T09:24:19.000Z</time>
      </trkpt>
      <trkpt lat="45.74256" lon="6.16031">
        <ele>1125.8000488281</ele>
        <time>2014-02-22T09:24:23.000Z</time>
      </trkpt>
      <trkpt lat="45.74259" lon="6.16031">
        <ele>1125.8000488281</ele>
        <time>2014-02-22T09:24:27.000Z</time>
      </trkpt>
      <trkpt lat="45.74261" lon="6.1603">
        <ele>1125.4000244141</ele>
        <time>2014-02-22T09:24:31.000Z</time>
      </trkpt>
      <trkpt lat="45.74264" lon="6.16029">
        <ele>1125.4000244141</ele>
        <time>2014-02-22T09:24:35.000Z</time>
      </trkpt>
      <trkpt lat="45.74268" lon="6.16025">
        <ele>1126.4000244141</ele>
        <time>2014-02-22T09:24:41.000Z</time>
      </trkpt>
      <trkpt lat="45.7427" lon="6.16023">
        <ele>1126.4000244141</ele>
        <time>2014-02-22T09:24:44.000Z</time>
      </trkpt>
      <trkpt lat="45.74275" lon="6.16017">
        <ele>1127.8000488281</ele>
        <time>2014-02-22T09:24:50.000Z</time>
      </trkpt>
      <trkpt lat="45.74279" lon="6.16013">
        <ele>1127.1999511719</ele>
        <time>2014-02-22T09:24:55.000Z</time>
      </trkpt>
      <trkpt lat="45.74284" lon="6.16009">
        <ele>1125.8000488281</ele>
        <time>2014-02-22T09:25:01.000Z</time>
      </trkpt>
      <trkpt lat="45.74289" lon="6.16006">
        <ele>1124.4000244141</ele>
        <time>2014-02-22T09:25:06.000Z</time>
      </trkpt>
      <trkpt lat="45.74291" lon="6.16005">
        <ele>1124.4000244141</ele>
        <time>2014-02-22T09:25:09.000Z</time>
      </trkpt>
      <trkpt lat="45.74294" lon="6.16003">
        <ele>1125.4000244141</ele>
        <time>2014-02-22T09:25:13.000Z</time>
      </trkpt>
      <trkpt lat="45.74296" lon="6.16007">
        <ele>1126.8000488281</ele>
        <time>2014-02-22T09:25:17.000Z</time>
      </trkpt>
      <trkpt lat="45.74294" lon="6.16015">
        <ele>1128.1999511719</ele>
        <time>2014-02-22T09:25:23.000Z</time>
      </trkpt>
      <trkpt lat="45.74293" lon="6.16018">
        <ele>1129.1999511719</ele>
        <time>2014-02-22T09:25:25.000Z</time>
      </trkpt>
      <trkpt lat="45.74288" lon="6.16029">
        <ele>1132.5999755859</ele>
        <time>2014-02-22T09:25:34.000Z</time>
      </trkpt>
      <trkpt lat="45.74283" lon="6.16039">
        <ele>1134.4000244141</ele>
        <time>2014-02-22T09:25:43.000Z</time>
      </trkpt>
      <trkpt lat="45.74279" lon="6.16043">
        <ele>1135.4000244141</ele>
        <time>2014-02-22T09:25:49.000Z</time>
      </trkpt>
      <trkpt lat="45.74276" lon="6.1605">
        <ele>1136.8000488281</ele>
        <time>2014-02-22T09:25:55.000Z</time>
      </trkpt>
      <trkpt lat="45.74275" lon="6.16056">
        <ele>1135</ele>
        <time>2014-02-22T09:26:01.000Z</time>
      </trkpt>
      <trkpt lat="45.74273" lon="6.16063">
        <ele>1134.4000244141</ele>
        <time>2014-02-22T09:26:07.000Z</time>
      </trkpt>
      <trkpt lat="45.74271" lon="6.1607">
        <ele>1134</ele>
        <time>2014-02-22T09:26:13.000Z</time>
      </trkpt>
      <trkpt lat="45.74271" lon="6.16075">
        <ele>1134.4000244141</ele>
        <time>2014-02-22T09:26:17.000Z</time>
      </trkpt>
      <trkpt lat="45.74271" lon="6.1608">
        <ele>1135</ele>
        <time>2014-02-22T09:26:21.000Z</time>
      </trkpt>
      <trkpt lat="45.7427" lon="6.16086">
        <ele>1136.8000488281</ele>
        <time>2014-02-22T09:26:26.000Z</time>
      </trkpt>
      <trkpt lat="45.74268" lon="6.1609">
        <ele>1138.8000488281</ele>
        <time>2014-02-22T09:26:31.000Z</time>
      </trkpt>
      <trkpt lat="45.74267" lon="6.16096">
        <ele>1139.1999511719</ele>
        <time>2014-02-22T09:26:37.000Z</time>
      </trkpt>
      <trkpt lat="45.74267" lon="6.16102">
        <ele>1139.8000488281</ele>
        <time>2014-02-22T09:26:42.000Z</time>
      </trkpt>
      <trkpt lat="45.74267" lon="6.16109">
        <ele>1140.8000488281</ele>
        <time>2014-02-22T09:26:48.000Z</time>
      </trkpt>
      <trkpt lat="45.74266" lon="6.16115">
        <ele>1141.1999511719</ele>
        <time>2014-02-22T09:26:53.000Z</time>
      </trkpt>
      <trkpt lat="45.74265" lon="6.16124">
        <ele>1142.5999755859</ele>
        <time>2014-02-22T09:27:00.000Z</time>
      </trkpt>
      <trkpt lat="45.74263" lon="6.1613">
        <ele>1144.5999755859</ele>
        <time>2014-02-22T09:27:05.000Z</time>
      </trkpt>
      <trkpt lat="45.74262" lon="6.16136">
        <ele>1145</ele>
        <time>2014-02-22T09:27:10.000Z</time>
      </trkpt>
      <trkpt lat="45.74265" lon="6.16141">
        <ele>1148.4000244141</ele>
        <time>2014-02-22T09:27:16.000Z</time>
      </trkpt>
      <trkpt lat="45.74269" lon="6.16141">
        <ele>1148.4000244141</ele>
        <time>2014-02-22T09:27:21.000Z</time>
      </trkpt>
      <trkpt lat="45.74273" lon="6.16137">
        <ele>1147.4000244141</ele>
        <time>2014-02-22T09:27:27.000Z</time>
      </trkpt>
      <trkpt lat="45.74277" lon="6.16129">
        <ele>1147.4000244141</ele>
        <time>2014-02-22T09:27:33.000Z</time>
      </trkpt>
      <trkpt lat="45.7428" lon="6.16123">
        <ele>1147.4000244141</ele>
        <time>2014-02-22T09:27:39.000Z</time>
      </trkpt>
      <trkpt lat="45.74286" lon="6.16117">
        <ele>1147.4000244141</ele>
        <time>2014-02-22T09:27:47.000Z</time>
      </trkpt>
      <trkpt lat="45.7429" lon="6.16113">
        <ele>1147.4000244141</ele>
        <time>2014-02-22T09:27:53.000Z</time>
      </trkpt>
      <trkpt lat="45.74295" lon="6.16111">
        <ele>1147.4000244141</ele>
        <time>2014-02-22T09:27:59.000Z</time>
      </trkpt>
      <trkpt lat="45.74297" lon="6.16109">
        <ele>1150.4000244141</ele>
        <time>2014-02-22T09:28:04.000Z</time>
      </trkpt>
      <trkpt lat="45.743" lon="6.16106">
        <ele>1153.1999511719</ele>
        <time>2014-02-22T09:28:09.000Z</time>
      </trkpt>
      <trkpt lat="45.74305" lon="6.16103">
        <ele>1155.1999511719</ele>
        <time>2014-02-22T09:28:15.000Z</time>
      </trkpt>
      <trkpt lat="45.7431" lon="6.16102">
        <ele>1154.5999755859</ele>
        <time>2014-02-22T09:28:20.000Z</time>
      </trkpt>
      <trkpt lat="45.74312" lon="6.16101">
        <ele>1154.5999755859</ele>
        <time>2014-02-22T09:28:22.000Z</time>
      </trkpt>
      <trkpt lat="45.74316" lon="6.161">
        <ele>1157</ele>
        <time>2014-02-22T09:28:28.000Z</time>
      </trkpt>
      <trkpt lat="45.74322" lon="6.16098">
        <ele>1159</ele>
        <time>2014-02-22T09:28:34.000Z</time>
      </trkpt>
      <trkpt lat="45.74326" lon="6.16097">
        <ele>1161</ele>
        <time>2014-02-22T09:28:39.000Z</time>
      </trkpt>
      <trkpt lat="45.74332" lon="6.16097">
        <ele>1164.8000488281</ele>
        <time>2014-02-22T09:28:46.000Z</time>
      </trkpt>
      <trkpt lat="45.74337" lon="6.16099">
        <ele>1162.4000244141</ele>
        <time>2014-02-22T09:28:50.000Z</time>
      </trkpt>
      <trkpt lat="45.7434" lon="6.16101">
        <ele>1160.4000244141</ele>
        <time>2014-02-22T09:28:53.000Z</time>
      </trkpt>
      <trkpt lat="45.74345" lon="6.16098">
        <ele>1161</ele>
        <time>2014-02-22T09:28:59.000Z</time>
      </trkpt>
      <trkpt lat="45.74348" lon="6.16098">
        <ele>1161.8000488281</ele>
        <time>2014-02-22T09:29:03.000Z</time>
      </trkpt>
      <trkpt lat="45.74353" lon="6.16094">
        <ele>1166.5999755859</ele>
        <time>2014-02-22T09:29:10.000Z</time>
      </trkpt>
      <trkpt lat="45.74357" lon="6.16092">
        <ele>1169.5999755859</ele>
        <time>2014-02-22T09:29:16.000Z</time>
      </trkpt>
      <trkpt lat="45.74362" lon="6.16088">
        <ele>1170</ele>
        <time>2014-02-22T09:29:23.000Z</time>
      </trkpt>
      <trkpt lat="45.74368" lon="6.16085">
        <ele>1171.5999755859</ele>
        <time>2014-02-22T09:29:30.000Z</time>
      </trkpt>
      <trkpt lat="45.74371" lon="6.16084">
        <ele>1171.5999755859</ele>
        <time>2014-02-22T09:29:34.000Z</time>
      </trkpt>
      <trkpt lat="45.74375" lon="6.16081">
        <ele>1171</ele>
        <time>2014-02-22T09:29:40.000Z</time>
      </trkpt>
      <trkpt lat="45.74382" lon="6.16078">
        <ele>1170</ele>
        <time>2014-02-22T09:29:48.000Z</time>
      </trkpt>
      <trkpt lat="45.74386" lon="6.16076">
        <ele>1170.5999755859</ele>
        <time>2014-02-22T09:29:54.000Z</time>
      </trkpt>
      <trkpt lat="45.7439" lon="6.16074">
        <ele>1171</ele>
        <time>2014-02-22T09:30:00.000Z</time>
      </trkpt>
      <trkpt lat="45.74393" lon="6.16072">
        <ele>1172.4000244141</ele>
        <time>2014-02-22T09:30:05.000Z</time>
      </trkpt>
      <trkpt lat="45.74399" lon="6.16071">
        <ele>1173.4000244141</ele>
        <time>2014-02-22T09:30:12.000Z</time>
      </trkpt>
      <trkpt lat="45.74405" lon="6.16068">
        <ele>1178.1999511719</ele>
        <time>2014-02-22T09:30:18.000Z</time>
      </trkpt>
      <trkpt lat="45.74409" lon="6.16069">
        <ele>1179.1999511719</ele>
        <time>2014-02-22T09:30:22.000Z</time>
      </trkpt>
      <trkpt lat="45.74413" lon="6.16071">
        <ele>1178.1999511719</ele>
        <time>2014-02-22T09:30:28.000Z</time>
      </trkpt>
      <trkpt lat="45.74416" lon="6.16071">
        <ele>1178.8000488281</ele>
        <time>2014-02-22T09:30:32.000Z</time>
      </trkpt>
      <trkpt lat="45.74417" lon="6.16071">
        <ele>1179.1999511719</ele>
        <time>2014-02-22T09:30:36.000Z</time>
      </trkpt>
      <trkpt lat="45.74422" lon="6.1607">
        <ele>1182.5999755859</ele>
        <time>2014-02-22T09:30:41.000Z</time>
      </trkpt>
      <trkpt lat="45.74429" lon="6.16069">
        <ele>1186.4000244141</ele>
        <time>2014-02-22T09:30:47.000Z</time>
      </trkpt>
      <trkpt lat="45.74432" lon="6.16068">
        <ele>1187.8000488281</ele>
        <time>2014-02-22T09:30:52.000Z</time>
      </trkpt>
      <trkpt lat="45.74435" lon="6.16067">
        <ele>1190.1999511719</ele>
        <time>2014-02-22T09:30:57.000Z</time>
      </trkpt>
      <trkpt lat="45.7444" lon="6.16065">
        <ele>1194.5999755859</ele>
        <time>2014-02-22T09:31:03.000Z</time>
      </trkpt>
      <trkpt lat="45.74443" lon="6.16065">
        <ele>1194</ele>
        <time>2014-02-22T09:31:07.000Z</time>
      </trkpt>
      <trkpt lat="45.74448" lon="6.16064">
        <ele>1195.5999755859</ele>
        <time>2014-02-22T09:31:13.000Z</time>
      </trkpt>
      <trkpt lat="45.74452" lon="6.16065">
        <ele>1196</ele>
        <time>2014-02-22T09:31:19.000Z</time>
      </trkpt>
      <trkpt lat="45.74455" lon="6.16064">
        <ele>1196</ele>
        <time>2014-02-22T09:31:23.000Z</time>
      </trkpt>
      <trkpt lat="45.74459" lon="6.16064">
        <ele>1198.4000244141</ele>
        <time>2014-02-22T09:31:29.000Z</time>
      </trkpt>
      <trkpt lat="45.74463" lon="6.16063">
        <ele>1199.4000244141</ele>
        <time>2014-02-22T09:31:35.000Z</time>
      </trkpt>
      <trkpt lat="45.74469" lon="6.16062">
        <ele>1199.4000244141</ele>
        <time>2014-02-22T09:31:42.000Z</time>
      </trkpt>
      <trkpt lat="45.74475" lon="6.16058">
        <ele>1206.1999511719</ele>
        <time>2014-02-22T09:31:47.000Z</time>
      </trkpt>
      <trkpt lat="45.74479" lon="6.16057">
        <ele>1208.5999755859</ele>
        <time>2014-02-22T09:31:53.000Z</time>
      </trkpt>
      <trkpt lat="45.74482" lon="6.1606">
        <ele>1204.1999511719</ele>
        <time>2014-02-22T09:31:58.000Z</time>
      </trkpt>
      <trkpt lat="45.74485" lon="6.16059">
        <ele>1208.5999755859</ele>
        <time>2014-02-22T09:32:04.000Z</time>
      </trkpt>
      <trkpt lat="45.74488" lon="6.16057">
        <ele>1210</ele>
        <time>2014-02-22T09:32:09.000Z</time>
      </trkpt>
      <trkpt lat="45.74493" lon="6.16055">
        <ele>1209.4000244141</ele>
        <time>2014-02-22T09:32:16.000Z</time>
      </trkpt>
      <trkpt lat="45.745" lon="6.16054">
        <ele>1206.1999511719</ele>
        <time>2014-02-22T09:32:24.000Z</time>
      </trkpt>
      <trkpt lat="45.74504" lon="6.16051">
        <ele>1208.5999755859</ele>
        <time>2014-02-22T09:32:29.000Z</time>
      </trkpt>
      <trkpt lat="45.74508" lon="6.16049">
        <ele>1210.4000244141</ele>
        <time>2014-02-22T09:32:35.000Z</time>
      </trkpt>
      <trkpt lat="45.74512" lon="6.16047">
        <ele>1212.8000488281</ele>
        <time>2014-02-22T09:32:41.000Z</time>
      </trkpt>
      <trkpt lat="45.74518" lon="6.16045">
        <ele>1213.8000488281</ele>
        <time>2014-02-22T09:32:50.000Z</time>
      </trkpt>
      <trkpt lat="45.74522" lon="6.16044">
        <ele>1212.4000244141</ele>
        <time>2014-02-22T09:32:56.000Z</time>
      </trkpt>
      <trkpt lat="45.74526" lon="6.16044">
        <ele>1211.8000488281</ele>
        <time>2014-02-22T09:33:02.000Z</time>
      </trkpt>
      <trkpt lat="45.7453" lon="6.16042">
        <ele>1212.8000488281</ele>
        <time>2014-02-22T09:33:08.000Z</time>
      </trkpt>
      <trkpt lat="45.74535" lon="6.1604">
        <ele>1214.1999511719</ele>
        <time>2014-02-22T09:33:15.000Z</time>
      </trkpt>
      <trkpt lat="45.74539" lon="6.16038">
        <ele>1216.5999755859</ele>
        <time>2014-02-22T09:33:20.000Z</time>
      </trkpt>
      <trkpt lat="45.74544" lon="6.16037">
        <ele>1216.5999755859</ele>
        <time>2014-02-22T09:33:27.000Z</time>
      </trkpt>
      <trkpt lat="45.74548" lon="6.16035">
        <ele>1216.1999511719</ele>
        <time>2014-02-22T09:33:34.000Z</time>
      </trkpt>
      <trkpt lat="45.74551" lon="6.16035">
        <ele>1215.8000488281</ele>
        <time>2014-02-22T09:33:38.000Z</time>
      </trkpt>
      <trkpt lat="45.74555" lon="6.16033">
        <ele>1216.1999511719</ele>
        <time>2014-02-22T09:33:46.000Z</time>
      </trkpt>
      <trkpt lat="45.74559" lon="6.16032">
        <ele>1217.1999511719</ele>
        <time>2014-02-22T09:33:52.000Z</time>
      </trkpt>
      <trkpt lat="45.74562" lon="6.1603">
        <ele>1218.1999511719</ele>
        <time>2014-02-22T09:33:57.000Z</time>
      </trkpt>
      <trkpt lat="45.74565" lon="6.16029">
        <ele>1218.5999755859</ele>
        <time>2014-02-22T09:34:02.000Z</time>
      </trkpt>
      <trkpt lat="45.74568" lon="6.16028">
        <ele>1220.5999755859</ele>
        <time>2014-02-22T09:34:07.000Z</time>
      </trkpt>
      <trkpt lat="45.74572" lon="6.16028">
        <ele>1221.4000244141</ele>
        <time>2014-02-22T09:34:12.000Z</time>
      </trkpt>
      <trkpt lat="45.74576" lon="6.16025">
        <ele>1224.4000244141</ele>
        <time>2014-02-22T09:34:18.000Z</time>
      </trkpt>
      <trkpt lat="45.7458" lon="6.16023">
        <ele>1227.1999511719</ele>
        <time>2014-02-22T09:34:25.000Z</time>
      </trkpt>
      <trkpt lat="45.74585" lon="6.16022">
        <ele>1229.1999511719</ele>
        <time>2014-02-22T09:34:31.000Z</time>
      </trkpt>
      <trkpt lat="45.74589" lon="6.16022">
        <ele>1228.8000488281</ele>
        <time>2014-02-22T09:34:37.000Z</time>
      </trkpt>
      <trkpt lat="45.74592" lon="6.16022">
        <ele>1227.8000488281</ele>
        <time>2014-02-22T09:34:43.000Z</time>
      </trkpt>
      <trkpt lat="45.74594" lon="6.1602">
        <ele>1227.1999511719</ele>
        <time>2014-02-22T09:34:47.000Z</time>
      </trkpt>
      <trkpt lat="45.74597" lon="6.16019">
        <ele>1227.1999511719</ele>
        <time>2014-02-22T09:34:51.000Z</time>
      </trkpt>
      <trkpt lat="45.746" lon="6.16016">
        <ele>1230.1999511719</ele>
        <time>2014-02-22T09:34:56.000Z</time>
      </trkpt>
      <trkpt lat="45.74606" lon="6.16013">
        <ele>1230.1999511719</ele>
        <time>2014-02-22T09:35:02.000Z</time>
      </trkpt>
      <trkpt lat="45.74611" lon="6.16011">
        <ele>1231.1999511719</ele>
        <time>2014-02-22T09:35:09.000Z</time>
      </trkpt>
      <trkpt lat="45.74615" lon="6.16009">
        <ele>1231.5999755859</ele>
        <time>2014-02-22T09:35:14.000Z</time>
      </trkpt>
      <trkpt lat="45.74621" lon="6.16006">
        <ele>1232</ele>
        <time>2014-02-22T09:35:22.000Z</time>
      </trkpt>
      <trkpt lat="45.74626" lon="6.16003">
        <ele>1234.4000244141</ele>
        <time>2014-02-22T09:35:30.000Z</time>
      </trkpt>
      <trkpt lat="45.7463" lon="6.16">
        <ele>1237.8000488281</ele>
        <time>2014-02-22T09:35:37.000Z</time>
      </trkpt>
      <trkpt lat="45.74633" lon="6.15997">
        <ele>1240.1999511719</ele>
        <time>2014-02-22T09:35:43.000Z</time>
      </trkpt>
      <trkpt lat="45.74639" lon="6.15994">
        <ele>1240.1999511719</ele>
        <time>2014-02-22T09:35:51.000Z</time>
      </trkpt>
      <trkpt lat="45.74645" lon="6.15991">
        <ele>1241.1999511719</ele>
        <time>2014-02-22T09:35:59.000Z</time>
      </trkpt>
      <trkpt lat="45.74647" lon="6.15989">
        <ele>1241.5999755859</ele>
        <time>2014-02-22T09:36:03.000Z</time>
      </trkpt>
      <trkpt lat="45.74651" lon="6.15988">
        <ele>1241.5999755859</ele>
        <time>2014-02-22T09:36:08.000Z</time>
      </trkpt>
      <trkpt lat="45.74654" lon="6.15986">
        <ele>1242.1999511719</ele>
        <time>2014-02-22T09:36:13.000Z</time>
      </trkpt>
      <trkpt lat="45.7466" lon="6.15983">
        <ele>1243.1999511719</ele>
        <time>2014-02-22T09:36:22.000Z</time>
      </trkpt>
      <trkpt lat="45.74664" lon="6.15981">
        <ele>1244</ele>
        <time>2014-02-22T09:36:28.000Z</time>
      </trkpt>
      <trkpt lat="45.74669" lon="6.15979">
        <ele>1245.5999755859</ele>
        <time>2014-02-22T09:36:35.000Z</time>
      </trkpt>
      <trkpt lat="45.74674" lon="6.15976">
        <ele>1246.4000244141</ele>
        <time>2014-02-22T09:36:42.000Z</time>
      </trkpt>
      <trkpt lat="45.74679" lon="6.1597">
        <ele>1247</ele>
        <time>2014-02-22T09:36:50.000Z</time>
      </trkpt>
      <trkpt lat="45.74683" lon="6.15968">
        <ele>1248.4000244141</ele>
        <time>2014-02-22T09:36:57.000Z</time>
      </trkpt>
      <trkpt lat="45.74687" lon="6.1597">
        <ele>1248.8000488281</ele>
        <time>2014-02-22T09:37:03.000Z</time>
      </trkpt>
      <trkpt lat="45.74689" lon="6.15973">
        <ele>1249.8000488281</ele>
        <time>2014-02-22T09:37:08.000Z</time>
      </trkpt>
      <trkpt lat="45.74691" lon="6.15979">
        <ele>1250.4000244141</ele>
        <time>2014-02-22T09:37:14.000Z</time>
      </trkpt>
      <trkpt lat="45.74693" lon="6.15982">
        <ele>1250.4000244141</ele>
        <time>2014-02-22T09:37:19.000Z</time>
      </trkpt>
      <trkpt lat="45.74694" lon="6.15983">
        <ele>1250.8000488281</ele>
        <time>2014-02-22T09:37:23.000Z</time>
      </trkpt>
      <trkpt lat="45.74696" lon="6.15982">
        <ele>1252.1999511719</ele>
        <time>2014-02-22T09:37:26.000Z</time>
      </trkpt>
      <trkpt lat="45.74698" lon="6.15985">
        <ele>1252.1999511719</ele>
        <time>2014-02-22T09:37:30.000Z</time>
      </trkpt>
      <trkpt lat="45.74698" lon="6.15989">
        <ele>1255.1999511719</ele>
        <time>2014-02-22T09:37:35.000Z</time>
      </trkpt>
      <trkpt lat="45.74698" lon="6.15993">
        <ele>1257</ele>
        <time>2014-02-22T09:37:40.000Z</time>
      </trkpt>
      <trkpt lat="45.74697" lon="6.15996">
        <ele>1258.5999755859</ele>
        <time>2014-02-22T09:37:44.000Z</time>
      </trkpt>
      <trkpt lat="45.74696" lon="6.16001">
        <ele>1259</ele>
        <time>2014-02-22T09:37:49.000Z</time>
      </trkpt>
      <trkpt lat="45.74696" lon="6.16004">
        <ele>1260</ele>
        <time>2014-02-22T09:37:53.000Z</time>
      </trkpt>
      <trkpt lat="45.74695" lon="6.16006">
        <ele>1260.4000244141</ele>
        <time>2014-02-22T09:37:57.000Z</time>
      </trkpt>
      <trkpt lat="45.74697" lon="6.16005">
        <ele>1261</ele>
        <time>2014-02-22T09:38:01.000Z</time>
      </trkpt>
      <trkpt lat="45.747" lon="6.16005">
        <ele>1262.4000244141</ele>
        <time>2014-02-22T09:38:07.000Z</time>
      </trkpt>
      <trkpt lat="45.747" lon="6.16005">
        <ele>1263.4000244141</ele>
        <time>2014-02-22T09:38:12.000Z</time>
      </trkpt>
      <trkpt lat="45.74702" lon="6.16002">
        <ele>1266.1999511719</ele>
        <time>2014-02-22T09:38:29.000Z</time>
      </trkpt>
      <trkpt lat="45.74706" lon="6.16001">
        <ele>1268.5999755859</ele>
        <time>2014-02-22T09:38:35.000Z</time>
      </trkpt>
      <trkpt lat="45.7471" lon="6.16003">
        <ele>1269</ele>
        <time>2014-02-22T09:38:40.000Z</time>
      </trkpt>
      <trkpt lat="45.74711" lon="6.16005">
        <ele>1270.5999755859</ele>
        <time>2014-02-22T09:38:44.000Z</time>
      </trkpt>
      <trkpt lat="45.7471" lon="6.16008">
        <ele>1270.5999755859</ele>
        <time>2014-02-22T09:38:47.000Z</time>
      </trkpt>
      <trkpt lat="45.74711" lon="6.16012">
        <ele>1273.4000244141</ele>
        <time>2014-02-22T09:38:52.000Z</time>
      </trkpt>
      <trkpt lat="45.7471" lon="6.16018">
        <ele>1273.4000244141</ele>
        <time>2014-02-22T09:38:57.000Z</time>
      </trkpt>
      <trkpt lat="45.74711" lon="6.1602">
        <ele>1273</ele>
        <time>2014-02-22T09:39:02.000Z</time>
      </trkpt>
      <trkpt lat="45.74714" lon="6.16018">
        <ele>1273.4000244141</ele>
        <time>2014-02-22T09:39:07.000Z</time>
      </trkpt>
      <trkpt lat="45.74718" lon="6.16015">
        <ele>1274.4000244141</ele>
        <time>2014-02-22T09:39:12.000Z</time>
      </trkpt>
      <trkpt lat="45.74723" lon="6.16011">
        <ele>1276.1999511719</ele>
        <time>2014-02-22T09:39:20.000Z</time>
      </trkpt>
      <trkpt lat="45.74728" lon="6.16007">
        <ele>1277.8000488281</ele>
        <time>2014-02-22T09:39:27.000Z</time>
      </trkpt>
      <trkpt lat="45.74733" lon="6.16002">
        <ele>1280.1999511719</ele>
        <time>2014-02-22T09:39:35.000Z</time>
      </trkpt>
      <trkpt lat="45.74737" lon="6.15998">
        <ele>1283</ele>
        <time>2014-02-22T09:39:41.000Z</time>
      </trkpt>
      <trkpt lat="45.74741" lon="6.15995">
        <ele>1284</ele>
        <time>2014-02-22T09:39:47.000Z</time>
      </trkpt>
      <trkpt lat="45.74745" lon="6.15992">
        <ele>1284.4000244141</ele>
        <time>2014-02-22T09:39:53.000Z</time>
      </trkpt>
      <trkpt lat="45.7475" lon="6.15988">
        <ele>1285</ele>
        <time>2014-02-22T09:40:00.000Z</time>
      </trkpt>
      <trkpt lat="45.74754" lon="6.15986">
        <ele>1284.4000244141</ele>
        <time>2014-02-22T09:40:05.000Z</time>
      </trkpt>
      <trkpt lat="45.74759" lon="6.15981">
        <ele>1283</ele>
        <time>2014-02-22T09:40:13.000Z</time>
      </trkpt>
      <trkpt lat="45.74765" lon="6.15976">
        <ele>1283.4000244141</ele>
        <time>2014-02-22T09:40:21.000Z</time>
      </trkpt>
      <trkpt lat="45.74771" lon="6.15969">
        <ele>1284</ele>
        <time>2014-02-22T09:40:30.000Z</time>
      </trkpt>
      <trkpt lat="45.74775" lon="6.15961">
        <ele>1286</ele>
        <time>2014-02-22T09:40:39.000Z</time>
      </trkpt>
      <trkpt lat="45.74779" lon="6.15954">
        <ele>1286.4000244141</ele>
        <time>2014-02-22T09:40:48.000Z</time>
      </trkpt>
      <trkpt lat="45.74783" lon="6.15949">
        <ele>1287.4000244141</ele>
        <time>2014-02-22T09:40:54.000Z</time>
      </trkpt>
      <trkpt lat="45.74788" lon="6.15945">
        <ele>1287.8000488281</ele>
        <time>2014-02-22T09:41:01.000Z</time>
      </trkpt>
      <trkpt lat="45.74793" lon="6.1594">
        <ele>1289.8000488281</ele>
        <time>2014-02-22T09:41:08.000Z</time>
      </trkpt>
      <trkpt lat="45.74798" lon="6.15933">
        <ele>1292.1999511719</ele>
        <time>2014-02-22T09:41:17.000Z</time>
      </trkpt>
      <trkpt lat="45.74802" lon="6.15929">
        <ele>1293.5999755859</ele>
        <time>2014-02-22T09:41:23.000Z</time>
      </trkpt>
      <trkpt lat="45.74806" lon="6.15923">
        <ele>1294.5999755859</ele>
        <time>2014-02-22T09:41:31.000Z</time>
      </trkpt>
      <trkpt lat="45.74811" lon="6.15918">
        <ele>1295.5999755859</ele>
        <time>2014-02-22T09:41:39.000Z</time>
      </trkpt>
      <trkpt lat="45.74816" lon="6.15914">
        <ele>1296</ele>
        <time>2014-02-22T09:41:45.000Z</time>
      </trkpt>
      <trkpt lat="45.74821" lon="6.15908">
        <ele>1296</ele>
        <time>2014-02-22T09:41:52.000Z</time>
      </trkpt>
      <trkpt lat="45.74826" lon="6.15903">
        <ele>1296</ele>
        <time>2014-02-22T09:41:57.000Z</time>
      </trkpt>
      <trkpt lat="45.7483" lon="6.15902">
        <ele>1297</ele>
        <time>2014-02-22T09:42:03.000Z</time>
      </trkpt>
      <trkpt lat="45.74832" lon="6.15902">
        <ele>1298.4000244141</ele>
        <time>2014-02-22T09:42:07.000Z</time>
      </trkpt>
      <trkpt lat="45.74834" lon="6.15903">
        <ele>1300.8000488281</ele>
        <time>2014-02-22T09:42:13.000Z</time>
      </trkpt>
      <trkpt lat="45.74837" lon="6.15903">
        <ele>1302.1999511719</ele>
        <time>2014-02-22T09:42:18.000Z</time>
      </trkpt>
      <trkpt lat="45.7484" lon="6.15902">
        <ele>1303.5999755859</ele>
        <time>2014-02-22T09:42:23.000Z</time>
      </trkpt>
      <trkpt lat="45.74843" lon="6.15902">
        <ele>1305.1999511719</ele>
        <time>2014-02-22T09:42:28.000Z</time>
      </trkpt>
      <trkpt lat="45.74845" lon="6.15901">
        <ele>1306</ele>
        <time>2014-02-22T09:42:32.000Z</time>
      </trkpt>
      <trkpt lat="45.74847" lon="6.15901">
        <ele>1308.4000244141</ele>
        <time>2014-02-22T09:42:36.000Z</time>
      </trkpt>
      <trkpt lat="45.7485" lon="6.159">
        <ele>1310.4000244141</ele>
        <time>2014-02-22T09:42:40.000Z</time>
      </trkpt>
      <trkpt lat="45.74853" lon="6.15899">
        <ele>1312.8000488281</ele>
        <time>2014-02-22T09:42:45.000Z</time>
      </trkpt>
      <trkpt lat="45.74855" lon="6.159">
        <ele>1314.1999511719</ele>
        <time>2014-02-22T09:42:49.000Z</time>
      </trkpt>
      <trkpt lat="45.74858" lon="6.15899">
        <ele>1315.1999511719</ele>
        <time>2014-02-22T09:42:53.000Z</time>
      </trkpt>
      <trkpt lat="45.7486" lon="6.159">
        <ele>1317.1999511719</ele>
        <time>2014-02-22T09:42:57.000Z</time>
      </trkpt>
      <trkpt lat="45.74862" lon="6.15899">
        <ele>1318.5999755859</ele>
        <time>2014-02-22T09:43:01.000Z</time>
      </trkpt>
      <trkpt lat="45.74865" lon="6.15898">
        <ele>1320</ele>
        <time>2014-02-22T09:43:07.000Z</time>
      </trkpt>
      <trkpt lat="45.74866" lon="6.15896">
        <ele>1322.4000244141</ele>
        <time>2014-02-22T09:43:11.000Z</time>
      </trkpt>
      <trkpt lat="45.7487" lon="6.15897">
        <ele>1323.8000488281</ele>
        <time>2014-02-22T09:43:17.000Z</time>
      </trkpt>
      <trkpt lat="45.74873" lon="6.15897">
        <ele>1323.8000488281</ele>
        <time>2014-02-22T09:43:22.000Z</time>
      </trkpt>
      <trkpt lat="45.74875" lon="6.15897">
        <ele>1324.8000488281</ele>
        <time>2014-02-22T09:43:26.000Z</time>
      </trkpt>
      <trkpt lat="45.74879" lon="6.15898">
        <ele>1325.8000488281</ele>
        <time>2014-02-22T09:43:32.000Z</time>
      </trkpt>
      <trkpt lat="45.74882" lon="6.15898">
        <ele>1326.1999511719</ele>
        <time>2014-02-22T09:43:37.000Z</time>
      </trkpt>
      <trkpt lat="45.74884" lon="6.15898">
        <ele>1325.8000488281</ele>
        <time>2014-02-22T09:43:41.000Z</time>
      </trkpt>
      <trkpt lat="45.74887" lon="6.15899">
        <ele>1325.4000244141</ele>
        <time>2014-02-22T09:43:45.000Z</time>
      </trkpt>
      <trkpt lat="45.74889" lon="6.15899">
        <ele>1325.4000244141</ele>
        <time>2014-02-22T09:43:49.000Z</time>
      </trkpt>
      <trkpt lat="45.74892" lon="6.15899">
        <ele>1325.8000488281</ele>
        <time>2014-02-22T09:43:53.000Z</time>
      </trkpt>
      <trkpt lat="45.74894" lon="6.15899">
        <ele>1326.1999511719</ele>
        <time>2014-02-22T09:43:58.000Z</time>
      </trkpt>
      <trkpt lat="45.74898" lon="6.159">
        <ele>1327.1999511719</ele>
        <time>2014-02-22T09:44:04.000Z</time>
      </trkpt>
      <trkpt lat="45.749" lon="6.15901">
        <ele>1328.1999511719</ele>
        <time>2014-02-22T09:44:08.000Z</time>
      </trkpt>
      <trkpt lat="45.74902" lon="6.15902">
        <ele>1327.8000488281</ele>
        <time>2014-02-22T09:44:12.000Z</time>
      </trkpt>
      <trkpt lat="45.74903" lon="6.15906">
        <ele>1328.1999511719</ele>
        <time>2014-02-22T09:44:17.000Z</time>
      </trkpt>
      <trkpt lat="45.74904" lon="6.15908">
        <ele>1327.8000488281</ele>
        <time>2014-02-22T09:44:21.000Z</time>
      </trkpt>
      <trkpt lat="45.74903" lon="6.15908">
        <ele>1325.4000244141</ele>
        <time>2014-02-22T09:44:47.000Z</time>
      </trkpt>
      <trkpt lat="45.74905" lon="6.15907">
        <ele>1323</ele>
        <time>2014-02-22T09:44:59.000Z</time>
      </trkpt>
      <trkpt lat="45.74905" lon="6.15908">
        <ele>1323</ele>
        <time>2014-02-22T09:45:03.000Z</time>
      </trkpt>
      <trkpt lat="45.74904" lon="6.15909">
        <ele>1324.8000488281</ele>
        <time>2014-02-22T09:45:06.000Z</time>
      </trkpt>
      <trkpt lat="45.74904" lon="6.1591">
        <ele>1325.8000488281</ele>
        <time>2014-02-22T09:45:18.000Z</time>
      </trkpt>
      <trkpt lat="45.74905" lon="6.15914">
        <ele>1328.1999511719</ele>
        <time>2014-02-22T09:45:24.000Z</time>
      </trkpt>
      <trkpt lat="45.74905" lon="6.15917">
        <ele>1332.5999755859</ele>
        <time>2014-02-22T09:45:30.000Z</time>
      </trkpt>
      <trkpt lat="45.74908" lon="6.15918">
        <ele>1334</ele>
        <time>2014-02-22T09:45:34.000Z</time>
      </trkpt>
      <trkpt lat="45.74912" lon="6.15918">
        <ele>1335.8000488281</ele>
        <time>2014-02-22T09:45:41.000Z</time>
      </trkpt>
      <trkpt lat="45.74916" lon="6.15917">
        <ele>1336.8000488281</ele>
        <time>2014-02-22T09:45:47.000Z</time>
      </trkpt>
      <trkpt lat="45.74919" lon="6.15917">
        <ele>1337.8000488281</ele>
        <time>2014-02-22T09:45:52.000Z</time>
      </trkpt>
      <trkpt lat="45.74922" lon="6.15917">
        <ele>1339.8000488281</ele>
        <time>2014-02-22T09:45:57.000Z</time>
      </trkpt>
      <trkpt lat="45.74925" lon="6.15917">
        <ele>1340.5999755859</ele>
        <time>2014-02-22T09:46:02.000Z</time>
      </trkpt>
      <trkpt lat="45.74929" lon="6.15916">
        <ele>1341.5999755859</ele>
        <time>2014-02-22T09:46:07.000Z</time>
      </trkpt>
      <trkpt lat="45.74932" lon="6.15916">
        <ele>1343</ele>
        <time>2014-02-22T09:46:12.000Z</time>
      </trkpt>
      <trkpt lat="45.74935" lon="6.15915">
        <ele>1343.5999755859</ele>
        <time>2014-02-22T09:46:16.000Z</time>
      </trkpt>
      <trkpt lat="45.74937" lon="6.15914">
        <ele>1345</ele>
        <time>2014-02-22T09:46:21.000Z</time>
      </trkpt>
      <trkpt lat="45.74941" lon="6.15914">
        <ele>1346</ele>
        <time>2014-02-22T09:46:27.000Z</time>
      </trkpt>
      <trkpt lat="45.74946" lon="6.15913">
        <ele>1347.4000244141</ele>
        <time>2014-02-22T09:46:35.000Z</time>
      </trkpt>
      <trkpt lat="45.7495" lon="6.15912">
        <ele>1348.4000244141</ele>
        <time>2014-02-22T09:46:41.000Z</time>
      </trkpt>
      <trkpt lat="45.74954" lon="6.15912">
        <ele>1348.4000244141</ele>
        <time>2014-02-22T09:46:47.000Z</time>
      </trkpt>
      <trkpt lat="45.74956" lon="6.15913">
        <ele>1349.8000488281</ele>
        <time>2014-02-22T09:46:52.000Z</time>
      </trkpt>
      <trkpt lat="45.74959" lon="6.15917">
        <ele>1350.4000244141</ele>
        <time>2014-02-22T09:46:57.000Z</time>
      </trkpt>
      <trkpt lat="45.7496" lon="6.1592">
        <ele>1350.8000488281</ele>
        <time>2014-02-22T09:47:02.000Z</time>
      </trkpt>
      <trkpt lat="45.74961" lon="6.15925">
        <ele>1351.8000488281</ele>
        <time>2014-02-22T09:47:07.000Z</time>
      </trkpt>
      <trkpt lat="45.74961" lon="6.15929">
        <ele>1351.8000488281</ele>
        <time>2014-02-22T09:47:12.000Z</time>
      </trkpt>
      <trkpt lat="45.74961" lon="6.15934">
        <ele>1352.8000488281</ele>
        <time>2014-02-22T09:47:18.000Z</time>
      </trkpt>
      <trkpt lat="45.74961" lon="6.15937">
        <ele>1354.5999755859</ele>
        <time>2014-02-22T09:47:22.000Z</time>
      </trkpt>
      <trkpt lat="45.7496" lon="6.15942">
        <ele>1356</ele>
        <time>2014-02-22T09:47:28.000Z</time>
      </trkpt>
      <trkpt lat="45.74961" lon="6.15946">
        <ele>1357</ele>
        <time>2014-02-22T09:47:33.000Z</time>
      </trkpt>
      <trkpt lat="45.74962" lon="6.15952">
        <ele>1358</ele>
        <time>2014-02-22T09:47:39.000Z</time>
      </trkpt>
      <trkpt lat="45.74963" lon="6.15955">
        <ele>1359.4000244141</ele>
        <time>2014-02-22T09:47:44.000Z</time>
      </trkpt>
      <trkpt lat="45.74965" lon="6.15956">
        <ele>1360.8000488281</ele>
        <time>2014-02-22T09:47:49.000Z</time>
      </trkpt>
      <trkpt lat="45.74968" lon="6.15957">
        <ele>1361.8000488281</ele>
        <time>2014-02-22T09:47:54.000Z</time>
      </trkpt>
      <trkpt lat="45.74971" lon="6.15958">
        <ele>1363.1999511719</ele>
        <time>2014-02-22T09:47:59.000Z</time>
      </trkpt>
      <trkpt lat="45.74974" lon="6.15958">
        <ele>1364.1999511719</ele>
        <time>2014-02-22T09:48:03.000Z</time>
      </trkpt>
      <trkpt lat="45.74977" lon="6.15958">
        <ele>1365.1999511719</ele>
        <time>2014-02-22T09:48:09.000Z</time>
      </trkpt>
      <trkpt lat="45.7498" lon="6.15958">
        <ele>1365.1999511719</ele>
        <time>2014-02-22T09:48:13.000Z</time>
      </trkpt>
      <trkpt lat="45.74983" lon="6.15958">
        <ele>1366.1999511719</ele>
        <time>2014-02-22T09:48:17.000Z</time>
      </trkpt>
      <trkpt lat="45.74987" lon="6.15957">
        <ele>1367.5999755859</ele>
        <time>2014-02-22T09:48:23.000Z</time>
      </trkpt>
      <trkpt lat="45.74991" lon="6.15957">
        <ele>1368</ele>
        <time>2014-02-22T09:48:29.000Z</time>
      </trkpt>
      <trkpt lat="45.74994" lon="6.15956">
        <ele>1370</ele>
        <time>2014-02-22T09:48:35.000Z</time>
      </trkpt>
      <trkpt lat="45.74998" lon="6.15956">
        <ele>1371</ele>
        <time>2014-02-22T09:48:41.000Z</time>
      </trkpt>
      <trkpt lat="45.75003" lon="6.15955">
        <ele>1372</ele>
        <time>2014-02-22T09:48:48.000Z</time>
      </trkpt>
      <trkpt lat="45.75005" lon="6.15955">
        <ele>1372.4000244141</ele>
        <time>2014-02-22T09:48:52.000Z</time>
      </trkpt>
      <trkpt lat="45.75008" lon="6.15954">
        <ele>1372.4000244141</ele>
        <time>2014-02-22T09:48:56.000Z</time>
      </trkpt>
      <trkpt lat="45.75012" lon="6.15953">
        <ele>1373.8000488281</ele>
        <time>2014-02-22T09:49:02.000Z</time>
      </trkpt>
      <trkpt lat="45.75015" lon="6.15953">
        <ele>1375.4000244141</ele>
        <time>2014-02-22T09:49:07.000Z</time>
      </trkpt>
      <trkpt lat="45.75019" lon="6.15952">
        <ele>1376.8000488281</ele>
        <time>2014-02-22T09:49:14.000Z</time>
      </trkpt>
      <trkpt lat="45.75023" lon="6.15952">
        <ele>1378.1999511719</ele>
        <time>2014-02-22T09:49:20.000Z</time>
      </trkpt>
      <trkpt lat="45.75025" lon="6.15952">
        <ele>1379.1999511719</ele>
        <time>2014-02-22T09:49:25.000Z</time>
      </trkpt>
      <trkpt lat="45.75028" lon="6.15952">
        <ele>1380.5999755859</ele>
        <time>2014-02-22T09:49:31.000Z</time>
      </trkpt>
      <trkpt lat="45.75029" lon="6.15951">
        <ele>1381.5999755859</ele>
        <time>2014-02-22T09:49:38.000Z</time>
      </trkpt>
      <trkpt lat="45.75036" lon="6.15957">
        <ele>1366.5999755859</ele>
        <time>2014-02-22T09:50:36.000Z</time>
      </trkpt>
      <trkpt lat="45.75038" lon="6.15954">
        <ele>1367.1999511719</ele>
        <time>2014-02-22T09:51:01.000Z</time>
      </trkpt>
      <trkpt lat="45.75041" lon="6.15954">
        <ele>1368.5999755859</ele>
        <time>2014-02-22T09:51:06.000Z</time>
      </trkpt>
      <trkpt lat="45.75044" lon="6.15953">
        <ele>1371</ele>
        <time>2014-02-22T09:51:12.000Z</time>
      </trkpt>
      <trkpt lat="45.75046" lon="6.15952">
        <ele>1372.4000244141</ele>
        <time>2014-02-22T09:51:17.000Z</time>
      </trkpt>
      <trkpt lat="45.75047" lon="6.15951">
        <ele>1374.4000244141</ele>
        <time>2014-02-22T09:51:23.000Z</time>
      </trkpt>
      <trkpt lat="45.75047" lon="6.15952">
        <ele>1374.8000488281</ele>
        <time>2014-02-22T09:51:30.000Z</time>
      </trkpt>
      <trkpt lat="45.75049" lon="6.1595">
        <ele>1377.8000488281</ele>
        <time>2014-02-22T09:51:43.000Z</time>
      </trkpt>
      <trkpt lat="45.75051" lon="6.1595">
        <ele>1378.5999755859</ele>
        <time>2014-02-22T09:51:47.000Z</time>
      </trkpt>
      <trkpt lat="45.75054" lon="6.15949">
        <ele>1382</ele>
        <time>2014-02-22T09:51:54.000Z</time>
      </trkpt>
      <trkpt lat="45.75056" lon="6.15949">
        <ele>1384</ele>
        <time>2014-02-22T09:51:58.000Z</time>
      </trkpt>
      <trkpt lat="45.75059" lon="6.15948">
        <ele>1386.8000488281</ele>
        <time>2014-02-22T09:52:04.000Z</time>
      </trkpt>
      <trkpt lat="45.7506" lon="6.15948">
        <ele>1388.8000488281</ele>
        <time>2014-02-22T09:52:08.000Z</time>
      </trkpt>
      <trkpt lat="45.75062" lon="6.15947">
        <ele>1390.5999755859</ele>
        <time>2014-02-22T09:52:12.000Z</time>
      </trkpt>
      <trkpt lat="45.75065" lon="6.15947">
        <ele>1391.5999755859</ele>
        <time>2014-02-22T09:52:16.000Z</time>
      </trkpt>
      <trkpt lat="45.75067" lon="6.15948">
        <ele>1392.1999511719</ele>
        <time>2014-02-22T09:52:20.000Z</time>
      </trkpt>
      <trkpt lat="45.75069" lon="6.15948">
        <ele>1394.5999755859</ele>
        <time>2014-02-22T09:52:24.000Z</time>
      </trkpt>
      <trkpt lat="45.75071" lon="6.15948">
        <ele>1397.8000488281</ele>
        <time>2014-02-22T09:52:29.000Z</time>
      </trkpt>
      <trkpt lat="45.75074" lon="6.15947">
        <ele>1400.8000488281</ele>
        <time>2014-02-22T09:52:34.000Z</time>
      </trkpt>
      <trkpt lat="45.75077" lon="6.15947">
        <ele>1401.8000488281</ele>
        <time>2014-02-22T09:52:39.000Z</time>
      </trkpt>
      <trkpt lat="45.75079" lon="6.15947">
        <ele>1402.1999511719</ele>
        <time>2014-02-22T09:52:43.000Z</time>
      </trkpt>
      <trkpt lat="45.75082" lon="6.15947">
        <ele>1404.1999511719</ele>
        <time>2014-02-22T09:52:48.000Z</time>
      </trkpt>
      <trkpt lat="45.75085" lon="6.15947">
        <ele>1404.5999755859</ele>
        <time>2014-02-22T09:52:52.000Z</time>
      </trkpt>
      <trkpt lat="45.7509" lon="6.15947">
        <ele>1405.5999755859</ele>
        <time>2014-02-22T09:52:59.000Z</time>
      </trkpt>
      <trkpt lat="45.75094" lon="6.15947">
        <ele>1407.5999755859</ele>
        <time>2014-02-22T09:53:07.000Z</time>
      </trkpt>
      <trkpt lat="45.75097" lon="6.15947">
        <ele>1408.4000244141</ele>
        <time>2014-02-22T09:53:14.000Z</time>
      </trkpt>
      <trkpt lat="45.751" lon="6.15948">
        <ele>1409.4000244141</ele>
        <time>2014-02-22T09:53:20.000Z</time>
      </trkpt>
      <trkpt lat="45.75105" lon="6.15947">
        <ele>1410.8000488281</ele>
        <time>2014-02-22T09:53:28.000Z</time>
      </trkpt>
      <trkpt lat="45.75108" lon="6.15946">
        <ele>1411.4000244141</ele>
        <time>2014-02-22T09:53:33.000Z</time>
      </trkpt>
      <trkpt lat="45.75112" lon="6.15945">
        <ele>1412.4000244141</ele>
        <time>2014-02-22T09:53:39.000Z</time>
      </trkpt>
      <trkpt lat="45.75115" lon="6.15944">
        <ele>1413.1999511719</ele>
        <time>2014-02-22T09:53:44.000Z</time>
      </trkpt>
      <trkpt lat="45.75118" lon="6.15943">
        <ele>1414.8000488281</ele>
        <time>2014-02-22T09:53:50.000Z</time>
      </trkpt>
      <trkpt lat="45.75123" lon="6.15943">
        <ele>1416.1999511719</ele>
        <time>2014-02-22T09:53:57.000Z</time>
      </trkpt>
      <trkpt lat="45.75126" lon="6.15943">
        <ele>1417.1999511719</ele>
        <time>2014-02-22T09:54:02.000Z</time>
      </trkpt>
      <trkpt lat="45.75131" lon="6.15942">
        <ele>1419</ele>
        <time>2014-02-22T09:54:10.000Z</time>
      </trkpt>
      <trkpt lat="45.75133" lon="6.15941">
        <ele>1420.4000244141</ele>
        <time>2014-02-22T09:54:15.000Z</time>
      </trkpt>
      <trkpt lat="45.75136" lon="6.15939">
        <ele>1421.4000244141</ele>
        <time>2014-02-22T09:54:20.000Z</time>
      </trkpt>
      <trkpt lat="45.7514" lon="6.15938">
        <ele>1423.4000244141</ele>
        <time>2014-02-22T09:54:26.000Z</time>
      </trkpt>
      <trkpt lat="45.75143" lon="6.15937">
        <ele>1425.1999511719</ele>
        <time>2014-02-22T09:54:32.000Z</time>
      </trkpt>
      <trkpt lat="45.75146" lon="6.15936">
        <ele>1426.8000488281</ele>
        <time>2014-02-22T09:54:36.000Z</time>
      </trkpt>
      <trkpt lat="45.75148" lon="6.15935">
        <ele>1427.5999755859</ele>
        <time>2014-02-22T09:54:40.000Z</time>
      </trkpt>
      <trkpt lat="45.7515" lon="6.15934">
        <ele>1428.5999755859</ele>
        <time>2014-02-22T09:54:44.000Z</time>
      </trkpt>
      <trkpt lat="45.75154" lon="6.15933">
        <ele>1430</ele>
        <time>2014-02-22T09:54:50.000Z</time>
      </trkpt>
      <trkpt lat="45.75157" lon="6.15931">
        <ele>1430.5999755859</ele>
        <time>2014-02-22T09:54:55.000Z</time>
      </trkpt>
      <trkpt lat="45.7516" lon="6.15929">
        <ele>1432</ele>
        <time>2014-02-22T09:55:00.000Z</time>
      </trkpt>
      <trkpt lat="45.75164" lon="6.15927">
        <ele>1433</ele>
        <time>2014-02-22T09:55:07.000Z</time>
      </trkpt>
      <trkpt lat="45.75166" lon="6.15926">
        <ele>1433.4000244141</ele>
        <time>2014-02-22T09:55:11.000Z</time>
      </trkpt>
      <trkpt lat="45.75169" lon="6.15924">
        <ele>1435.4000244141</ele>
        <time>2014-02-22T09:55:15.000Z</time>
      </trkpt>
      <trkpt lat="45.75173" lon="6.15922">
        <ele>1436.4000244141</ele>
        <time>2014-02-22T09:55:20.000Z</time>
      </trkpt>
      <trkpt lat="45.75176" lon="6.15922">
        <ele>1436.8000488281</ele>
        <time>2014-02-22T09:55:24.000Z</time>
      </trkpt>
      <trkpt lat="45.75181" lon="6.1592">
        <ele>1437.8000488281</ele>
        <time>2014-02-22T09:55:31.000Z</time>
      </trkpt>
      <trkpt lat="45.75183" lon="6.1592">
        <ele>1438.8000488281</ele>
        <time>2014-02-22T09:55:35.000Z</time>
      </trkpt>
      <trkpt lat="45.75187" lon="6.15919">
        <ele>1440.1999511719</ele>
        <time>2014-02-22T09:55:40.000Z</time>
      </trkpt>
      <trkpt lat="45.75191" lon="6.15918">
        <ele>1441.5999755859</ele>
        <time>2014-02-22T09:55:46.000Z</time>
      </trkpt>
      <trkpt lat="45.75195" lon="6.15919">
        <ele>1442.5999755859</ele>
        <time>2014-02-22T09:55:51.000Z</time>
      </trkpt>
      <trkpt lat="45.752" lon="6.15921">
        <ele>1444</ele>
        <time>2014-02-22T09:55:58.000Z</time>
      </trkpt>
      <trkpt lat="45.75203" lon="6.15921">
        <ele>1446</ele>
        <time>2014-02-22T09:56:03.000Z</time>
      </trkpt>
      <trkpt lat="45.75209" lon="6.15922">
        <ele>1447.4000244141</ele>
        <time>2014-02-22T09:56:10.000Z</time>
      </trkpt>
      <trkpt lat="45.75213" lon="6.15924">
        <ele>1448.4000244141</ele>
        <time>2014-02-22T09:56:15.000Z</time>
      </trkpt>
      <trkpt lat="45.75216" lon="6.15925">
        <ele>1449.8000488281</ele>
        <time>2014-02-22T09:56:20.000Z</time>
      </trkpt>
      <trkpt lat="45.7522" lon="6.15928">
        <ele>1451.1999511719</ele>
        <time>2014-02-22T09:56:26.000Z</time>
      </trkpt>
      <trkpt lat="45.75224" lon="6.15931">
        <ele>1452.1999511719</ele>
        <time>2014-02-22T09:56:32.000Z</time>
      </trkpt>
      <trkpt lat="45.75227" lon="6.15933">
        <ele>1453.1999511719</ele>
        <time>2014-02-22T09:56:37.000Z</time>
      </trkpt>
      <trkpt lat="45.7523" lon="6.15936">
        <ele>1454.1999511719</ele>
        <time>2014-02-22T09:56:43.000Z</time>
      </trkpt>
      <trkpt lat="45.75235" lon="6.1594">
        <ele>1455.5999755859</ele>
        <time>2014-02-22T09:56:51.000Z</time>
      </trkpt>
      <trkpt lat="45.75238" lon="6.15942">
        <ele>1456.5999755859</ele>
        <time>2014-02-22T09:56:56.000Z</time>
      </trkpt>
      <trkpt lat="45.75241" lon="6.15945">
        <ele>1457</ele>
        <time>2014-02-22T09:57:01.000Z</time>
      </trkpt>
      <trkpt lat="45.75244" lon="6.15947">
        <ele>1458</ele>
        <time>2014-02-22T09:57:06.000Z</time>
      </trkpt>
      <trkpt lat="45.75248" lon="6.15951">
        <ele>1458.4000244141</ele>
        <time>2014-02-22T09:57:12.000Z</time>
      </trkpt>
      <trkpt lat="45.75252" lon="6.15954">
        <ele>1459</ele>
        <time>2014-02-22T09:57:17.000Z</time>
      </trkpt>
      <trkpt lat="45.75256" lon="6.15957">
        <ele>1459.8000488281</ele>
        <time>2014-02-22T09:57:23.000Z</time>
      </trkpt>
      <trkpt lat="45.75261" lon="6.15961">
        <ele>1460.4000244141</ele>
        <time>2014-02-22T09:57:29.000Z</time>
      </trkpt>
      <trkpt lat="45.75265" lon="6.15964">
        <ele>1462.4000244141</ele>
        <time>2014-02-22T09:57:35.000Z</time>
      </trkpt>
      <trkpt lat="45.75269" lon="6.15967">
        <ele>1463.1999511719</ele>
        <time>2014-02-22T09:57:41.000Z</time>
      </trkpt>
      <trkpt lat="45.75275" lon="6.15969">
        <ele>1464.1999511719</ele>
        <time>2014-02-22T09:57:47.000Z</time>
      </trkpt>
      <trkpt lat="45.7528" lon="6.15972">
        <ele>1465.1999511719</ele>
        <time>2014-02-22T09:57:52.000Z</time>
      </trkpt>
      <trkpt lat="45.75284" lon="6.15973">
        <ele>1467.1999511719</ele>
        <time>2014-02-22T09:57:57.000Z</time>
      </trkpt>
      <trkpt lat="45.75289" lon="6.15975">
        <ele>1468</ele>
        <time>2014-02-22T09:58:03.000Z</time>
      </trkpt>
      <trkpt lat="45.75296" lon="6.15977">
        <ele>1469</ele>
        <time>2014-02-22T09:58:10.000Z</time>
      </trkpt>
      <trkpt lat="45.75301" lon="6.15981">
        <ele>1469.5999755859</ele>
        <time>2014-02-22T09:58:16.000Z</time>
      </trkpt>
      <trkpt lat="45.75304" lon="6.15983">
        <ele>1470</ele>
        <time>2014-02-22T09:58:20.000Z</time>
      </trkpt>
      <trkpt lat="45.75308" lon="6.15985">
        <ele>1472</ele>
        <time>2014-02-22T09:58:26.000Z</time>
      </trkpt>
      <trkpt lat="45.7531" lon="6.15987">
        <ele>1472.4000244141</ele>
        <time>2014-02-22T09:58:30.000Z</time>
      </trkpt>
      <trkpt lat="45.75314" lon="6.15989">
        <ele>1473.4000244141</ele>
        <time>2014-02-22T09:58:36.000Z</time>
      </trkpt>
      <trkpt lat="45.75317" lon="6.1599">
        <ele>1474.8000488281</ele>
        <time>2014-02-22T09:58:40.000Z</time>
      </trkpt>
      <trkpt lat="45.7532" lon="6.15992">
        <ele>1475.8000488281</ele>
        <time>2014-02-22T09:58:44.000Z</time>
      </trkpt>
      <trkpt lat="45.75323" lon="6.15993">
        <ele>1477.5999755859</ele>
        <time>2014-02-22T09:58:50.000Z</time>
      </trkpt>
      <trkpt lat="45.75326" lon="6.15994">
        <ele>1477.5999755859</ele>
        <time>2014-02-22T09:58:54.000Z</time>
      </trkpt>
      <trkpt lat="45.75331" lon="6.15996">
        <ele>1478.5999755859</ele>
        <time>2014-02-22T09:59:00.000Z</time>
      </trkpt>
      <trkpt lat="45.75335" lon="6.15998">
        <ele>1478.5999755859</ele>
        <time>2014-02-22T09:59:05.000Z</time>
      </trkpt>
      <trkpt lat="45.75339" lon="6.16">
        <ele>1480</ele>
        <time>2014-02-22T09:59:11.000Z</time>
      </trkpt>
      <trkpt lat="45.75342" lon="6.16002">
        <ele>1481</ele>
        <time>2014-02-22T09:59:17.000Z</time>
      </trkpt>
      <trkpt lat="45.75345" lon="6.16003">
        <ele>1481.5999755859</ele>
        <time>2014-02-22T09:59:21.000Z</time>
      </trkpt>
      <trkpt lat="45.75348" lon="6.16005">
        <ele>1483</ele>
        <time>2014-02-22T09:59:26.000Z</time>
      </trkpt>
      <trkpt lat="45.75351" lon="6.16006">
        <ele>1484</ele>
        <time>2014-02-22T09:59:30.000Z</time>
      </trkpt>
      <trkpt lat="45.75354" lon="6.16007">
        <ele>1484.8000488281</ele>
        <time>2014-02-22T09:59:34.000Z</time>
      </trkpt>
      <trkpt lat="45.75356" lon="6.16008">
        <ele>1485.8000488281</ele>
        <time>2014-02-22T09:59:38.000Z</time>
      </trkpt>
      <trkpt lat="45.7536" lon="6.1601">
        <ele>1486.8000488281</ele>
        <time>2014-02-22T09:59:44.000Z</time>
      </trkpt>
      <trkpt lat="45.75363" lon="6.16012">
        <ele>1488.1999511719</ele>
        <time>2014-02-22T09:59:49.000Z</time>
      </trkpt>
      <trkpt lat="45.75365" lon="6.16013">
        <ele>1488.8000488281</ele>
        <time>2014-02-22T09:59:53.000Z</time>
      </trkpt>
      <trkpt lat="45.75368" lon="6.16015">
        <ele>1490.1999511719</ele>
        <time>2014-02-22T09:59:58.000Z</time>
      </trkpt>
      <trkpt lat="45.7537" lon="6.16017">
        <ele>1490.5999755859</ele>
        <time>2014-02-22T10:00:02.000Z</time>
      </trkpt>
      <trkpt lat="45.75373" lon="6.16019">
        <ele>1491.1999511719</ele>
        <time>2014-02-22T10:00:06.000Z</time>
      </trkpt>
      <trkpt lat="45.75377" lon="6.16023">
        <ele>1492.5999755859</ele>
        <time>2014-02-22T10:00:12.000Z</time>
      </trkpt>
      <trkpt lat="45.75379" lon="6.16025">
        <ele>1492.5999755859</ele>
        <time>2014-02-22T10:00:16.000Z</time>
      </trkpt>
      <trkpt lat="45.75382" lon="6.16028">
        <ele>1493</ele>
        <time>2014-02-22T10:00:22.000Z</time>
      </trkpt>
      <trkpt lat="45.75385" lon="6.16032">
        <ele>1494</ele>
        <time>2014-02-22T10:00:28.000Z</time>
      </trkpt>
      <trkpt lat="45.75387" lon="6.16034">
        <ele>1494.5999755859</ele>
        <time>2014-02-22T10:00:32.000Z</time>
      </trkpt>
      <trkpt lat="45.7539" lon="6.16037">
        <ele>1495</ele>
        <time>2014-02-22T10:00:37.000Z</time>
      </trkpt>
      <trkpt lat="45.75393" lon="6.1604">
        <ele>1495.4000244141</ele>
        <time>2014-02-22T10:00:43.000Z</time>
      </trkpt>
      <trkpt lat="45.75396" lon="6.16044">
        <ele>1496</ele>
        <time>2014-02-22T10:00:50.000Z</time>
      </trkpt>
      <trkpt lat="45.75399" lon="6.16047">
        <ele>1497</ele>
        <time>2014-02-22T10:00:56.000Z</time>
      </trkpt>
      <trkpt lat="45.75402" lon="6.16052">
        <ele>1497.4000244141</ele>
        <time>2014-02-22T10:01:03.000Z</time>
      </trkpt>
      <trkpt lat="45.75404" lon="6.16056">
        <ele>1498.8000488281</ele>
        <time>2014-02-22T10:01:09.000Z</time>
      </trkpt>
      <trkpt lat="45.75407" lon="6.16059">
        <ele>1499.4000244141</ele>
        <time>2014-02-22T10:01:15.000Z</time>
      </trkpt>
      <trkpt lat="45.75408" lon="6.16062">
        <ele>1500.8000488281</ele>
        <time>2014-02-22T10:01:18.000Z</time>
      </trkpt>
      <trkpt lat="45.7541" lon="6.16064">
        <ele>1501.1999511719</ele>
        <time>2014-02-22T10:01:23.000Z</time>
      </trkpt>
      <trkpt lat="45.75412" lon="6.16067">
        <ele>1502.1999511719</ele>
        <time>2014-02-22T10:01:27.000Z</time>
      </trkpt>
      <trkpt lat="45.75415" lon="6.1607">
        <ele>1503.1999511719</ele>
        <time>2014-02-22T10:01:32.000Z</time>
      </trkpt>
      <trkpt lat="45.75417" lon="6.16072">
        <ele>1503.5999755859</ele>
        <time>2014-02-22T10:01:36.000Z</time>
      </trkpt>
      <trkpt lat="45.75419" lon="6.16076">
        <ele>1503.5999755859</ele>
        <time>2014-02-22T10:01:42.000Z</time>
      </trkpt>
      <trkpt lat="45.75417" lon="6.16077">
        <ele>1503.5999755859</ele>
        <time>2014-02-22T10:01:46.000Z</time>
      </trkpt>
      <trkpt lat="45.75415" lon="6.16077">
        <ele>1505.5999755859</ele>
        <time>2014-02-22T10:01:51.000Z</time>
      </trkpt>
      <trkpt lat="45.75412" lon="6.16078">
        <ele>1507.4000244141</ele>
        <time>2014-02-22T10:01:56.000Z</time>
      </trkpt>
      <trkpt lat="45.75411" lon="6.1608">
        <ele>1507.4000244141</ele>
        <time>2014-02-22T10:01:59.000Z</time>
      </trkpt>
      <trkpt lat="45.75408" lon="6.16083">
        <ele>1509.4000244141</ele>
        <time>2014-02-22T10:02:05.000Z</time>
      </trkpt>
      <trkpt lat="45.75405" lon="6.16083">
        <ele>1511.8000488281</ele>
        <time>2014-02-22T10:02:10.000Z</time>
      </trkpt>
      <trkpt lat="45.75401" lon="6.16084">
        <ele>1512.8000488281</ele>
        <time>2014-02-22T10:02:17.000Z</time>
      </trkpt>
      <trkpt lat="45.75399" lon="6.16086">
        <ele>1514.1999511719</ele>
        <time>2014-02-22T10:02:24.000Z</time>
      </trkpt>
      <trkpt lat="45.75399" lon="6.16086">
        <ele>1514.5999755859</ele>
        <time>2014-02-22T10:02:29.000Z</time>
      </trkpt>
      <trkpt lat="45.75401" lon="6.16089">
        <ele>1514.5999755859</ele>
        <time>2014-02-22T10:02:34.000Z</time>
      </trkpt>
      <trkpt lat="45.75404" lon="6.16093">
        <ele>1515.5999755859</ele>
        <time>2014-02-22T10:02:40.000Z</time>
      </trkpt>
      <trkpt lat="45.75406" lon="6.16097">
        <ele>1516.1999511719</ele>
        <time>2014-02-22T10:02:46.000Z</time>
      </trkpt>
      <trkpt lat="45.75409" lon="6.161">
        <ele>1516.1999511719</ele>
        <time>2014-02-22T10:02:52.000Z</time>
      </trkpt>
      <trkpt lat="45.75409" lon="6.16101">
        <ele>1516.5999755859</ele>
        <time>2014-02-22T10:02:59.000Z</time>
      </trkpt>
      <trkpt lat="45.75411" lon="6.16102">
        <ele>1516.5999755859</ele>
        <time>2014-02-22T10:03:03.000Z</time>
      </trkpt>
      <trkpt lat="45.75412" lon="6.16104">
        <ele>1516.5999755859</ele>
        <time>2014-02-22T10:03:07.000Z</time>
      </trkpt>
      <trkpt lat="45.7541" lon="6.16106">
        <ele>1517</ele>
        <time>2014-02-22T10:03:11.000Z</time>
      </trkpt>
      <trkpt lat="45.75406" lon="6.16106">
        <ele>1517.5999755859</ele>
        <time>2014-02-22T10:03:16.000Z</time>
      </trkpt>
      <trkpt lat="45.75403" lon="6.16109">
        <ele>1518</ele>
        <time>2014-02-22T10:03:22.000Z</time>
      </trkpt>
      <trkpt lat="45.754" lon="6.1611">
        <ele>1518.5999755859</ele>
        <time>2014-02-22T10:03:27.000Z</time>
      </trkpt>
      <trkpt lat="45.75397" lon="6.16113">
        <ele>1517.5999755859</ele>
        <time>2014-02-22T10:03:33.000Z</time>
      </trkpt>
      <trkpt lat="45.75398" lon="6.16115">
        <ele>1519</ele>
        <time>2014-02-22T10:03:40.000Z</time>
      </trkpt>
      <trkpt lat="45.754" lon="6.16118">
        <ele>1520</ele>
        <time>2014-02-22T10:03:44.000Z</time>
      </trkpt>
      <trkpt lat="45.75402" lon="6.1612">
        <ele>1521.4000244141</ele>
        <time>2014-02-22T10:03:49.000Z</time>
      </trkpt>
      <trkpt lat="45.75405" lon="6.16124">
        <ele>1522.4000244141</ele>
        <time>2014-02-22T10:03:54.000Z</time>
      </trkpt>
      <trkpt lat="45.75409" lon="6.16127">
        <ele>1522.8000488281</ele>
        <time>2014-02-22T10:04:01.000Z</time>
      </trkpt>
      <trkpt lat="45.75411" lon="6.16127">
        <ele>1525.8000488281</ele>
        <time>2014-02-22T10:04:10.000Z</time>
      </trkpt>
      <trkpt lat="45.7541" lon="6.16126">
        <ele>1526.8000488281</ele>
        <time>2014-02-22T10:04:15.000Z</time>
      </trkpt>
      <trkpt lat="45.7541" lon="6.16125">
        <ele>1526.8000488281</ele>
        <time>2014-02-22T10:04:21.000Z</time>
      </trkpt>
      <trkpt lat="45.75409" lon="6.16125">
        <ele>1524.8000488281</ele>
        <time>2014-02-22T10:04:34.000Z</time>
      </trkpt>
      <trkpt lat="45.75409" lon="6.16125">
        <ele>1525.8000488281</ele>
        <time>2014-02-22T10:04:40.000Z</time>
      </trkpt>
      <trkpt lat="45.75409" lon="6.16126">
        <ele>1526.8000488281</ele>
        <time>2014-02-22T10:04:47.000Z</time>
      </trkpt>
      <trkpt lat="45.75411" lon="6.16127">
        <ele>1527.5999755859</ele>
        <time>2014-02-22T10:05:00.000Z</time>
      </trkpt>
      <trkpt lat="45.75413" lon="6.16129">
        <ele>1528.1999511719</ele>
        <time>2014-02-22T10:05:05.000Z</time>
      </trkpt>
      <trkpt lat="45.75416" lon="6.16133">
        <ele>1528.5999755859</ele>
        <time>2014-02-22T10:05:11.000Z</time>
      </trkpt>
      <trkpt lat="45.75421" lon="6.16136">
        <ele>1529.5999755859</ele>
        <time>2014-02-22T10:05:18.000Z</time>
      </trkpt>
      <trkpt lat="45.75424" lon="6.16138">
        <ele>1531.5999755859</ele>
        <time>2014-02-22T10:05:22.000Z</time>
      </trkpt>
      <trkpt lat="45.75426" lon="6.16141">
        <ele>1533.4000244141</ele>
        <time>2014-02-22T10:05:27.000Z</time>
      </trkpt>
      <trkpt lat="45.75427" lon="6.16144">
        <ele>1534.4000244141</ele>
        <time>2014-02-22T10:05:31.000Z</time>
      </trkpt>
      <trkpt lat="45.75424" lon="6.16145">
        <ele>1534.4000244141</ele>
        <time>2014-02-22T10:05:35.000Z</time>
      </trkpt>
      <trkpt lat="45.75419" lon="6.16146">
        <ele>1536.4000244141</ele>
        <time>2014-02-22T10:05:41.000Z</time>
      </trkpt>
      <trkpt lat="45.75416" lon="6.16147">
        <ele>1536.8000488281</ele>
        <time>2014-02-22T10:05:44.000Z</time>
      </trkpt>
      <trkpt lat="45.75413" lon="6.16149">
        <ele>1537.8000488281</ele>
        <time>2014-02-22T10:05:50.000Z</time>
      </trkpt>
      <trkpt lat="45.7541" lon="6.16151">
        <ele>1538.8000488281</ele>
        <time>2014-02-22T10:05:56.000Z</time>
      </trkpt>
      <trkpt lat="45.75407" lon="6.16153">
        <ele>1539.5999755859</ele>
        <time>2014-02-22T10:06:01.000Z</time>
      </trkpt>
      <trkpt lat="45.75404" lon="6.16157">
        <ele>1540.5999755859</ele>
        <time>2014-02-22T10:06:07.000Z</time>
      </trkpt>
      <trkpt lat="45.75402" lon="6.16159">
        <ele>1541.5999755859</ele>
        <time>2014-02-22T10:06:12.000Z</time>
      </trkpt>
      <trkpt lat="45.75398" lon="6.16162">
        <ele>1541.5999755859</ele>
        <time>2014-02-22T10:06:18.000Z</time>
      </trkpt>
      <trkpt lat="45.75396" lon="6.16164">
        <ele>1541.1999511719</ele>
        <time>2014-02-22T10:06:22.000Z</time>
      </trkpt>
      <trkpt lat="45.75392" lon="6.16166">
        <ele>1542.5999755859</ele>
        <time>2014-02-22T10:06:29.000Z</time>
      </trkpt>
      <trkpt lat="45.75389" lon="6.16167">
        <ele>1543</ele>
        <time>2014-02-22T10:06:34.000Z</time>
      </trkpt>
      <trkpt lat="45.75386" lon="6.16169">
        <ele>1544</ele>
        <time>2014-02-22T10:06:39.000Z</time>
      </trkpt>
      <trkpt lat="45.75383" lon="6.16172">
        <ele>1544.4000244141</ele>
        <time>2014-02-22T10:06:45.000Z</time>
      </trkpt>
      <trkpt lat="45.75381" lon="6.16175">
        <ele>1543.5999755859</ele>
        <time>2014-02-22T10:06:49.000Z</time>
      </trkpt>
      <trkpt lat="45.75378" lon="6.16177">
        <ele>1544.4000244141</ele>
        <time>2014-02-22T10:06:53.000Z</time>
      </trkpt>
      <trkpt lat="45.75373" lon="6.16181">
        <ele>1546</ele>
        <time>2014-02-22T10:07:00.000Z</time>
      </trkpt>
      <trkpt lat="45.75369" lon="6.16184">
        <ele>1546.8000488281</ele>
        <time>2014-02-22T10:07:05.000Z</time>
      </trkpt>
      <trkpt lat="45.75369" lon="6.16186">
        <ele>1547.4000244141</ele>
        <time>2014-02-22T10:07:07.000Z</time>
      </trkpt>
      <trkpt lat="45.75365" lon="6.1619">
        <ele>1548.4000244141</ele>
        <time>2014-02-22T10:07:13.000Z</time>
      </trkpt>
      <trkpt lat="45.75362" lon="6.16193">
        <ele>1548.8000488281</ele>
        <time>2014-02-22T10:07:17.000Z</time>
      </trkpt>
      <trkpt lat="45.7536" lon="6.16194">
        <ele>1548.8000488281</ele>
        <time>2014-02-22T10:07:22.000Z</time>
      </trkpt>
      <trkpt lat="45.75356" lon="6.16199">
        <ele>1550.8000488281</ele>
        <time>2014-02-22T10:07:28.000Z</time>
      </trkpt>
      <trkpt lat="45.75351" lon="6.16204">
        <ele>1552.1999511719</ele>
        <time>2014-02-22T10:07:34.000Z</time>
      </trkpt>
      <trkpt lat="45.75349" lon="6.16208">
        <ele>1552.5999755859</ele>
        <time>2014-02-22T10:07:39.000Z</time>
      </trkpt>
      <trkpt lat="45.75347" lon="6.16211">
        <ele>1554.1999511719</ele>
        <time>2014-02-22T10:07:45.000Z</time>
      </trkpt>
      <trkpt lat="45.75343" lon="6.16216">
        <ele>1555.5999755859</ele>
        <time>2014-02-22T10:07:51.000Z</time>
      </trkpt>
      <trkpt lat="45.75341" lon="6.16221">
        <ele>1556.5999755859</ele>
        <time>2014-02-22T10:07:57.000Z</time>
      </trkpt>
      <trkpt lat="45.75338" lon="6.16227">
        <ele>1558</ele>
        <time>2014-02-22T10:08:05.000Z</time>
      </trkpt>
      <trkpt lat="45.75336" lon="6.1623">
        <ele>1559</ele>
        <time>2014-02-22T10:08:10.000Z</time>
      </trkpt>
      <trkpt lat="45.75334" lon="6.16232">
        <ele>1559.4000244141</ele>
        <time>2014-02-22T10:08:13.000Z</time>
      </trkpt>
      <trkpt lat="45.75332" lon="6.16237">
        <ele>1561.8000488281</ele>
        <time>2014-02-22T10:08:20.000Z</time>
      </trkpt>
      <trkpt lat="45.75331" lon="6.1624">
        <ele>1562.1999511719</ele>
        <time>2014-02-22T10:08:25.000Z</time>
      </trkpt>
      <trkpt lat="45.75328" lon="6.16245">
        <ele>1563.1999511719</ele>
        <time>2014-02-22T10:08:32.000Z</time>
      </trkpt>
      <trkpt lat="45.75328" lon="6.16245">
        <ele>1564.1999511719</ele>
        <time>2014-02-22T10:08:37.000Z</time>
      </trkpt>
      <trkpt lat="45.75331" lon="6.16244">
        <ele>1565.5999755859</ele>
        <time>2014-02-22T10:08:43.000Z</time>
      </trkpt>
      <trkpt lat="45.75335" lon="6.16243">
        <ele>1567</ele>
        <time>2014-02-22T10:08:48.000Z</time>
      </trkpt>
      <trkpt lat="45.75338" lon="6.16243">
        <ele>1568</ele>
        <time>2014-02-22T10:08:53.000Z</time>
      </trkpt>
      <trkpt lat="45.7534" lon="6.16244">
        <ele>1569</ele>
        <time>2014-02-22T10:08:57.000Z</time>
      </trkpt>
      <trkpt lat="45.75343" lon="6.16244">
        <ele>1571</ele>
        <time>2014-02-22T10:09:03.000Z</time>
      </trkpt>
      <trkpt lat="45.75344" lon="6.16245">
        <ele>1571.4000244141</ele>
        <time>2014-02-22T10:09:07.000Z</time>
      </trkpt>
      <trkpt lat="45.75345" lon="6.16245">
        <ele>1572.4000244141</ele>
        <time>2014-02-22T10:09:14.000Z</time>
      </trkpt>
      <trkpt lat="45.75347" lon="6.16246">
        <ele>1572.8000488281</ele>
        <time>2014-02-22T10:09:18.000Z</time>
      </trkpt>
      <trkpt lat="45.75349" lon="6.16247">
        <ele>1573.8000488281</ele>
        <time>2014-02-22T10:09:23.000Z</time>
      </trkpt>
      <trkpt lat="45.75352" lon="6.16248">
        <ele>1574.8000488281</ele>
        <time>2014-02-22T10:09:28.000Z</time>
      </trkpt>
      <trkpt lat="45.75355" lon="6.1625">
        <ele>1575.8000488281</ele>
        <time>2014-02-22T10:09:33.000Z</time>
      </trkpt>
      <trkpt lat="45.75358" lon="6.16251">
        <ele>1576.5999755859</ele>
        <time>2014-02-22T10:09:39.000Z</time>
      </trkpt>
      <trkpt lat="45.75362" lon="6.16254">
        <ele>1578.5999755859</ele>
        <time>2014-02-22T10:09:48.000Z</time>
      </trkpt>
      <trkpt lat="45.75366" lon="6.16257">
        <ele>1579.5999755859</ele>
        <time>2014-02-22T10:09:54.000Z</time>
      </trkpt>
      <trkpt lat="45.75368" lon="6.16258">
        <ele>1580</ele>
        <time>2014-02-22T10:09:59.000Z</time>
      </trkpt>
      <trkpt lat="45.75372" lon="6.16261">
        <ele>1582</ele>
        <time>2014-02-22T10:10:06.000Z</time>
      </trkpt>
      <trkpt lat="45.75375" lon="6.16263">
        <ele>1583.4000244141</ele>
        <time>2014-02-22T10:10:13.000Z</time>
      </trkpt>
      <trkpt lat="45.75378" lon="6.16265">
        <ele>1584.4000244141</ele>
        <time>2014-02-22T10:10:18.000Z</time>
      </trkpt>
      <trkpt lat="45.75381" lon="6.16267">
        <ele>1585.4000244141</ele>
        <time>2014-02-22T10:10:24.000Z</time>
      </trkpt>
      <trkpt lat="45.75384" lon="6.16269">
        <ele>1587.1999511719</ele>
        <time>2014-02-22T10:10:31.000Z</time>
      </trkpt>
      <trkpt lat="45.75387" lon="6.16271">
        <ele>1588.1999511719</ele>
        <time>2014-02-22T10:10:37.000Z</time>
      </trkpt>
      <trkpt lat="45.75389" lon="6.16273">
        <ele>1589.1999511719</ele>
        <time>2014-02-22T10:10:43.000Z</time>
      </trkpt>
      <trkpt lat="45.75392" lon="6.16275">
        <ele>1589.1999511719</ele>
        <time>2014-02-22T10:10:48.000Z</time>
      </trkpt>
      <trkpt lat="45.75395" lon="6.16278">
        <ele>1590.1999511719</ele>
        <time>2014-02-22T10:10:54.000Z</time>
      </trkpt>
      <trkpt lat="45.754" lon="6.16281">
        <ele>1592</ele>
        <time>2014-02-22T10:11:01.000Z</time>
      </trkpt>
      <trkpt lat="45.75403" lon="6.16284">
        <ele>1593</ele>
        <time>2014-02-22T10:11:07.000Z</time>
      </trkpt>
      <trkpt lat="45.75405" lon="6.16286">
        <ele>1593.5999755859</ele>
        <time>2014-02-22T10:11:12.000Z</time>
      </trkpt>
      <trkpt lat="45.75409" lon="6.16287">
        <ele>1594</ele>
        <time>2014-02-22T10:11:16.000Z</time>
      </trkpt>
      <trkpt lat="45.75412" lon="6.16292">
        <ele>1595</ele>
        <time>2014-02-22T10:11:24.000Z</time>
      </trkpt>
      <trkpt lat="45.75414" lon="6.16294">
        <ele>1596</ele>
        <time>2014-02-22T10:11:29.000Z</time>
      </trkpt>
      <trkpt lat="45.75416" lon="6.16297">
        <ele>1596.4000244141</ele>
        <time>2014-02-22T10:11:34.000Z</time>
      </trkpt>
      <trkpt lat="45.75418" lon="6.16299">
        <ele>1597.4000244141</ele>
        <time>2014-02-22T10:11:39.000Z</time>
      </trkpt>
      <trkpt lat="45.7542" lon="6.16301">
        <ele>1598.4000244141</ele>
        <time>2014-02-22T10:11:45.000Z</time>
      </trkpt>
      <trkpt lat="45.75423" lon="6.16304">
        <ele>1599.1999511719</ele>
        <time>2014-02-22T10:11:51.000Z</time>
      </trkpt>
      <trkpt lat="45.75425" lon="6.16307">
        <ele>1599.8000488281</ele>
        <time>2014-02-22T10:11:56.000Z</time>
      </trkpt>
      <trkpt lat="45.75426" lon="6.16308">
        <ele>1600.1999511719</ele>
        <time>2014-02-22T10:12:00.000Z</time>
      </trkpt>
      <trkpt lat="45.75428" lon="6.1631">
        <ele>1600.8000488281</ele>
        <time>2014-02-22T10:12:04.000Z</time>
      </trkpt>
      <trkpt lat="45.7543" lon="6.16312">
        <ele>1601.1999511719</ele>
        <time>2014-02-22T10:12:08.000Z</time>
      </trkpt>
      <trkpt lat="45.75429" lon="6.16313">
        <ele>1602.5999755859</ele>
        <time>2014-02-22T10:12:14.000Z</time>
      </trkpt>
      <trkpt lat="45.75427" lon="6.16314">
        <ele>1604</ele>
        <time>2014-02-22T10:12:19.000Z</time>
      </trkpt>
      <trkpt lat="45.75425" lon="6.16315">
        <ele>1605</ele>
        <time>2014-02-22T10:12:25.000Z</time>
      </trkpt>
      <trkpt lat="45.75422" lon="6.16318">
        <ele>1606</ele>
        <time>2014-02-22T10:12:31.000Z</time>
      </trkpt>
      <trkpt lat="45.7542" lon="6.16321">
        <ele>1607</ele>
        <time>2014-02-22T10:12:37.000Z</time>
      </trkpt>
      <trkpt lat="45.75417" lon="6.16322">
        <ele>1608</ele>
        <time>2014-02-22T10:12:43.000Z</time>
      </trkpt>
      <trkpt lat="45.75415" lon="6.16324">
        <ele>1608.4000244141</ele>
        <time>2014-02-22T10:12:49.000Z</time>
      </trkpt>
      <trkpt lat="45.75413" lon="6.16325">
        <ele>1608.4000244141</ele>
        <time>2014-02-22T10:12:54.000Z</time>
      </trkpt>
      <trkpt lat="45.7541" lon="6.16328">
        <ele>1609</ele>
        <time>2014-02-22T10:13:00.000Z</time>
      </trkpt>
      <trkpt lat="45.75408" lon="6.16328">
        <ele>1609.4000244141</ele>
        <time>2014-02-22T10:13:05.000Z</time>
      </trkpt>
      <trkpt lat="45.75405" lon="6.1633">
        <ele>1610.4000244141</ele>
        <time>2014-02-22T10:13:11.000Z</time>
      </trkpt>
      <trkpt lat="45.75403" lon="6.16332">
        <ele>1610.8000488281</ele>
        <time>2014-02-22T10:13:16.000Z</time>
      </trkpt>
      <trkpt lat="45.75401" lon="6.16333">
        <ele>1610.8000488281</ele>
        <time>2014-02-22T10:13:21.000Z</time>
      </trkpt>
      <trkpt lat="45.75398" lon="6.16336">
        <ele>1612.8000488281</ele>
        <time>2014-02-22T10:13:27.000Z</time>
      </trkpt>
      <trkpt lat="45.75394" lon="6.16337">
        <ele>1613.8000488281</ele>
        <time>2014-02-22T10:13:32.000Z</time>
      </trkpt>
      <trkpt lat="45.75391" lon="6.16339">
        <ele>1614.5999755859</ele>
        <time>2014-02-22T10:13:37.000Z</time>
      </trkpt>
      <trkpt lat="45.75388" lon="6.16341">
        <ele>1616.1999511719</ele>
        <time>2014-02-22T10:13:43.000Z</time>
      </trkpt>
      <trkpt lat="45.75386" lon="6.16341">
        <ele>1617</ele>
        <time>2014-02-22T10:13:48.000Z</time>
      </trkpt>
      <trkpt lat="45.75386" lon="6.16341">
        <ele>1618</ele>
        <time>2014-02-22T10:13:57.000Z</time>
      </trkpt>
      <trkpt lat="45.75386" lon="6.16342">
        <ele>1617</ele>
        <time>2014-02-22T10:14:09.000Z</time>
      </trkpt>
      <trkpt lat="45.75383" lon="6.16344">
        <ele>1617</ele>
        <time>2014-02-22T10:14:21.000Z</time>
      </trkpt>
      <trkpt lat="45.75381" lon="6.16346">
        <ele>1618</ele>
        <time>2014-02-22T10:14:28.000Z</time>
      </trkpt>
      <trkpt lat="45.75376" lon="6.1635">
        <ele>1618</ele>
        <time>2014-02-22T10:14:34.000Z</time>
      </trkpt>
      <trkpt lat="45.75374" lon="6.16353">
        <ele>1618</ele>
        <time>2014-02-22T10:14:40.000Z</time>
      </trkpt>
      <trkpt lat="45.75373" lon="6.16355">
        <ele>1618.5999755859</ele>
        <time>2014-02-22T10:14:44.000Z</time>
      </trkpt>
      <trkpt lat="45.7537" lon="6.16356">
        <ele>1620</ele>
        <time>2014-02-22T10:14:49.000Z</time>
      </trkpt>
      <trkpt lat="45.75368" lon="6.16357">
        <ele>1621</ele>
        <time>2014-02-22T10:14:54.000Z</time>
      </trkpt>
      <trkpt lat="45.75363" lon="6.1636">
        <ele>1621.4000244141</ele>
        <time>2014-02-22T10:15:00.000Z</time>
      </trkpt>
      <trkpt lat="45.75361" lon="6.16361">
        <ele>1621.8000488281</ele>
        <time>2014-02-22T10:15:04.000Z</time>
      </trkpt>
      <trkpt lat="45.75359" lon="6.16363">
        <ele>1622.8000488281</ele>
        <time>2014-02-22T10:15:10.000Z</time>
      </trkpt>
      <trkpt lat="45.75357" lon="6.16367">
        <ele>1624.8000488281</ele>
        <time>2014-02-22T10:15:17.000Z</time>
      </trkpt>
      <trkpt lat="45.75357" lon="6.16367">
        <ele>1625.1999511719</ele>
        <time>2014-02-22T10:15:22.000Z</time>
      </trkpt>
      <trkpt lat="45.75359" lon="6.16367">
        <ele>1625.8000488281</ele>
        <time>2014-02-22T10:15:29.000Z</time>
      </trkpt>
      <trkpt lat="45.75362" lon="6.16368">
        <ele>1626.5999755859</ele>
        <time>2014-02-22T10:15:34.000Z</time>
      </trkpt>
      <trkpt lat="45.75365" lon="6.16369">
        <ele>1627.5999755859</ele>
        <time>2014-02-22T10:15:40.000Z</time>
      </trkpt>
      <trkpt lat="45.75367" lon="6.16369">
        <ele>1629</ele>
        <time>2014-02-22T10:15:46.000Z</time>
      </trkpt>
      <trkpt lat="45.75371" lon="6.1637">
        <ele>1630.5999755859</ele>
        <time>2014-02-22T10:15:51.000Z</time>
      </trkpt>
      <trkpt lat="45.75373" lon="6.16372">
        <ele>1631</ele>
        <time>2014-02-22T10:15:57.000Z</time>
      </trkpt>
      <trkpt lat="45.75375" lon="6.16373">
        <ele>1631.4000244141</ele>
        <time>2014-02-22T10:16:03.000Z</time>
      </trkpt>
      <trkpt lat="45.75377" lon="6.16375">
        <ele>1632</ele>
        <time>2014-02-22T10:16:08.000Z</time>
      </trkpt>
      <trkpt lat="45.75379" lon="6.16377">
        <ele>1632.4000244141</ele>
        <time>2014-02-22T10:16:12.000Z</time>
      </trkpt>
      <trkpt lat="45.75381" lon="6.16378">
        <ele>1633.4000244141</ele>
        <time>2014-02-22T10:16:17.000Z</time>
      </trkpt>
      <trkpt lat="45.75383" lon="6.1638">
        <ele>1634.4000244141</ele>
        <time>2014-02-22T10:16:22.000Z</time>
      </trkpt>
      <trkpt lat="45.75384" lon="6.16381">
        <ele>1635.4000244141</ele>
        <time>2014-02-22T10:16:26.000Z</time>
      </trkpt>
      <trkpt lat="45.75386" lon="6.16383">
        <ele>1636.4000244141</ele>
        <time>2014-02-22T10:16:31.000Z</time>
      </trkpt>
      <trkpt lat="45.75389" lon="6.16384">
        <ele>1638.1999511719</ele>
        <time>2014-02-22T10:16:37.000Z</time>
      </trkpt>
      <trkpt lat="45.75389" lon="6.16387">
        <ele>1640.1999511719</ele>
        <time>2014-02-22T10:16:43.000Z</time>
      </trkpt>
      <trkpt lat="45.75387" lon="6.16388">
        <ele>1641.1999511719</ele>
        <time>2014-02-22T10:16:48.000Z</time>
      </trkpt>
      <trkpt lat="45.75385" lon="6.1639">
        <ele>1641.1999511719</ele>
        <time>2014-02-22T10:16:54.000Z</time>
      </trkpt>
      <trkpt lat="45.75383" lon="6.16391">
        <ele>1641.5999755859</ele>
        <time>2014-02-22T10:16:57.000Z</time>
      </trkpt>
      <trkpt lat="45.75381" lon="6.16393">
        <ele>1641.1999511719</ele>
        <time>2014-02-22T10:17:01.000Z</time>
      </trkpt>
      <trkpt lat="45.75378" lon="6.16394">
        <ele>1642</ele>
        <time>2014-02-22T10:17:06.000Z</time>
      </trkpt>
      <trkpt lat="45.75376" lon="6.16396">
        <ele>1642.5999755859</ele>
        <time>2014-02-22T10:17:11.000Z</time>
      </trkpt>
      <trkpt lat="45.75375" lon="6.16397">
        <ele>1643.5999755859</ele>
        <time>2014-02-22T10:17:15.000Z</time>
      </trkpt>
      <trkpt lat="45.75373" lon="6.16399">
        <ele>1643.5999755859</ele>
        <time>2014-02-22T10:17:19.000Z</time>
      </trkpt>
      <trkpt lat="45.7537" lon="6.16401">
        <ele>1644.4000244141</ele>
        <time>2014-02-22T10:17:23.000Z</time>
      </trkpt>
      <trkpt lat="45.75366" lon="6.16404">
        <ele>1646</ele>
        <time>2014-02-22T10:17:30.000Z</time>
      </trkpt>
      <trkpt lat="45.75363" lon="6.16407">
        <ele>1647.4000244141</ele>
        <time>2014-02-22T10:17:36.000Z</time>
      </trkpt>
      <trkpt lat="45.7536" lon="6.1641">
        <ele>1647.4000244141</ele>
        <time>2014-02-22T10:17:43.000Z</time>
      </trkpt>
      <trkpt lat="45.75357" lon="6.16413">
        <ele>1647.4000244141</ele>
        <time>2014-02-22T10:17:50.000Z</time>
      </trkpt>
      <trkpt lat="45.75354" lon="6.16416">
        <ele>1647.8000488281</ele>
        <time>2014-02-22T10:17:55.000Z</time>
      </trkpt>
      <trkpt lat="45.75352" lon="6.16419">
        <ele>1648.8000488281</ele>
        <time>2014-02-22T10:18:01.000Z</time>
      </trkpt>
      <trkpt lat="45.7535" lon="6.16421">
        <ele>1650.8000488281</ele>
        <time>2014-02-22T10:18:07.000Z</time>
      </trkpt>
      <trkpt lat="45.75349" lon="6.16422">
        <ele>1651.1999511719</ele>
        <time>2014-02-22T10:18:11.000Z</time>
      </trkpt>
      <trkpt lat="45.75349" lon="6.16421">
        <ele>1651.1999511719</ele>
        <time>2014-02-22T10:18:16.000Z</time>
      </trkpt>
      <trkpt lat="45.7535" lon="6.16422">
        <ele>1652.1999511719</ele>
        <time>2014-02-22T10:18:23.000Z</time>
      </trkpt>
      <trkpt lat="45.75351" lon="6.16422">
        <ele>1653.1999511719</ele>
        <time>2014-02-22T10:18:28.000Z</time>
      </trkpt>
      <trkpt lat="45.75352" lon="6.16423">
        <ele>1653.5999755859</ele>
        <time>2014-02-22T10:18:32.000Z</time>
      </trkpt>
      <trkpt lat="45.75351" lon="6.16424">
        <ele>1654.5999755859</ele>
        <time>2014-02-22T10:18:37.000Z</time>
      </trkpt>
      <trkpt lat="45.75347" lon="6.16426">
        <ele>1655.5999755859</ele>
        <time>2014-02-22T10:18:43.000Z</time>
      </trkpt>
      <trkpt lat="45.75346" lon="6.16428">
        <ele>1657</ele>
        <time>2014-02-22T10:18:51.000Z</time>
      </trkpt>
      <trkpt lat="45.75345" lon="6.1643">
        <ele>1658.4000244141</ele>
        <time>2014-02-22T10:18:56.000Z</time>
      </trkpt>
      <trkpt lat="45.75343" lon="6.16432">
        <ele>1658.8000488281</ele>
        <time>2014-02-22T10:19:01.000Z</time>
      </trkpt>
      <trkpt lat="45.75343" lon="6.16435">
        <ele>1658.8000488281</ele>
        <time>2014-02-22T10:19:06.000Z</time>
      </trkpt>
      <trkpt lat="45.75341" lon="6.16438">
        <ele>1659.4000244141</ele>
        <time>2014-02-22T10:19:13.000Z</time>
      </trkpt>
      <trkpt lat="45.75341" lon="6.16439">
        <ele>1659.8000488281</ele>
        <time>2014-02-22T10:19:18.000Z</time>
      </trkpt>
      <trkpt lat="45.75342" lon="6.16439">
        <ele>1660.4000244141</ele>
        <time>2014-02-22T10:19:23.000Z</time>
      </trkpt>
      <trkpt lat="45.75344" lon="6.1644">
        <ele>1660.8000488281</ele>
        <time>2014-02-22T10:19:27.000Z</time>
      </trkpt>
      <trkpt lat="45.75347" lon="6.16441">
        <ele>1662.1999511719</ele>
        <time>2014-02-22T10:19:33.000Z</time>
      </trkpt>
      <trkpt lat="45.7535" lon="6.16442">
        <ele>1662.8000488281</ele>
        <time>2014-02-22T10:19:38.000Z</time>
      </trkpt>
      <trkpt lat="45.7535" lon="6.16442">
        <ele>1663.5999755859</ele>
        <time>2014-02-22T10:19:48.000Z</time>
      </trkpt>
      <trkpt lat="45.75352" lon="6.16442">
        <ele>1664.5999755859</ele>
        <time>2014-02-22T10:19:53.000Z</time>
      </trkpt>
      <trkpt lat="45.75353" lon="6.16443">
        <ele>1665.1999511719</ele>
        <time>2014-02-22T10:19:58.000Z</time>
      </trkpt>
      <trkpt lat="45.75357" lon="6.16444">
        <ele>1666.1999511719</ele>
        <time>2014-02-22T10:20:03.000Z</time>
      </trkpt>
      <trkpt lat="45.75361" lon="6.16442">
        <ele>1666.5999755859</ele>
        <time>2014-02-22T10:20:08.000Z</time>
      </trkpt>
      <trkpt lat="45.75366" lon="6.16441">
        <ele>1668</ele>
        <time>2014-02-22T10:20:15.000Z</time>
      </trkpt>
      <trkpt lat="45.7537" lon="6.16441">
        <ele>1669</ele>
        <time>2014-02-22T10:20:20.000Z</time>
      </trkpt>
      <trkpt lat="45.75372" lon="6.16441">
        <ele>1669.4000244141</ele>
        <time>2014-02-22T10:20:24.000Z</time>
      </trkpt>
      <trkpt lat="45.75374" lon="6.16443">
        <ele>1670</ele>
        <time>2014-02-22T10:20:29.000Z</time>
      </trkpt>
      <trkpt lat="45.75378" lon="6.16444">
        <ele>1670.4000244141</ele>
        <time>2014-02-22T10:20:35.000Z</time>
      </trkpt>
      <trkpt lat="45.7538" lon="6.16446">
        <ele>1671</ele>
        <time>2014-02-22T10:20:40.000Z</time>
      </trkpt>
      <trkpt lat="45.75382" lon="6.16447">
        <ele>1671.4000244141</ele>
        <time>2014-02-22T10:20:44.000Z</time>
      </trkpt>
      <trkpt lat="45.75386" lon="6.16448">
        <ele>1672.4000244141</ele>
        <time>2014-02-22T10:20:51.000Z</time>
      </trkpt>
      <trkpt lat="45.75384" lon="6.16451">
        <ele>1672.8000488281</ele>
        <time>2014-02-22T10:20:57.000Z</time>
      </trkpt>
      <trkpt lat="45.75383" lon="6.16452">
        <ele>1673.8000488281</ele>
        <time>2014-02-22T10:21:02.000Z</time>
      </trkpt>
      <trkpt lat="45.75381" lon="6.16453">
        <ele>1674.1999511719</ele>
        <time>2014-02-22T10:21:06.000Z</time>
      </trkpt>
      <trkpt lat="45.75378" lon="6.16456">
        <ele>1674.1999511719</ele>
        <time>2014-02-22T10:21:13.000Z</time>
      </trkpt>
      <trkpt lat="45.75376" lon="6.16459">
        <ele>1674.8000488281</ele>
        <time>2014-02-22T10:21:18.000Z</time>
      </trkpt>
      <trkpt lat="45.75374" lon="6.1646">
        <ele>1674.8000488281</ele>
        <time>2014-02-22T10:21:24.000Z</time>
      </trkpt>
      <trkpt lat="45.75374" lon="6.16461">
        <ele>1674.8000488281</ele>
        <time>2014-02-22T10:21:29.000Z</time>
      </trkpt>
      <trkpt lat="45.75376" lon="6.16462">
        <ele>1675.8000488281</ele>
        <time>2014-02-22T10:21:33.000Z</time>
      </trkpt>
      <trkpt lat="45.75379" lon="6.16463">
        <ele>1676.5999755859</ele>
        <time>2014-02-22T10:21:39.000Z</time>
      </trkpt>
      <trkpt lat="45.75383" lon="6.16462">
        <ele>1677.5999755859</ele>
        <time>2014-02-22T10:21:44.000Z</time>
      </trkpt>
      <trkpt lat="45.75385" lon="6.16464">
        <ele>1678.1999511719</ele>
        <time>2014-02-22T10:21:47.000Z</time>
      </trkpt>
      <trkpt lat="45.75386" lon="6.16464">
        <ele>1678.5999755859</ele>
        <time>2014-02-22T10:21:50.000Z</time>
      </trkpt>
      <trkpt lat="45.75387" lon="6.16466">
        <ele>1679.5999755859</ele>
        <time>2014-02-22T10:21:55.000Z</time>
      </trkpt>
      <trkpt lat="45.75387" lon="6.16467">
        <ele>1680.5999755859</ele>
        <time>2014-02-22T10:22:01.000Z</time>
      </trkpt>
      <trkpt lat="45.75385" lon="6.16468">
        <ele>1681</ele>
        <time>2014-02-22T10:22:04.000Z</time>
      </trkpt>
      <trkpt lat="45.75382" lon="6.16471">
        <ele>1681</ele>
        <time>2014-02-22T10:22:08.000Z</time>
      </trkpt>
      <trkpt lat="45.7538" lon="6.16472">
        <ele>1683</ele>
        <time>2014-02-22T10:22:13.000Z</time>
      </trkpt>
      <trkpt lat="45.75378" lon="6.16474">
        <ele>1683.8000488281</ele>
        <time>2014-02-22T10:22:17.000Z</time>
      </trkpt>
      <trkpt lat="45.75376" lon="6.16474">
        <ele>1684.4000244141</ele>
        <time>2014-02-22T10:22:21.000Z</time>
      </trkpt>
      <trkpt lat="45.75374" lon="6.16474">
        <ele>1685.4000244141</ele>
        <time>2014-02-22T10:22:27.000Z</time>
      </trkpt>
      <trkpt lat="45.75373" lon="6.16475">
        <ele>1686.1999511719</ele>
        <time>2014-02-22T10:22:31.000Z</time>
      </trkpt>
      <trkpt lat="45.75371" lon="6.16478">
        <ele>1687.1999511719</ele>
        <time>2014-02-22T10:22:38.000Z</time>
      </trkpt>
      <trkpt lat="45.7537" lon="6.16482">
        <ele>1687.1999511719</ele>
        <time>2014-02-22T10:22:42.000Z</time>
      </trkpt>
      <trkpt lat="45.75369" lon="6.16485">
        <ele>1687.8000488281</ele>
        <time>2014-02-22T10:22:45.000Z</time>
      </trkpt>
      <trkpt lat="45.75367" lon="6.16488">
        <ele>1687.8000488281</ele>
        <time>2014-02-22T10:22:49.000Z</time>
      </trkpt>
      <trkpt lat="45.75367" lon="6.1649">
        <ele>1688.5999755859</ele>
        <time>2014-02-22T10:22:52.000Z</time>
      </trkpt>
      <trkpt lat="45.75364" lon="6.16493">
        <ele>1690.1999511719</ele>
        <time>2014-02-22T10:22:58.000Z</time>
      </trkpt>
      <trkpt lat="45.75362" lon="6.16496">
        <ele>1691</ele>
        <time>2014-02-22T10:23:03.000Z</time>
      </trkpt>
      <trkpt lat="45.7536" lon="6.16498">
        <ele>1692</ele>
        <time>2014-02-22T10:23:08.000Z</time>
      </trkpt>
      <trkpt lat="45.75358" lon="6.16498">
        <ele>1692.5999755859</ele>
        <time>2014-02-22T10:23:18.000Z</time>
      </trkpt>
      <trkpt lat="45.7536" lon="6.16498">
        <ele>1691.5999755859</ele>
        <time>2014-02-22T10:23:27.000Z</time>
      </trkpt>
      <trkpt lat="45.75363" lon="6.16498">
        <ele>1693</ele>
        <time>2014-02-22T10:23:32.000Z</time>
      </trkpt>
      <trkpt lat="45.75367" lon="6.16496">
        <ele>1693.4000244141</ele>
        <time>2014-02-22T10:23:38.000Z</time>
      </trkpt>
      <trkpt lat="45.75369" lon="6.16496">
        <ele>1695</ele>
        <time>2014-02-22T10:23:42.000Z</time>
      </trkpt>
      <trkpt lat="45.7537" lon="6.16496">
        <ele>1697.4000244141</ele>
        <time>2014-02-22T10:23:54.000Z</time>
      </trkpt>
      <trkpt lat="45.75373" lon="6.16497">
        <ele>1697.4000244141</ele>
        <time>2014-02-22T10:23:59.000Z</time>
      </trkpt>
      <trkpt lat="45.75375" lon="6.16498">
        <ele>1697.8000488281</ele>
        <time>2014-02-22T10:24:04.000Z</time>
      </trkpt>
      <trkpt lat="45.75376" lon="6.16498">
        <ele>1697.8000488281</ele>
        <time>2014-02-22T10:24:08.000Z</time>
      </trkpt>
      <trkpt lat="45.75378" lon="6.16499">
        <ele>1698.4000244141</ele>
        <time>2014-02-22T10:24:14.000Z</time>
      </trkpt>
      <trkpt lat="45.7538" lon="6.16499">
        <ele>1698.8000488281</ele>
        <time>2014-02-22T10:24:19.000Z</time>
      </trkpt>
      <trkpt lat="45.75381" lon="6.165">
        <ele>1699.1999511719</ele>
        <time>2014-02-22T10:24:28.000Z</time>
      </trkpt>
      <trkpt lat="45.75382" lon="6.16501">
        <ele>1699.1999511719</ele>
        <time>2014-02-22T10:24:34.000Z</time>
      </trkpt>
      <trkpt lat="45.75386" lon="6.16501">
        <ele>1700.1999511719</ele>
        <time>2014-02-22T10:24:39.000Z</time>
      </trkpt>
      <trkpt lat="45.7539" lon="6.16502">
        <ele>1702.5999755859</ele>
        <time>2014-02-22T10:24:45.000Z</time>
      </trkpt>
      <trkpt lat="45.7539" lon="6.16503">
        <ele>1702.5999755859</ele>
        <time>2014-02-22T10:24:49.000Z</time>
      </trkpt>
      <trkpt lat="45.75387" lon="6.16504">
        <ele>1703.1999511719</ele>
        <time>2014-02-22T10:24:56.000Z</time>
      </trkpt>
      <trkpt lat="45.75384" lon="6.16506">
        <ele>1704.5999755859</ele>
        <time>2014-02-22T10:25:03.000Z</time>
      </trkpt>
      <trkpt lat="45.75382" lon="6.16507">
        <ele>1705.5999755859</ele>
        <time>2014-02-22T10:25:09.000Z</time>
      </trkpt>
      <trkpt lat="45.75383" lon="6.16507">
        <ele>1705</ele>
        <time>2014-02-22T10:25:17.000Z</time>
      </trkpt>
      <trkpt lat="45.75385" lon="6.16508">
        <ele>1705.5999755859</ele>
        <time>2014-02-22T10:25:22.000Z</time>
      </trkpt>
      <trkpt lat="45.75387" lon="6.1651">
        <ele>1705.5999755859</ele>
        <time>2014-02-22T10:25:27.000Z</time>
      </trkpt>
      <trkpt lat="45.7539" lon="6.16512">
        <ele>1707</ele>
        <time>2014-02-22T10:25:33.000Z</time>
      </trkpt>
      <trkpt lat="45.75392" lon="6.16513">
        <ele>1707.4000244141</ele>
        <time>2014-02-22T10:25:40.000Z</time>
      </trkpt>
      <trkpt lat="45.75392" lon="6.16512">
        <ele>1708.4000244141</ele>
        <time>2014-02-22T10:25:47.000Z</time>
      </trkpt>
      <trkpt lat="45.75392" lon="6.16512">
        <ele>1710.4000244141</ele>
        <time>2014-02-22T10:26:35.000Z</time>
      </trkpt>
      <trkpt lat="45.75392" lon="6.16509">
        <ele>1710.4000244141</ele>
        <time>2014-02-22T10:26:57.000Z</time>
      </trkpt>
      <trkpt lat="45.75392" lon="6.16513">
        <ele>1708.4000244141</ele>
        <time>2014-02-22T10:27:26.000Z</time>
      </trkpt>
      <trkpt lat="45.75392" lon="6.16515">
        <ele>1708.8000488281</ele>
        <time>2014-02-22T10:27:58.000Z</time>
      </trkpt>
      <trkpt lat="45.75392" lon="6.16515">
        <ele>1708.4000244141</ele>
        <time>2014-02-22T10:28:47.000Z</time>
      </trkpt>
      <trkpt lat="45.75392" lon="6.16514">
        <ele>1708.8000488281</ele>
        <time>2014-02-22T10:29:05.000Z</time>
      </trkpt>
      <trkpt lat="45.75394" lon="6.16514">
        <ele>1709.8000488281</ele>
        <time>2014-02-22T10:31:02.000Z</time>
      </trkpt>
      <trkpt lat="45.75394" lon="6.16515">
        <ele>1710.4000244141</ele>
        <time>2014-02-22T10:31:03.000Z</time>
      </trkpt>
      <trkpt lat="45.75397" lon="6.16517">
        <ele>1711.1999511719</ele>
        <time>2014-02-22T10:31:07.000Z</time>
      </trkpt>
      <trkpt lat="45.75401" lon="6.16521">
        <ele>1712.1999511719</ele>
        <time>2014-02-22T10:31:13.000Z</time>
      </trkpt>
      <trkpt lat="45.75406" lon="6.16524">
        <ele>1713.5999755859</ele>
        <time>2014-02-22T10:31:19.000Z</time>
      </trkpt>
      <trkpt lat="45.75412" lon="6.16525">
        <ele>1715.1999511719</ele>
        <time>2014-02-22T10:31:26.000Z</time>
      </trkpt>
      <trkpt lat="45.75415" lon="6.16526">
        <ele>1715.5999755859</ele>
        <time>2014-02-22T10:31:32.000Z</time>
      </trkpt>
      <trkpt lat="45.75418" lon="6.16528">
        <ele>1716</ele>
        <time>2014-02-22T10:31:37.000Z</time>
      </trkpt>
      <trkpt lat="45.75421" lon="6.16531">
        <ele>1717</ele>
        <time>2014-02-22T10:31:44.000Z</time>
      </trkpt>
      <trkpt lat="45.75422" lon="6.16533">
        <ele>1717.5999755859</ele>
        <time>2014-02-22T10:31:49.000Z</time>
      </trkpt>
      <trkpt lat="45.75422" lon="6.16534">
        <ele>1718</ele>
        <time>2014-02-22T10:31:53.000Z</time>
      </trkpt>
      <trkpt lat="45.75419" lon="6.16533">
        <ele>1718.4000244141</ele>
        <time>2014-02-22T10:31:59.000Z</time>
      </trkpt>
      <trkpt lat="45.75418" lon="6.16533">
        <ele>1718.4000244141</ele>
        <time>2014-02-22T10:32:04.000Z</time>
      </trkpt>
      <trkpt lat="45.75419" lon="6.16534">
        <ele>1718</ele>
        <time>2014-02-22T10:32:10.000Z</time>
      </trkpt>
      <trkpt lat="45.7542" lon="6.16535">
        <ele>1719</ele>
        <time>2014-02-22T10:32:15.000Z</time>
      </trkpt>
      <trkpt lat="45.75422" lon="6.16538">
        <ele>1719.4000244141</ele>
        <time>2014-02-22T10:32:21.000Z</time>
      </trkpt>
      <trkpt lat="45.75424" lon="6.16536">
        <ele>1720.8000488281</ele>
        <time>2014-02-22T10:32:30.000Z</time>
      </trkpt>
      <trkpt lat="45.75425" lon="6.16539">
        <ele>1720.4000244141</ele>
        <time>2014-02-22T10:32:39.000Z</time>
      </trkpt>
      <trkpt lat="45.75428" lon="6.16542">
        <ele>1720.8000488281</ele>
        <time>2014-02-22T10:32:45.000Z</time>
      </trkpt>
      <trkpt lat="45.75434" lon="6.16543">
        <ele>1721.4000244141</ele>
        <time>2014-02-22T10:32:52.000Z</time>
      </trkpt>
      <trkpt lat="45.75438" lon="6.16546">
        <ele>1721.8000488281</ele>
        <time>2014-02-22T10:32:56.000Z</time>
      </trkpt>
      <trkpt lat="45.75448" lon="6.16547">
        <ele>1721.8000488281</ele>
        <time>2014-02-22T10:33:02.000Z</time>
      </trkpt>
      <trkpt lat="45.75451" lon="6.16547">
        <ele>1721.8000488281</ele>
        <time>2014-02-22T10:33:04.000Z</time>
      </trkpt>
      <trkpt lat="45.75458" lon="6.16545">
        <ele>1721.4000244141</ele>
        <time>2014-02-22T10:33:10.000Z</time>
      </trkpt>
      <trkpt lat="45.75458" lon="6.16544">
        <ele>1721.4000244141</ele>
        <time>2014-02-22T10:33:11.000Z</time>
      </trkpt>
      <trkpt lat="45.75463" lon="6.16544">
        <ele>1722.4000244141</ele>
        <time>2014-02-22T10:33:18.000Z</time>
      </trkpt>
      <trkpt lat="45.75465" lon="6.16545">
        <ele>1723.4000244141</ele>
        <time>2014-02-22T10:33:24.000Z</time>
      </trkpt>
      <trkpt lat="45.75465" lon="6.16545">
        <ele>1723.8000488281</ele>
        <time>2014-02-22T10:33:31.000Z</time>
      </trkpt>
      <trkpt lat="45.75466" lon="6.16544">
        <ele>1725.1999511719</ele>
        <time>2014-02-22T10:33:43.000Z</time>
      </trkpt>
      <trkpt lat="45.75465" lon="6.16543">
        <ele>1726.1999511719</ele>
        <time>2014-02-22T10:33:51.000Z</time>
      </trkpt>
      <trkpt lat="45.75465" lon="6.16542">
        <ele>1727.1999511719</ele>
        <time>2014-02-22T10:34:03.000Z</time>
      </trkpt>
      <trkpt lat="45.75466" lon="6.16544">
        <ele>1723.4000244141</ele>
        <time>2014-02-22T10:34:15.000Z</time>
      </trkpt>
      <trkpt lat="45.75465" lon="6.16542">
        <ele>1722.4000244141</ele>
        <time>2014-02-22T10:34:34.000Z</time>
      </trkpt>
      <trkpt lat="45.75465" lon="6.16542">
        <ele>1722.8000488281</ele>
        <time>2014-02-22T10:34:41.000Z</time>
      </trkpt>
      <trkpt lat="45.75466" lon="6.16542">
        <ele>1721.8000488281</ele>
        <time>2014-02-22T10:34:49.000Z</time>
      </trkpt>
      <trkpt lat="45.75467" lon="6.16541">
        <ele>1721.8000488281</ele>
        <time>2014-02-22T10:34:57.000Z</time>
      </trkpt>
      <trkpt lat="45.75467" lon="6.16542">
        <ele>1724.8000488281</ele>
        <time>2014-02-22T10:35:16.000Z</time>
      </trkpt>
      <trkpt lat="45.75467" lon="6.16542">
        <ele>1724.1999511719</ele>
        <time>2014-02-22T10:35:24.000Z</time>
      </trkpt>
      <trkpt lat="45.75468" lon="6.16541">
        <ele>1727.1999511719</ele>
        <time>2014-02-22T10:35:36.000Z</time>
      </trkpt>
      <trkpt lat="45.75467" lon="6.1654">
        <ele>1726.5999755859</ele>
        <time>2014-02-22T10:35:46.000Z</time>
      </trkpt>
      <trkpt lat="45.75467" lon="6.16541">
        <ele>1726.5999755859</ele>
        <time>2014-02-22T10:35:53.000Z</time>
      </trkpt>
      <trkpt lat="45.75467" lon="6.16542">
        <ele>1726.1999511719</ele>
        <time>2014-02-22T10:36:01.000Z</time>
      </trkpt>
      <trkpt lat="45.75466" lon="6.16542">
        <ele>1726.1999511719</ele>
        <time>2014-02-22T10:36:07.000Z</time>
      </trkpt>
      <trkpt lat="45.75467" lon="6.16545">
        <ele>1723.8000488281</ele>
        <time>2014-02-22T10:36:23.000Z</time>
      </trkpt>
      <trkpt lat="45.75466" lon="6.16547">
        <ele>1720.8000488281</ele>
        <time>2014-02-22T10:36:32.000Z</time>
      </trkpt>
      <trkpt lat="45.75467" lon="6.16547">
        <ele>1723.4000244141</ele>
        <time>2014-02-22T10:36:38.000Z</time>
      </trkpt>
      <trkpt lat="45.75468" lon="6.16547">
        <ele>1725.1999511719</ele>
        <time>2014-02-22T10:36:44.000Z</time>
      </trkpt>
      <trkpt lat="45.75469" lon="6.1655">
        <ele>1726.5999755859</ele>
        <time>2014-02-22T10:36:50.000Z</time>
      </trkpt>
      <trkpt lat="45.7547" lon="6.16552">
        <ele>1728.1999511719</ele>
        <time>2014-02-22T10:36:56.000Z</time>
      </trkpt>
      <trkpt lat="45.75472" lon="6.16552">
        <ele>1730</ele>
        <time>2014-02-22T10:37:01.000Z</time>
      </trkpt>
      <trkpt lat="45.75471" lon="6.16552">
        <ele>1732</ele>
        <time>2014-02-22T10:37:05.000Z</time>
      </trkpt>
      <trkpt lat="45.75472" lon="6.16553">
        <ele>1732</ele>
        <time>2014-02-22T10:37:12.000Z</time>
      </trkpt>
      <trkpt lat="45.75471" lon="6.16554">
        <ele>1732.4000244141</ele>
        <time>2014-02-22T10:37:16.000Z</time>
      </trkpt>
      <trkpt lat="45.75473" lon="6.16554">
        <ele>1732.4000244141</ele>
        <time>2014-02-22T10:37:21.000Z</time>
      </trkpt>
      <trkpt lat="45.75474" lon="6.16556">
        <ele>1733</ele>
        <time>2014-02-22T10:37:31.000Z</time>
      </trkpt>
      <trkpt lat="45.75474" lon="6.16556">
        <ele>1734.8000488281</ele>
        <time>2014-02-22T10:37:40.000Z</time>
      </trkpt>
      <trkpt lat="45.75474" lon="6.16556">
        <ele>1737.8000488281</ele>
        <time>2014-02-22T10:37:49.000Z</time>
      </trkpt>
      <trkpt lat="45.75474" lon="6.16557">
        <ele>1738.1999511719</ele>
        <time>2014-02-22T10:37:56.000Z</time>
      </trkpt>
      <trkpt lat="45.75475" lon="6.16558">
        <ele>1738.1999511719</ele>
        <time>2014-02-22T10:38:02.000Z</time>
      </trkpt>
      <trkpt lat="45.75477" lon="6.16559">
        <ele>1739.1999511719</ele>
        <time>2014-02-22T10:38:07.000Z</time>
      </trkpt>
      <trkpt lat="45.75478" lon="6.16558">
        <ele>1740.1999511719</ele>
        <time>2014-02-22T10:38:11.000Z</time>
      </trkpt>
      <trkpt lat="45.7548" lon="6.1656">
        <ele>1740.5999755859</ele>
        <time>2014-02-22T10:38:17.000Z</time>
      </trkpt>
      <trkpt lat="45.75483" lon="6.16561">
        <ele>1740.5999755859</ele>
        <time>2014-02-22T10:38:24.000Z</time>
      </trkpt>
      <trkpt lat="45.75486" lon="6.16564">
        <ele>1741.5999755859</ele>
        <time>2014-02-22T10:38:31.000Z</time>
      </trkpt>
      <trkpt lat="45.75486" lon="6.16566">
        <ele>1742</ele>
        <time>2014-02-22T10:38:38.000Z</time>
      </trkpt>
      <trkpt lat="45.75486" lon="6.16567">
        <ele>1742.5999755859</ele>
        <time>2014-02-22T10:38:42.000Z</time>
      </trkpt>
      <trkpt lat="45.75486" lon="6.1657">
        <ele>1743.4000244141</ele>
        <time>2014-02-22T10:38:48.000Z</time>
      </trkpt>
      <trkpt lat="45.75484" lon="6.1657">
        <ele>1745</ele>
        <time>2014-02-22T10:38:55.000Z</time>
      </trkpt>
      <trkpt lat="45.75484" lon="6.16569">
        <ele>1745.4000244141</ele>
        <time>2014-02-22T10:38:58.000Z</time>
      </trkpt>
      <trkpt lat="45.75485" lon="6.16569">
        <ele>1745.4000244141</ele>
        <time>2014-02-22T10:39:04.000Z</time>
      </trkpt>
      <trkpt lat="45.75488" lon="6.16571">
        <ele>1745.4000244141</ele>
        <time>2014-02-22T10:39:09.000Z</time>
      </trkpt>
      <trkpt lat="45.75491" lon="6.16572">
        <ele>1745</ele>
        <time>2014-02-22T10:39:14.000Z</time>
      </trkpt>
      <trkpt lat="45.75493" lon="6.16572">
        <ele>1745.4000244141</ele>
        <time>2014-02-22T10:39:18.000Z</time>
      </trkpt>
      <trkpt lat="45.75495" lon="6.1657">
        <ele>1745.8000488281</ele>
        <time>2014-02-22T10:39:22.000Z</time>
      </trkpt>
      <trkpt lat="45.75497" lon="6.16569">
        <ele>1745.8000488281</ele>
        <time>2014-02-22T10:39:27.000Z</time>
      </trkpt>
      <trkpt lat="45.755" lon="6.16567">
        <ele>1746.4000244141</ele>
        <time>2014-02-22T10:39:33.000Z</time>
      </trkpt>
      <trkpt lat="45.75501" lon="6.16568">
        <ele>1746.4000244141</ele>
        <time>2014-02-22T10:39:41.000Z</time>
      </trkpt>
      <trkpt lat="45.75501" lon="6.16568">
        <ele>1746.8000488281</ele>
        <time>2014-02-22T10:39:52.000Z</time>
      </trkpt>
      <trkpt lat="45.75498" lon="6.16568">
        <ele>1746.8000488281</ele>
        <time>2014-02-22T10:39:57.000Z</time>
      </trkpt>
      <trkpt lat="45.75497" lon="6.16569">
        <ele>1746.4000244141</ele>
        <time>2014-02-22T10:40:01.000Z</time>
      </trkpt>
      <trkpt lat="45.75495" lon="6.1657">
        <ele>1746.8000488281</ele>
        <time>2014-02-22T10:40:09.000Z</time>
      </trkpt>
      <trkpt lat="45.75493" lon="6.16572">
        <ele>1746.8000488281</ele>
        <time>2014-02-22T10:40:15.000Z</time>
      </trkpt>
      <trkpt lat="45.7549" lon="6.16575">
        <ele>1747.4000244141</ele>
        <time>2014-02-22T10:40:24.000Z</time>
      </trkpt>
      <trkpt lat="45.75489" lon="6.16576">
        <ele>1745.4000244141</ele>
        <time>2014-02-22T10:40:32.000Z</time>
      </trkpt>
      <trkpt lat="45.75489" lon="6.16575">
        <ele>1745.4000244141</ele>
        <time>2014-02-22T10:40:39.000Z</time>
      </trkpt>
      <trkpt lat="45.75489" lon="6.16575">
        <ele>1745.8000488281</ele>
        <time>2014-02-22T10:40:45.000Z</time>
      </trkpt>
      <trkpt lat="45.75489" lon="6.16574">
        <ele>1745.8000488281</ele>
        <time>2014-02-22T10:41:00.000Z</time>
      </trkpt>
      <trkpt lat="45.75489" lon="6.16575">
        <ele>1745.4000244141</ele>
        <time>2014-02-22T10:41:09.000Z</time>
      </trkpt>
      <trkpt lat="45.7549" lon="6.16575">
        <ele>1745.4000244141</ele>
        <time>2014-02-22T10:41:15.000Z</time>
      </trkpt>
      <trkpt lat="45.75489" lon="6.16574">
        <ele>1747.4000244141</ele>
        <time>2014-02-22T10:41:26.000Z</time>
      </trkpt>
      <trkpt lat="45.75489" lon="6.16575">
        <ele>1747.4000244141</ele>
        <time>2014-02-22T10:41:34.000Z</time>
      </trkpt>
      <trkpt lat="45.75489" lon="6.16575">
        <ele>1746.4000244141</ele>
        <time>2014-02-22T10:41:43.000Z</time>
      </trkpt>
      <trkpt lat="45.75486" lon="6.16577">
        <ele>1747.4000244141</ele>
        <time>2014-02-22T10:41:49.000Z</time>
      </trkpt>
      <trkpt lat="45.75484" lon="6.16579">
        <ele>1748.1999511719</ele>
        <time>2014-02-22T10:41:54.000Z</time>
      </trkpt>
      <trkpt lat="45.75481" lon="6.16581">
        <ele>1748.8000488281</ele>
        <time>2014-02-22T10:41:59.000Z</time>
      </trkpt>
      <trkpt lat="45.75478" lon="6.16583">
        <ele>1748.8000488281</ele>
        <time>2014-02-22T10:42:03.000Z</time>
      </trkpt>
      <trkpt lat="45.75478" lon="6.16583">
        <ele>1749.1999511719</ele>
        <time>2014-02-22T10:42:09.000Z</time>
      </trkpt>
      <trkpt lat="45.75478" lon="6.16582">
        <ele>1749.8000488281</ele>
        <time>2014-02-22T10:42:16.000Z</time>
      </trkpt>
      <trkpt lat="45.75477" lon="6.16582">
        <ele>1749.8000488281</ele>
        <time>2014-02-22T10:42:31.000Z</time>
      </trkpt>
      <trkpt lat="45.75474" lon="6.16583">
        <ele>1750.1999511719</ele>
        <time>2014-02-22T10:42:38.000Z</time>
      </trkpt>
      <trkpt lat="45.75473" lon="6.16584">
        <ele>1749.8000488281</ele>
        <time>2014-02-22T10:42:48.000Z</time>
      </trkpt>
      <trkpt lat="45.75471" lon="6.16586">
        <ele>1751.1999511719</ele>
        <time>2014-02-22T10:42:54.000Z</time>
      </trkpt>
      <trkpt lat="45.75469" lon="6.16588">
        <ele>1751.1999511719</ele>
        <time>2014-02-22T10:42:58.000Z</time>
      </trkpt>
      <trkpt lat="45.75468" lon="6.16588">
        <ele>1751.5999755859</ele>
        <time>2014-02-22T10:43:02.000Z</time>
      </trkpt>
      <trkpt lat="45.75469" lon="6.1659">
        <ele>1751.5999755859</ele>
        <time>2014-02-22T10:43:06.000Z</time>
      </trkpt>
      <trkpt lat="45.75471" lon="6.16593">
        <ele>1753.1999511719</ele>
        <time>2014-02-22T10:43:11.000Z</time>
      </trkpt>
      <trkpt lat="45.75471" lon="6.16595">
        <ele>1753.5999755859</ele>
        <time>2014-02-22T10:43:14.000Z</time>
      </trkpt>
      <trkpt lat="45.75469" lon="6.16599">
        <ele>1754</ele>
        <time>2014-02-22T10:43:18.000Z</time>
      </trkpt>
      <trkpt lat="45.75466" lon="6.16605">
        <ele>1754</ele>
        <time>2014-02-22T10:43:22.000Z</time>
      </trkpt>
      <trkpt lat="45.75462" lon="6.16603">
        <ele>1756.4000244141</ele>
        <time>2014-02-22T10:43:26.000Z</time>
      </trkpt>
      <trkpt lat="45.75459" lon="6.16601">
        <ele>1758.8000488281</ele>
        <time>2014-02-22T10:43:32.000Z</time>
      </trkpt>
      <trkpt lat="45.75458" lon="6.166">
        <ele>1759.8000488281</ele>
        <time>2014-02-22T10:43:36.000Z</time>
      </trkpt>
      <trkpt lat="45.75458" lon="6.16599">
        <ele>1760.4000244141</ele>
        <time>2014-02-22T10:43:41.000Z</time>
      </trkpt>
      <trkpt lat="45.75457" lon="6.16598">
        <ele>1760.8000488281</ele>
        <time>2014-02-22T10:43:48.000Z</time>
      </trkpt>
      <trkpt lat="45.75456" lon="6.16598">
        <ele>1760.8000488281</ele>
        <time>2014-02-22T10:43:52.000Z</time>
      </trkpt>
      <trkpt lat="45.75455" lon="6.16598">
        <ele>1761.8000488281</ele>
        <time>2014-02-22T10:43:57.000Z</time>
      </trkpt>
      <trkpt lat="45.75456" lon="6.166">
        <ele>1762.1999511719</ele>
        <time>2014-02-22T10:44:02.000Z</time>
      </trkpt>
      <trkpt lat="45.75456" lon="6.16601">
        <ele>1762.8000488281</ele>
        <time>2014-02-22T10:44:07.000Z</time>
      </trkpt>
      <trkpt lat="45.75457" lon="6.16602">
        <ele>1762.8000488281</ele>
        <time>2014-02-22T10:44:14.000Z</time>
      </trkpt>
      <trkpt lat="45.75457" lon="6.16602">
        <ele>1762.8000488281</ele>
        <time>2014-02-22T10:44:15.000Z</time>
      </trkpt>
      <trkpt lat="45.75455" lon="6.16609">
        <ele>1762.1999511719</ele>
        <time>2014-02-22T10:44:18.000Z</time>
      </trkpt>
      <trkpt lat="45.75454" lon="6.16606">
        <ele>1762.1999511719</ele>
        <time>2014-02-22T10:44:33.000Z</time>
      </trkpt>
      <trkpt lat="45.75454" lon="6.16605">
        <ele>1765.1999511719</ele>
        <time>2014-02-22T10:44:42.000Z</time>
      </trkpt>
      <trkpt lat="45.75454" lon="6.16607">
        <ele>1766.5999755859</ele>
        <time>2014-02-22T10:44:48.000Z</time>
      </trkpt>
      <trkpt lat="45.75457" lon="6.16607">
        <ele>1769.4000244141</ele>
        <time>2014-02-22T10:44:55.000Z</time>
      </trkpt>
      <trkpt lat="45.75458" lon="6.16607">
        <ele>1770</ele>
        <time>2014-02-22T10:45:02.000Z</time>
      </trkpt>
      <trkpt lat="45.75459" lon="6.16607">
        <ele>1770.4000244141</ele>
        <time>2014-02-22T10:45:08.000Z</time>
      </trkpt>
      <trkpt lat="45.75461" lon="6.16609">
        <ele>1770</ele>
        <time>2014-02-22T10:45:19.000Z</time>
      </trkpt>
      <trkpt lat="45.75462" lon="6.16608">
        <ele>1770.4000244141</ele>
        <time>2014-02-22T10:45:26.000Z</time>
      </trkpt>
      <trkpt lat="45.75464" lon="6.16606">
        <ele>1771.4000244141</ele>
        <time>2014-02-22T10:45:33.000Z</time>
      </trkpt>
      <trkpt lat="45.75467" lon="6.16606">
        <ele>1772.4000244141</ele>
        <time>2014-02-22T10:45:39.000Z</time>
      </trkpt>
      <trkpt lat="45.75469" lon="6.16607">
        <ele>1772.8000488281</ele>
        <time>2014-02-22T10:45:45.000Z</time>
      </trkpt>
      <trkpt lat="45.7547" lon="6.16608">
        <ele>1773.8000488281</ele>
        <time>2014-02-22T10:45:48.000Z</time>
      </trkpt>
      <trkpt lat="45.75471" lon="6.16606">
        <ele>1774.1999511719</ele>
        <time>2014-02-22T10:45:53.000Z</time>
      </trkpt>
      <trkpt lat="45.75472" lon="6.16605">
        <ele>1774.8000488281</ele>
        <time>2014-02-22T10:45:56.000Z</time>
      </trkpt>
      <trkpt lat="45.75474" lon="6.16605">
        <ele>1775.1999511719</ele>
        <time>2014-02-22T10:46:02.000Z</time>
      </trkpt>
      <trkpt lat="45.75477" lon="6.16606">
        <ele>1776.1999511719</ele>
        <time>2014-02-22T10:46:08.000Z</time>
      </trkpt>
      <trkpt lat="45.75478" lon="6.16607">
        <ele>1776.1999511719</ele>
        <time>2014-02-22T10:46:15.000Z</time>
      </trkpt>
      <trkpt lat="45.75478" lon="6.16607">
        <ele>1776.1999511719</ele>
        <time>2014-02-22T10:46:38.000Z</time>
      </trkpt>
      <trkpt lat="45.75478" lon="6.16607">
        <ele>1776.5999755859</ele>
        <time>2014-02-22T10:46:44.000Z</time>
      </trkpt>
      <trkpt lat="45.75463" lon="6.16541">
        <ele>1727.1999511719</ele>
        <time>2014-02-22T11:00:16.000Z</time>
      </trkpt>
      <trkpt lat="45.75463" lon="6.1654">
        <ele>1726.5999755859</ele>
        <time>2014-02-22T11:00:17.000Z</time>
      </trkpt>
      <trkpt lat="45.75462" lon="6.16541">
        <ele>1727.1999511719</ele>
        <time>2014-02-22T11:00:19.000Z</time>
      </trkpt>
      <trkpt lat="45.75452" lon="6.16542">
        <ele>1726.1999511719</ele>
        <time>2014-02-22T11:00:24.000Z</time>
      </trkpt>
      <trkpt lat="45.75447" lon="6.16539">
        <ele>1725.1999511719</ele>
        <time>2014-02-22T11:00:28.000Z</time>
      </trkpt>
      <trkpt lat="45.75445" lon="6.16537">
        <ele>1724.1999511719</ele>
        <time>2014-02-22T11:00:30.000Z</time>
      </trkpt>
      <trkpt lat="45.75444" lon="6.16532">
        <ele>1721.8000488281</ele>
        <time>2014-02-22T11:00:35.000Z</time>
      </trkpt>
      <trkpt lat="45.75443" lon="6.16526">
        <ele>1718.4000244141</ele>
        <time>2014-02-22T11:00:40.000Z</time>
      </trkpt>
      <trkpt lat="45.75445" lon="6.16521">
        <ele>1717</ele>
        <time>2014-02-22T11:00:42.000Z</time>
      </trkpt>
      <trkpt lat="45.75451" lon="6.1652">
        <ele>1715.1999511719</ele>
        <time>2014-02-22T11:00:45.000Z</time>
      </trkpt>
      <trkpt lat="45.75454" lon="6.16517">
        <ele>1713.1999511719</ele>
        <time>2014-02-22T11:00:50.000Z</time>
      </trkpt>
      <trkpt lat="45.75457" lon="6.16517">
        <ele>1711.8000488281</ele>
        <time>2014-02-22T11:00:55.000Z</time>
      </trkpt>
      <trkpt lat="45.75457" lon="6.16516">
        <ele>1711.1999511719</ele>
        <time>2014-02-22T11:00:59.000Z</time>
      </trkpt>
      <trkpt lat="45.75461" lon="6.16512">
        <ele>1708</ele>
        <time>2014-02-22T11:01:03.000Z</time>
      </trkpt>
      <trkpt lat="45.75466" lon="6.16506">
        <ele>1704</ele>
        <time>2014-02-22T11:01:06.000Z</time>
      </trkpt>
      <trkpt lat="45.75467" lon="6.16502">
        <ele>1699.8000488281</ele>
        <time>2014-02-22T11:01:11.000Z</time>
      </trkpt>
      <trkpt lat="45.75466" lon="6.16501">
        <ele>1698.8000488281</ele>
        <time>2014-02-22T11:01:12.000Z</time>
      </trkpt>
      <trkpt lat="45.75465" lon="6.16492">
        <ele>1694</ele>
        <time>2014-02-22T11:01:16.000Z</time>
      </trkpt>
      <trkpt lat="45.75467" lon="6.16482">
        <ele>1688.5999755859</ele>
        <time>2014-02-22T11:01:19.000Z</time>
      </trkpt>
      <trkpt lat="45.75472" lon="6.16475">
        <ele>1683.8000488281</ele>
        <time>2014-02-22T11:01:23.000Z</time>
      </trkpt>
      <trkpt lat="45.75481" lon="6.16469">
        <ele>1678.5999755859</ele>
        <time>2014-02-22T11:01:26.000Z</time>
      </trkpt>
      <trkpt lat="45.75487" lon="6.16463">
        <ele>1673.8000488281</ele>
        <time>2014-02-22T11:01:29.000Z</time>
      </trkpt>
      <trkpt lat="45.75491" lon="6.16449">
        <ele>1668.5999755859</ele>
        <time>2014-02-22T11:01:32.000Z</time>
      </trkpt>
      <trkpt lat="45.75494" lon="6.16437">
        <ele>1663.5999755859</ele>
        <time>2014-02-22T11:01:34.000Z</time>
      </trkpt>
      <trkpt lat="45.7549" lon="6.16427">
        <ele>1658.8000488281</ele>
        <time>2014-02-22T11:01:36.000Z</time>
      </trkpt>
      <trkpt lat="45.75492" lon="6.16422">
        <ele>1654</ele>
        <time>2014-02-22T11:01:38.000Z</time>
      </trkpt>
      <trkpt lat="45.75511" lon="6.16414">
        <ele>1645</ele>
        <time>2014-02-22T11:01:42.000Z</time>
      </trkpt>
      <trkpt lat="45.7552" lon="6.164">
        <ele>1637.8000488281</ele>
        <time>2014-02-22T11:01:45.000Z</time>
      </trkpt>
      <trkpt lat="45.75517" lon="6.1639">
        <ele>1633</ele>
        <time>2014-02-22T11:01:47.000Z</time>
      </trkpt>
      <trkpt lat="45.75508" lon="6.16382">
        <ele>1630</ele>
        <time>2014-02-22T11:01:49.000Z</time>
      </trkpt>
      <trkpt lat="45.75496" lon="6.16371">
        <ele>1626.5999755859</ele>
        <time>2014-02-22T11:01:52.000Z</time>
      </trkpt>
      <trkpt lat="45.75489" lon="6.16365">
        <ele>1624.8000488281</ele>
        <time>2014-02-22T11:01:54.000Z</time>
      </trkpt>
      <trkpt lat="45.75477" lon="6.16346">
        <ele>1618</ele>
        <time>2014-02-22T11:01:58.000Z</time>
      </trkpt>
      <trkpt lat="45.75478" lon="6.16328">
        <ele>1610.4000244141</ele>
        <time>2014-02-22T11:02:01.000Z</time>
      </trkpt>
      <trkpt lat="45.75484" lon="6.16309">
        <ele>1601.5999755859</ele>
        <time>2014-02-22T11:02:04.000Z</time>
      </trkpt>
      <trkpt lat="45.7548" lon="6.16289">
        <ele>1595</ele>
        <time>2014-02-22T11:02:06.000Z</time>
      </trkpt>
      <trkpt lat="45.75484" lon="6.16272">
        <ele>1588.1999511719</ele>
        <time>2014-02-22T11:02:08.000Z</time>
      </trkpt>
      <trkpt lat="45.75484" lon="6.1625">
        <ele>1577.1999511719</ele>
        <time>2014-02-22T11:02:11.000Z</time>
      </trkpt>
      <trkpt lat="45.7548" lon="6.1624">
        <ele>1571</ele>
        <time>2014-02-22T11:02:13.000Z</time>
      </trkpt>
      <trkpt lat="45.75481" lon="6.16234">
        <ele>1568</ele>
        <time>2014-02-22T11:02:14.000Z</time>
      </trkpt>
      <trkpt lat="45.75483" lon="6.16209">
        <ele>1555.5999755859</ele>
        <time>2014-02-22T11:02:18.000Z</time>
      </trkpt>
      <trkpt lat="45.75488" lon="6.16195">
        <ele>1547.8000488281</ele>
        <time>2014-02-22T11:02:21.000Z</time>
      </trkpt>
      <trkpt lat="45.75489" lon="6.16184">
        <ele>1541.1999511719</ele>
        <time>2014-02-22T11:02:23.000Z</time>
      </trkpt>
      <trkpt lat="45.75489" lon="6.16168">
        <ele>1533</ele>
        <time>2014-02-22T11:02:26.000Z</time>
      </trkpt>
      <trkpt lat="45.75491" lon="6.1616">
        <ele>1528.1999511719</ele>
        <time>2014-02-22T11:02:28.000Z</time>
      </trkpt>
      <trkpt lat="45.75492" lon="6.16146">
        <ele>1521.4000244141</ele>
        <time>2014-02-22T11:02:31.000Z</time>
      </trkpt>
      <trkpt lat="45.75492" lon="6.16139">
        <ele>1519</ele>
        <time>2014-02-22T11:02:32.000Z</time>
      </trkpt>
      <trkpt lat="45.75488" lon="6.16132">
        <ele>1514.1999511719</ele>
        <time>2014-02-22T11:02:34.000Z</time>
      </trkpt>
      <trkpt lat="45.75486" lon="6.16123">
        <ele>1510.4000244141</ele>
        <time>2014-02-22T11:02:39.000Z</time>
      </trkpt>
      <trkpt lat="45.75493" lon="6.16117">
        <ele>1507.4000244141</ele>
        <time>2014-02-22T11:02:42.000Z</time>
      </trkpt>
      <trkpt lat="45.75491" lon="6.16103">
        <ele>1504.5999755859</ele>
        <time>2014-02-22T11:02:45.000Z</time>
      </trkpt>
      <trkpt lat="45.75488" lon="6.16091">
        <ele>1500.8000488281</ele>
        <time>2014-02-22T11:02:48.000Z</time>
      </trkpt>
      <trkpt lat="45.75487" lon="6.1608">
        <ele>1497.8000488281</ele>
        <time>2014-02-22T11:02:50.000Z</time>
      </trkpt>
      <trkpt lat="45.75495" lon="6.16075">
        <ele>1495.4000244141</ele>
        <time>2014-02-22T11:02:52.000Z</time>
      </trkpt>
      <trkpt lat="45.75496" lon="6.16063">
        <ele>1490.5999755859</ele>
        <time>2014-02-22T11:02:55.000Z</time>
      </trkpt>
      <trkpt lat="45.75494" lon="6.16049">
        <ele>1487.1999511719</ele>
        <time>2014-02-22T11:02:58.000Z</time>
      </trkpt>
      <trkpt lat="45.75492" lon="6.16039">
        <ele>1483.4000244141</ele>
        <time>2014-02-22T11:03:01.000Z</time>
      </trkpt>
      <trkpt lat="45.75496" lon="6.16031">
        <ele>1480</ele>
        <time>2014-02-22T11:03:03.000Z</time>
      </trkpt>
      <trkpt lat="45.75495" lon="6.16026">
        <ele>1477.5999755859</ele>
        <time>2014-02-22T11:03:05.000Z</time>
      </trkpt>
      <trkpt lat="45.75486" lon="6.16014">
        <ele>1475.1999511719</ele>
        <time>2014-02-22T11:03:08.000Z</time>
      </trkpt>
      <trkpt lat="45.75485" lon="6.16001">
        <ele>1471</ele>
        <time>2014-02-22T11:03:10.000Z</time>
      </trkpt>
      <trkpt lat="45.75486" lon="6.15988">
        <ele>1467.5999755859</ele>
        <time>2014-02-22T11:03:12.000Z</time>
      </trkpt>
      <trkpt lat="45.75489" lon="6.15972">
        <ele>1462.4000244141</ele>
        <time>2014-02-22T11:03:15.000Z</time>
      </trkpt>
      <trkpt lat="45.75482" lon="6.15952">
        <ele>1458</ele>
        <time>2014-02-22T11:03:18.000Z</time>
      </trkpt>
      <trkpt lat="45.75489" lon="6.15939">
        <ele>1454.1999511719</ele>
        <time>2014-02-22T11:03:20.000Z</time>
      </trkpt>
      <trkpt lat="45.75488" lon="6.15925">
        <ele>1450.1999511719</ele>
        <time>2014-02-22T11:03:22.000Z</time>
      </trkpt>
      <trkpt lat="45.75495" lon="6.1591">
        <ele>1445.4000244141</ele>
        <time>2014-02-22T11:03:24.000Z</time>
      </trkpt>
      <trkpt lat="45.75494" lon="6.15897">
        <ele>1441.1999511719</ele>
        <time>2014-02-22T11:03:26.000Z</time>
      </trkpt>
      <trkpt lat="45.75498" lon="6.15881">
        <ele>1435.8000488281</ele>
        <time>2014-02-22T11:03:28.000Z</time>
      </trkpt>
      <trkpt lat="45.75496" lon="6.15862">
        <ele>1430</ele>
        <time>2014-02-22T11:03:31.000Z</time>
      </trkpt>
      <trkpt lat="45.75497" lon="6.1585">
        <ele>1426.1999511719</ele>
        <time>2014-02-22T11:03:33.000Z</time>
      </trkpt>
      <trkpt lat="45.75507" lon="6.15835">
        <ele>1421</ele>
        <time>2014-02-22T11:03:36.000Z</time>
      </trkpt>
      <trkpt lat="45.75518" lon="6.15807">
        <ele>1412.8000488281</ele>
        <time>2014-02-22T11:03:41.000Z</time>
      </trkpt>
      <trkpt lat="45.75528" lon="6.15802">
        <ele>1409.4000244141</ele>
        <time>2014-02-22T11:03:44.000Z</time>
      </trkpt>
      <trkpt lat="45.75524" lon="6.15789">
        <ele>1407</ele>
        <time>2014-02-22T11:03:46.000Z</time>
      </trkpt>
      <trkpt lat="45.75519" lon="6.15769">
        <ele>1402.8000488281</ele>
        <time>2014-02-22T11:03:49.000Z</time>
      </trkpt>
      <trkpt lat="45.7551" lon="6.15749">
        <ele>1398.8000488281</ele>
        <time>2014-02-22T11:03:52.000Z</time>
      </trkpt>
      <trkpt lat="45.75506" lon="6.15734">
        <ele>1395.4000244141</ele>
        <time>2014-02-22T11:03:54.000Z</time>
      </trkpt>
      <trkpt lat="45.75497" lon="6.15723">
        <ele>1392.5999755859</ele>
        <time>2014-02-22T11:03:57.000Z</time>
      </trkpt>
      <trkpt lat="45.75485" lon="6.15704">
        <ele>1386.4000244141</ele>
        <time>2014-02-22T11:04:02.000Z</time>
      </trkpt>
      <trkpt lat="45.75486" lon="6.15706">
        <ele>1385.8000488281</ele>
        <time>2014-02-22T11:04:07.000Z</time>
      </trkpt>
      <trkpt lat="45.75486" lon="6.15707">
        <ele>1387.8000488281</ele>
        <time>2014-02-22T11:04:25.000Z</time>
      </trkpt>
      <trkpt lat="45.75485" lon="6.15709">
        <ele>1391.1999511719</ele>
        <time>2014-02-22T11:04:56.000Z</time>
      </trkpt>
      <trkpt lat="45.75484" lon="6.15708">
        <ele>1392.5999755859</ele>
        <time>2014-02-22T11:05:27.000Z</time>
      </trkpt>
      <trkpt lat="45.75484" lon="6.15708">
        <ele>1395</ele>
        <time>2014-02-22T11:05:40.000Z</time>
      </trkpt>
      <trkpt lat="45.75485" lon="6.15706">
        <ele>1398.4000244141</ele>
        <time>2014-02-22T11:05:53.000Z</time>
      </trkpt>
      <trkpt lat="45.75486" lon="6.15707">
        <ele>1400.8000488281</ele>
        <time>2014-02-22T11:06:03.000Z</time>
      </trkpt>
      <trkpt lat="45.75487" lon="6.15707">
        <ele>1400.8000488281</ele>
        <time>2014-02-22T11:06:08.000Z</time>
      </trkpt>
      <trkpt lat="45.75487" lon="6.15708">
        <ele>1399.8000488281</ele>
        <time>2014-02-22T11:06:13.000Z</time>
      </trkpt>
      <trkpt lat="45.75487" lon="6.15708">
        <ele>1398.4000244141</ele>
        <time>2014-02-22T11:06:22.000Z</time>
      </trkpt>
      <trkpt lat="45.75486" lon="6.15706">
        <ele>1398.8000488281</ele>
        <time>2014-02-22T11:06:30.000Z</time>
      </trkpt>
      <trkpt lat="45.75486" lon="6.15709">
        <ele>1399.4000244141</ele>
        <time>2014-02-22T11:06:46.000Z</time>
      </trkpt>
      <trkpt lat="45.75486" lon="6.15709">
        <ele>1398.8000488281</ele>
        <time>2014-02-22T11:07:01.000Z</time>
      </trkpt>
      <trkpt lat="45.75486" lon="6.15709">
        <ele>1398.4000244141</ele>
        <time>2014-02-22T11:07:15.000Z</time>
      </trkpt>
      <trkpt lat="45.75486" lon="6.15709">
        <ele>1397.8000488281</ele>
        <time>2014-02-22T11:07:23.000Z</time>
      </trkpt>
      <trkpt lat="45.75486" lon="6.15709">
        <ele>1397.8000488281</ele>
        <time>2014-02-22T11:07:37.000Z</time>
      </trkpt>
      <trkpt lat="45.75485" lon="6.15706">
        <ele>1397.8000488281</ele>
        <time>2014-02-22T11:07:50.000Z</time>
      </trkpt>
      <trkpt lat="45.75485" lon="6.15707">
        <ele>1397.8000488281</ele>
        <time>2014-02-22T11:07:57.000Z</time>
      </trkpt>
      <trkpt lat="45.75484" lon="6.15707">
        <ele>1399.8000488281</ele>
        <time>2014-02-22T11:08:10.000Z</time>
      </trkpt>
      <trkpt lat="45.75483" lon="6.15707">
        <ele>1400.8000488281</ele>
        <time>2014-02-22T11:08:17.000Z</time>
      </trkpt>
      <trkpt lat="45.75483" lon="6.15708">
        <ele>1399.8000488281</ele>
        <time>2014-02-22T11:08:35.000Z</time>
      </trkpt>
      <trkpt lat="45.7548" lon="6.15709">
        <ele>1399.4000244141</ele>
        <time>2014-02-22T11:08:51.000Z</time>
      </trkpt>
      <trkpt lat="45.75475" lon="6.15712">
        <ele>1400.8000488281</ele>
        <time>2014-02-22T11:08:59.000Z</time>
      </trkpt>
      <trkpt lat="45.75472" lon="6.15713">
        <ele>1402.8000488281</ele>
        <time>2014-02-22T11:09:04.000Z</time>
      </trkpt>
      <trkpt lat="45.75467" lon="6.15717">
        <ele>1405.1999511719</ele>
        <time>2014-02-22T11:09:12.000Z</time>
      </trkpt>
      <trkpt lat="45.75464" lon="6.1572">
        <ele>1404.1999511719</ele>
        <time>2014-02-22T11:09:18.000Z</time>
      </trkpt>
      <trkpt lat="45.75461" lon="6.15724">
        <ele>1404.5999755859</ele>
        <time>2014-02-22T11:09:26.000Z</time>
      </trkpt>
      <trkpt lat="45.75457" lon="6.15729">
        <ele>1405.5999755859</ele>
        <time>2014-02-22T11:09:33.000Z</time>
      </trkpt>
      <trkpt lat="45.75453" lon="6.15736">
        <ele>1407</ele>
        <time>2014-02-22T11:09:41.000Z</time>
      </trkpt>
      <trkpt lat="45.75449" lon="6.15744">
        <ele>1408</ele>
        <time>2014-02-22T11:09:49.000Z</time>
      </trkpt>
      <trkpt lat="45.75445" lon="6.15752">
        <ele>1409.4000244141</ele>
        <time>2014-02-22T11:09:57.000Z</time>
      </trkpt>
      <trkpt lat="45.75442" lon="6.1576">
        <ele>1410.4000244141</ele>
        <time>2014-02-22T11:10:04.000Z</time>
      </trkpt>
      <trkpt lat="45.7544" lon="6.15768">
        <ele>1410.8000488281</ele>
        <time>2014-02-22T11:10:10.000Z</time>
      </trkpt>
      <trkpt lat="45.75439" lon="6.15769">
        <ele>1410.8000488281</ele>
        <time>2014-02-22T11:10:13.000Z</time>
      </trkpt>
      <trkpt lat="45.75437" lon="6.15775">
        <ele>1411.4000244141</ele>
        <time>2014-02-22T11:10:17.000Z</time>
      </trkpt>
      <trkpt lat="45.75435" lon="6.15781">
        <ele>1411.8000488281</ele>
        <time>2014-02-22T11:10:22.000Z</time>
      </trkpt>
      <trkpt lat="45.75433" lon="6.15788">
        <ele>1413.1999511719</ele>
        <time>2014-02-22T11:10:29.000Z</time>
      </trkpt>
      <trkpt lat="45.7543" lon="6.15795">
        <ele>1413.1999511719</ele>
        <time>2014-02-22T11:10:36.000Z</time>
      </trkpt>
      <trkpt lat="45.75426" lon="6.15802">
        <ele>1414.1999511719</ele>
        <time>2014-02-22T11:10:42.000Z</time>
      </trkpt>
      <trkpt lat="45.75423" lon="6.1581">
        <ele>1415.1999511719</ele>
        <time>2014-02-22T11:10:49.000Z</time>
      </trkpt>
      <trkpt lat="45.7542" lon="6.15817">
        <ele>1416.5999755859</ele>
        <time>2014-02-22T11:10:56.000Z</time>
      </trkpt>
      <trkpt lat="45.75417" lon="6.15823">
        <ele>1417.1999511719</ele>
        <time>2014-02-22T11:11:02.000Z</time>
      </trkpt>
      <trkpt lat="45.75413" lon="6.1583">
        <ele>1418.5999755859</ele>
        <time>2014-02-22T11:11:10.000Z</time>
      </trkpt>
      <trkpt lat="45.75408" lon="6.15838">
        <ele>1419</ele>
        <time>2014-02-22T11:11:20.000Z</time>
      </trkpt>
      <trkpt lat="45.75403" lon="6.15844">
        <ele>1419.5999755859</ele>
        <time>2014-02-22T11:11:27.000Z</time>
      </trkpt>
      <trkpt lat="45.75398" lon="6.15848">
        <ele>1420.4000244141</ele>
        <time>2014-02-22T11:11:36.000Z</time>
      </trkpt>
      <trkpt lat="45.75393" lon="6.15852">
        <ele>1421</ele>
        <time>2014-02-22T11:11:43.000Z</time>
      </trkpt>
      <trkpt lat="45.75389" lon="6.15855">
        <ele>1422.4000244141</ele>
        <time>2014-02-22T11:11:50.000Z</time>
      </trkpt>
      <trkpt lat="45.75384" lon="6.15857">
        <ele>1423.8000488281</ele>
        <time>2014-02-22T11:11:56.000Z</time>
      </trkpt>
      <trkpt lat="45.7538" lon="6.1586">
        <ele>1424.8000488281</ele>
        <time>2014-02-22T11:12:03.000Z</time>
      </trkpt>
      <trkpt lat="45.75378" lon="6.15861">
        <ele>1426.8000488281</ele>
        <time>2014-02-22T11:12:07.000Z</time>
      </trkpt>
      <trkpt lat="45.75373" lon="6.15862">
        <ele>1428.5999755859</ele>
        <time>2014-02-22T11:12:12.000Z</time>
      </trkpt>
      <trkpt lat="45.75369" lon="6.15863">
        <ele>1429.5999755859</ele>
        <time>2014-02-22T11:12:17.000Z</time>
      </trkpt>
      <trkpt lat="45.75364" lon="6.15864">
        <ele>1429.1999511719</ele>
        <time>2014-02-22T11:12:23.000Z</time>
      </trkpt>
      <trkpt lat="45.7536" lon="6.15865">
        <ele>1428.1999511719</ele>
        <time>2014-02-22T11:12:28.000Z</time>
      </trkpt>
      <trkpt lat="45.75353" lon="6.15866">
        <ele>1428.1999511719</ele>
        <time>2014-02-22T11:12:34.000Z</time>
      </trkpt>
      <trkpt lat="45.75346" lon="6.15866">
        <ele>1430.5999755859</ele>
        <time>2014-02-22T11:12:41.000Z</time>
      </trkpt>
      <trkpt lat="45.75345" lon="6.15866">
        <ele>1431</ele>
        <time>2014-02-22T11:12:43.000Z</time>
      </trkpt>
      <trkpt lat="45.75339" lon="6.15863">
        <ele>1434.4000244141</ele>
        <time>2014-02-22T11:12:51.000Z</time>
      </trkpt>
      <trkpt lat="45.75334" lon="6.1586">
        <ele>1436.8000488281</ele>
        <time>2014-02-22T11:12:58.000Z</time>
      </trkpt>
      <trkpt lat="45.75331" lon="6.15857">
        <ele>1437.4000244141</ele>
        <time>2014-02-22T11:13:04.000Z</time>
      </trkpt>
      <trkpt lat="45.75327" lon="6.15854">
        <ele>1437.4000244141</ele>
        <time>2014-02-22T11:13:09.000Z</time>
      </trkpt>
      <trkpt lat="45.75324" lon="6.15853">
        <ele>1437.4000244141</ele>
        <time>2014-02-22T11:13:13.000Z</time>
      </trkpt>
      <trkpt lat="45.75319" lon="6.15849">
        <ele>1437.8000488281</ele>
        <time>2014-02-22T11:13:21.000Z</time>
      </trkpt>
      <trkpt lat="45.75314" lon="6.15849">
        <ele>1438.1999511719</ele>
        <time>2014-02-22T11:13:28.000Z</time>
      </trkpt>
      <trkpt lat="45.7531" lon="6.15848">
        <ele>1439.1999511719</ele>
        <time>2014-02-22T11:13:34.000Z</time>
      </trkpt>
      <trkpt lat="45.75307" lon="6.15847">
        <ele>1440.1999511719</ele>
        <time>2014-02-22T11:13:40.000Z</time>
      </trkpt>
      <trkpt lat="45.75304" lon="6.15846">
        <ele>1441.5999755859</ele>
        <time>2014-02-22T11:13:47.000Z</time>
      </trkpt>
      <trkpt lat="45.75302" lon="6.15845">
        <ele>1443</ele>
        <time>2014-02-22T11:13:51.000Z</time>
      </trkpt>
      <trkpt lat="45.753" lon="6.15844">
        <ele>1443.5999755859</ele>
        <time>2014-02-22T11:13:57.000Z</time>
      </trkpt>
      <trkpt lat="45.75299" lon="6.15843">
        <ele>1445.4000244141</ele>
        <time>2014-02-22T11:14:02.000Z</time>
      </trkpt>
      <trkpt lat="45.75297" lon="6.15843">
        <ele>1447</ele>
        <time>2014-02-22T11:14:07.000Z</time>
      </trkpt>
      <trkpt lat="45.75295" lon="6.15842">
        <ele>1447.8000488281</ele>
        <time>2014-02-22T11:14:12.000Z</time>
      </trkpt>
      <trkpt lat="45.75293" lon="6.15841">
        <ele>1449.4000244141</ele>
        <time>2014-02-22T11:14:16.000Z</time>
      </trkpt>
      <trkpt lat="45.75293" lon="6.1584">
        <ele>1449.8000488281</ele>
        <time>2014-02-22T11:14:22.000Z</time>
      </trkpt>
      <trkpt lat="45.75294" lon="6.1584">
        <ele>1451.1999511719</ele>
        <time>2014-02-22T11:14:50.000Z</time>
      </trkpt>
      <trkpt lat="45.75294" lon="6.1584">
        <ele>1450.1999511719</ele>
        <time>2014-02-22T11:15:02.000Z</time>
      </trkpt>
      <trkpt lat="45.75292" lon="6.15838">
        <ele>1448.8000488281</ele>
        <time>2014-02-22T11:15:13.000Z</time>
      </trkpt>
      <trkpt lat="45.75287" lon="6.15836">
        <ele>1449.4000244141</ele>
        <time>2014-02-22T11:15:20.000Z</time>
      </trkpt>
      <trkpt lat="45.75283" lon="6.15835">
        <ele>1451.1999511719</ele>
        <time>2014-02-22T11:15:25.000Z</time>
      </trkpt>
      <trkpt lat="45.7528" lon="6.15835">
        <ele>1452.5999755859</ele>
        <time>2014-02-22T11:15:30.000Z</time>
      </trkpt>
      <trkpt lat="45.75277" lon="6.15835">
        <ele>1454.1999511719</ele>
        <time>2014-02-22T11:15:35.000Z</time>
      </trkpt>
      <trkpt lat="45.75273" lon="6.15832">
        <ele>1455.5999755859</ele>
        <time>2014-02-22T11:15:40.000Z</time>
      </trkpt>
      <trkpt lat="45.75268" lon="6.15829">
        <ele>1457.4000244141</ele>
        <time>2014-02-22T11:15:48.000Z</time>
      </trkpt>
      <trkpt lat="45.75266" lon="6.15827">
        <ele>1458</ele>
        <time>2014-02-22T11:15:52.000Z</time>
      </trkpt>
      <trkpt lat="45.75263" lon="6.15825">
        <ele>1459.8000488281</ele>
        <time>2014-02-22T11:15:59.000Z</time>
      </trkpt>
      <trkpt lat="45.75262" lon="6.15824">
        <ele>1460.4000244141</ele>
        <time>2014-02-22T11:16:09.000Z</time>
      </trkpt>
      <trkpt lat="45.75259" lon="6.15821">
        <ele>1461.4000244141</ele>
        <time>2014-02-22T11:16:18.000Z</time>
      </trkpt>
      <trkpt lat="45.75255" lon="6.15818">
        <ele>1461.4000244141</ele>
        <time>2014-02-22T11:16:24.000Z</time>
      </trkpt>
      <trkpt lat="45.75254" lon="6.15818">
        <ele>1460.8000488281</ele>
        <time>2014-02-22T11:16:33.000Z</time>
      </trkpt>
      <trkpt lat="45.75252" lon="6.15816">
        <ele>1461.8000488281</ele>
        <time>2014-02-22T11:16:38.000Z</time>
      </trkpt>
      <trkpt lat="45.75246" lon="6.15813">
        <ele>1463.1999511719</ele>
        <time>2014-02-22T11:16:46.000Z</time>
      </trkpt>
      <trkpt lat="45.75241" lon="6.15811">
        <ele>1463.8000488281</ele>
        <time>2014-02-22T11:16:53.000Z</time>
      </trkpt>
      <trkpt lat="45.75238" lon="6.15809">
        <ele>1464.8000488281</ele>
        <time>2014-02-22T11:16:58.000Z</time>
      </trkpt>
      <trkpt lat="45.75229" lon="6.15806">
        <ele>1465.5999755859</ele>
        <time>2014-02-22T11:17:06.000Z</time>
      </trkpt>
      <trkpt lat="45.75223" lon="6.15803">
        <ele>1466.5999755859</ele>
        <time>2014-02-22T11:17:12.000Z</time>
      </trkpt>
      <trkpt lat="45.75216" lon="6.15799">
        <ele>1467.5999755859</ele>
        <time>2014-02-22T11:17:19.000Z</time>
      </trkpt>
      <trkpt lat="45.7521" lon="6.15796">
        <ele>1469</ele>
        <time>2014-02-22T11:17:25.000Z</time>
      </trkpt>
      <trkpt lat="45.75204" lon="6.15793">
        <ele>1469</ele>
        <time>2014-02-22T11:17:31.000Z</time>
      </trkpt>
      <trkpt lat="45.752" lon="6.1579">
        <ele>1469.5999755859</ele>
        <time>2014-02-22T11:17:35.000Z</time>
      </trkpt>
      <trkpt lat="45.75194" lon="6.15787">
        <ele>1470</ele>
        <time>2014-02-22T11:17:41.000Z</time>
      </trkpt>
      <trkpt lat="45.75189" lon="6.15784">
        <ele>1470.4000244141</ele>
        <time>2014-02-22T11:17:46.000Z</time>
      </trkpt>
      <trkpt lat="45.75183" lon="6.1578">
        <ele>1471</ele>
        <time>2014-02-22T11:17:53.000Z</time>
      </trkpt>
      <trkpt lat="45.75179" lon="6.15777">
        <ele>1471.4000244141</ele>
        <time>2014-02-22T11:17:58.000Z</time>
      </trkpt>
      <trkpt lat="45.75179" lon="6.15776">
        <ele>1471.4000244141</ele>
        <time>2014-02-22T11:18:03.000Z</time>
      </trkpt>
      <trkpt lat="45.75179" lon="6.15777">
        <ele>1471</ele>
        <time>2014-02-22T11:18:10.000Z</time>
      </trkpt>
      <trkpt lat="45.75179" lon="6.15776">
        <ele>1472.4000244141</ele>
        <time>2014-02-22T11:18:17.000Z</time>
      </trkpt>
      <trkpt lat="45.75179" lon="6.15777">
        <ele>1472.4000244141</ele>
        <time>2014-02-22T11:18:27.000Z</time>
      </trkpt>
      <trkpt lat="45.75179" lon="6.15778">
        <ele>1471.4000244141</ele>
        <time>2014-02-22T11:18:39.000Z</time>
      </trkpt>
      <trkpt lat="45.7518" lon="6.15777">
        <ele>1471.4000244141</ele>
        <time>2014-02-22T11:18:45.000Z</time>
      </trkpt>
      <trkpt lat="45.7518" lon="6.15777">
        <ele>1472</ele>
        <time>2014-02-22T11:18:52.000Z</time>
      </trkpt>
      <trkpt lat="45.7518" lon="6.15774">
        <ele>1472</ele>
        <time>2014-02-22T11:19:00.000Z</time>
      </trkpt>
      <trkpt lat="45.75179" lon="6.15775">
        <ele>1470.4000244141</ele>
        <time>2014-02-22T11:19:07.000Z</time>
      </trkpt>
      <trkpt lat="45.7518" lon="6.15775">
        <ele>1470.4000244141</ele>
        <time>2014-02-22T11:19:14.000Z</time>
      </trkpt>
      <trkpt lat="45.75179" lon="6.15775">
        <ele>1470.4000244141</ele>
        <time>2014-02-22T11:19:22.000Z</time>
      </trkpt>
      <trkpt lat="45.75178" lon="6.15774">
        <ele>1470</ele>
        <time>2014-02-22T11:19:30.000Z</time>
      </trkpt>
      <trkpt lat="45.75178" lon="6.15776">
        <ele>1471</ele>
        <time>2014-02-22T11:19:37.000Z</time>
      </trkpt>
      <trkpt lat="45.75178" lon="6.15776">
        <ele>1472.8000488281</ele>
        <time>2014-02-22T11:19:48.000Z</time>
      </trkpt>
      <trkpt lat="45.75178" lon="6.15777">
        <ele>1472.8000488281</ele>
        <time>2014-02-22T11:19:53.000Z</time>
      </trkpt>
      <trkpt lat="45.75177" lon="6.15778">
        <ele>1472.4000244141</ele>
        <time>2014-02-22T11:19:57.000Z</time>
      </trkpt>
      <trkpt lat="45.75174" lon="6.15788">
        <ele>1469</ele>
        <time>2014-02-22T11:20:01.000Z</time>
      </trkpt>
      <trkpt lat="45.7517" lon="6.158">
        <ele>1465.1999511719</ele>
        <time>2014-02-22T11:20:04.000Z</time>
      </trkpt>
      <trkpt lat="45.75168" lon="6.15811">
        <ele>1460.8000488281</ele>
        <time>2014-02-22T11:20:06.000Z</time>
      </trkpt>
      <trkpt lat="45.75162" lon="6.15825">
        <ele>1454.1999511719</ele>
        <time>2014-02-22T11:20:09.000Z</time>
      </trkpt>
      <trkpt lat="45.75159" lon="6.15837">
        <ele>1449.4000244141</ele>
        <time>2014-02-22T11:20:11.000Z</time>
      </trkpt>
      <trkpt lat="45.75154" lon="6.15844">
        <ele>1444</ele>
        <time>2014-02-22T11:20:13.000Z</time>
      </trkpt>
      <trkpt lat="45.75146" lon="6.15855">
        <ele>1436.8000488281</ele>
        <time>2014-02-22T11:20:16.000Z</time>
      </trkpt>
      <trkpt lat="45.75142" lon="6.15865">
        <ele>1432</ele>
        <time>2014-02-22T11:20:18.000Z</time>
      </trkpt>
      <trkpt lat="45.75132" lon="6.15866">
        <ele>1428.1999511719</ele>
        <time>2014-02-22T11:20:20.000Z</time>
      </trkpt>
      <trkpt lat="45.75121" lon="6.15864">
        <ele>1425.8000488281</ele>
        <time>2014-02-22T11:20:22.000Z</time>
      </trkpt>
      <trkpt lat="45.75108" lon="6.15857">
        <ele>1422.4000244141</ele>
        <time>2014-02-22T11:20:25.000Z</time>
      </trkpt>
      <trkpt lat="45.75101" lon="6.15855">
        <ele>1421</ele>
        <time>2014-02-22T11:20:27.000Z</time>
      </trkpt>
      <trkpt lat="45.75093" lon="6.15852">
        <ele>1419.5999755859</ele>
        <time>2014-02-22T11:20:29.000Z</time>
      </trkpt>
      <trkpt lat="45.75088" lon="6.15865">
        <ele>1415.5999755859</ele>
        <time>2014-02-22T11:20:32.000Z</time>
      </trkpt>
      <trkpt lat="45.75079" lon="6.15872">
        <ele>1412.8000488281</ele>
        <time>2014-02-22T11:20:34.000Z</time>
      </trkpt>
      <trkpt lat="45.75071" lon="6.15878">
        <ele>1408</ele>
        <time>2014-02-22T11:20:36.000Z</time>
      </trkpt>
      <trkpt lat="45.7506" lon="6.15881">
        <ele>1403.5999755859</ele>
        <time>2014-02-22T11:20:38.000Z</time>
      </trkpt>
      <trkpt lat="45.75054" lon="6.15877">
        <ele>1402.8000488281</ele>
        <time>2014-02-22T11:20:39.000Z</time>
      </trkpt>
      <trkpt lat="45.75041" lon="6.15874">
        <ele>1398.8000488281</ele>
        <time>2014-02-22T11:20:42.000Z</time>
      </trkpt>
      <trkpt lat="45.75025" lon="6.15859">
        <ele>1395</ele>
        <time>2014-02-22T11:20:46.000Z</time>
      </trkpt>
      <trkpt lat="45.75017" lon="6.15867">
        <ele>1391.1999511719</ele>
        <time>2014-02-22T11:20:48.000Z</time>
      </trkpt>
      <trkpt lat="45.75008" lon="6.15861">
        <ele>1388.1999511719</ele>
        <time>2014-02-22T11:20:50.000Z</time>
      </trkpt>
      <trkpt lat="45.75001" lon="6.15865">
        <ele>1383.4000244141</ele>
        <time>2014-02-22T11:20:53.000Z</time>
      </trkpt>
      <trkpt lat="45.74992" lon="6.15865">
        <ele>1380.5999755859</ele>
        <time>2014-02-22T11:20:55.000Z</time>
      </trkpt>
      <trkpt lat="45.74986" lon="6.15872">
        <ele>1376.8000488281</ele>
        <time>2014-02-22T11:20:57.000Z</time>
      </trkpt>
      <trkpt lat="45.74981" lon="6.15866">
        <ele>1374.8000488281</ele>
        <time>2014-02-22T11:20:59.000Z</time>
      </trkpt>
      <trkpt lat="45.74967" lon="6.15852">
        <ele>1370.4000244141</ele>
        <time>2014-02-22T11:21:03.000Z</time>
      </trkpt>
      <trkpt lat="45.74961" lon="6.15856">
        <ele>1367.1999511719</ele>
        <time>2014-02-22T11:21:05.000Z</time>
      </trkpt>
      <trkpt lat="45.74947" lon="6.15867">
        <ele>1361.4000244141</ele>
        <time>2014-02-22T11:21:08.000Z</time>
      </trkpt>
      <trkpt lat="45.74937" lon="6.15859">
        <ele>1358.4000244141</ele>
        <time>2014-02-22T11:21:10.000Z</time>
      </trkpt>
      <trkpt lat="45.74922" lon="6.15867">
        <ele>1351.1999511719</ele>
        <time>2014-02-22T11:21:14.000Z</time>
      </trkpt>
      <trkpt lat="45.74909" lon="6.15862">
        <ele>1347.4000244141</ele>
        <time>2014-02-22T11:21:16.000Z</time>
      </trkpt>
      <trkpt lat="45.74904" lon="6.15857">
        <ele>1346</ele>
        <time>2014-02-22T11:21:17.000Z</time>
      </trkpt>
      <trkpt lat="45.74897" lon="6.15847">
        <ele>1344</ele>
        <time>2014-02-22T11:21:19.000Z</time>
      </trkpt>
      <trkpt lat="45.74889" lon="6.15853">
        <ele>1340.1999511719</ele>
        <time>2014-02-22T11:21:22.000Z</time>
      </trkpt>
      <trkpt lat="45.74882" lon="6.15867">
        <ele>1336.8000488281</ele>
        <time>2014-02-22T11:21:25.000Z</time>
      </trkpt>
      <trkpt lat="45.74874" lon="6.15863">
        <ele>1336.4000244141</ele>
        <time>2014-02-22T11:21:28.000Z</time>
      </trkpt>
      <trkpt lat="45.74875" lon="6.15861">
        <ele>1336.8000488281</ele>
        <time>2014-02-22T11:21:34.000Z</time>
      </trkpt>
      <trkpt lat="45.74875" lon="6.15858">
        <ele>1337.4000244141</ele>
        <time>2014-02-22T11:21:45.000Z</time>
      </trkpt>
      <trkpt lat="45.7486" lon="6.15858">
        <ele>1334</ele>
        <time>2014-02-22T11:21:50.000Z</time>
      </trkpt>
      <trkpt lat="45.74855" lon="6.15857">
        <ele>1333</ele>
        <time>2014-02-22T11:21:51.000Z</time>
      </trkpt>
      <trkpt lat="45.74844" lon="6.15854">
        <ele>1331</ele>
        <time>2014-02-22T11:21:53.000Z</time>
      </trkpt>
      <trkpt lat="45.74829" lon="6.15843">
        <ele>1329.5999755859</ele>
        <time>2014-02-22T11:21:57.000Z</time>
      </trkpt>
      <trkpt lat="45.74827" lon="6.15841">
        <ele>1329.1999511719</ele>
        <time>2014-02-22T11:21:58.000Z</time>
      </trkpt>
      <trkpt lat="45.74825" lon="6.15841">
        <ele>1329.1999511719</ele>
        <time>2014-02-22T11:22:07.000Z</time>
      </trkpt>
      <trkpt lat="45.74825" lon="6.15842">
        <ele>1329.1999511719</ele>
        <time>2014-02-22T11:22:10.000Z</time>
      </trkpt>
      <trkpt lat="45.74826" lon="6.15855">
        <ele>1327.1999511719</ele>
        <time>2014-02-22T11:22:14.000Z</time>
      </trkpt>
      <trkpt lat="45.74827" lon="6.15864">
        <ele>1325.8000488281</ele>
        <time>2014-02-22T11:22:16.000Z</time>
      </trkpt>
      <trkpt lat="45.74835" lon="6.15884">
        <ele>1322.4000244141</ele>
        <time>2014-02-22T11:22:23.000Z</time>
      </trkpt>
      <trkpt lat="45.74827" lon="6.15902">
        <ele>1315.8000488281</ele>
        <time>2014-02-22T11:22:26.000Z</time>
      </trkpt>
      <trkpt lat="45.74822" lon="6.15909">
        <ele>1315.1999511719</ele>
        <time>2014-02-22T11:22:27.000Z</time>
      </trkpt>
      <trkpt lat="45.74807" lon="6.1593">
        <ele>1310.4000244141</ele>
        <time>2014-02-22T11:22:32.000Z</time>
      </trkpt>
      <trkpt lat="45.74793" lon="6.15946">
        <ele>1303.5999755859</ele>
        <time>2014-02-22T11:22:36.000Z</time>
      </trkpt>
      <trkpt lat="45.74777" lon="6.15963">
        <ele>1297.4000244141</ele>
        <time>2014-02-22T11:22:40.000Z</time>
      </trkpt>
      <trkpt lat="45.74773" lon="6.15968">
        <ele>1295.5999755859</ele>
        <time>2014-02-22T11:22:41.000Z</time>
      </trkpt>
      <trkpt lat="45.74768" lon="6.15971">
        <ele>1291.1999511719</ele>
        <time>2014-02-22T11:22:47.000Z</time>
      </trkpt>
      <trkpt lat="45.74767" lon="6.15969">
        <ele>1290.8000488281</ele>
        <time>2014-02-22T11:22:48.000Z</time>
      </trkpt>
      <trkpt lat="45.7476" lon="6.15964">
        <ele>1287.8000488281</ele>
        <time>2014-02-22T11:22:51.000Z</time>
      </trkpt>
      <trkpt lat="45.74746" lon="6.15972">
        <ele>1284</ele>
        <time>2014-02-22T11:22:54.000Z</time>
      </trkpt>
      <trkpt lat="45.74729" lon="6.15986">
        <ele>1280.1999511719</ele>
        <time>2014-02-22T11:22:58.000Z</time>
      </trkpt>
      <trkpt lat="45.74715" lon="6.15991">
        <ele>1275.4000244141</ele>
        <time>2014-02-22T11:23:02.000Z</time>
      </trkpt>
      <trkpt lat="45.74703" lon="6.15995">
        <ele>1272</ele>
        <time>2014-02-22T11:23:05.000Z</time>
      </trkpt>
      <trkpt lat="45.74691" lon="6.16002">
        <ele>1268.5999755859</ele>
        <time>2014-02-22T11:23:09.000Z</time>
      </trkpt>
      <trkpt lat="45.74691" lon="6.15991">
        <ele>1266.5999755859</ele>
        <time>2014-02-22T11:23:11.000Z</time>
      </trkpt>
      <trkpt lat="45.74693" lon="6.15982">
        <ele>1264.1999511719</ele>
        <time>2014-02-22T11:23:14.000Z</time>
      </trkpt>
      <trkpt lat="45.74685" lon="6.15974">
        <ele>1261.4000244141</ele>
        <time>2014-02-22T11:23:17.000Z</time>
      </trkpt>
      <trkpt lat="45.7468" lon="6.15973">
        <ele>1258.5999755859</ele>
        <time>2014-02-22T11:23:19.000Z</time>
      </trkpt>
      <trkpt lat="45.74671" lon="6.15979">
        <ele>1257</ele>
        <time>2014-02-22T11:23:21.000Z</time>
      </trkpt>
      <trkpt lat="45.74655" lon="6.15987">
        <ele>1252.8000488281</ele>
        <time>2014-02-22T11:23:25.000Z</time>
      </trkpt>
      <trkpt lat="45.74642" lon="6.15995">
        <ele>1250.4000244141</ele>
        <time>2014-02-22T11:23:28.000Z</time>
      </trkpt>
      <trkpt lat="45.74629" lon="6.16001">
        <ele>1247.4000244141</ele>
        <time>2014-02-22T11:23:31.000Z</time>
      </trkpt>
      <trkpt lat="45.74619" lon="6.16005">
        <ele>1244</ele>
        <time>2014-02-22T11:23:34.000Z</time>
      </trkpt>
      <trkpt lat="45.74597" lon="6.16016">
        <ele>1238.4000244141</ele>
        <time>2014-02-22T11:23:39.000Z</time>
      </trkpt>
      <trkpt lat="45.74578" lon="6.16026">
        <ele>1233</ele>
        <time>2014-02-22T11:23:43.000Z</time>
      </trkpt>
      <trkpt lat="45.74563" lon="6.1603">
        <ele>1228.1999511719</ele>
        <time>2014-02-22T11:23:46.000Z</time>
      </trkpt>
      <trkpt lat="45.7455" lon="6.16037">
        <ele>1223.4000244141</ele>
        <time>2014-02-22T11:23:49.000Z</time>
      </trkpt>
      <trkpt lat="45.74536" lon="6.16041">
        <ele>1219</ele>
        <time>2014-02-22T11:23:52.000Z</time>
      </trkpt>
      <trkpt lat="45.74524" lon="6.16043">
        <ele>1216.5999755859</ele>
        <time>2014-02-22T11:23:55.000Z</time>
      </trkpt>
      <trkpt lat="45.7451" lon="6.16048">
        <ele>1212.8000488281</ele>
        <time>2014-02-22T11:23:58.000Z</time>
      </trkpt>
      <trkpt lat="45.74497" lon="6.16051">
        <ele>1209</ele>
        <time>2014-02-22T11:24:01.000Z</time>
      </trkpt>
      <trkpt lat="45.74473" lon="6.16065">
        <ele>1201.8000488281</ele>
        <time>2014-02-22T11:24:06.000Z</time>
      </trkpt>
      <trkpt lat="45.74452" lon="6.16067">
        <ele>1197.4000244141</ele>
        <time>2014-02-22T11:24:10.000Z</time>
      </trkpt>
      <trkpt lat="45.74439" lon="6.1607">
        <ele>1193.5999755859</ele>
        <time>2014-02-22T11:24:14.000Z</time>
      </trkpt>
      <trkpt lat="45.74439" lon="6.16069">
        <ele>1194</ele>
        <time>2014-02-22T11:24:19.000Z</time>
      </trkpt>
      <trkpt lat="45.74436" lon="6.1607">
        <ele>1196</ele>
        <time>2014-02-22T11:24:27.000Z</time>
      </trkpt>
      <trkpt lat="45.74435" lon="6.16069">
        <ele>1196</ele>
        <time>2014-02-22T11:24:28.000Z</time>
      </trkpt>
      <trkpt lat="45.7442" lon="6.16074">
        <ele>1193.1999511719</ele>
        <time>2014-02-22T11:24:33.000Z</time>
      </trkpt>
      <trkpt lat="45.74415" lon="6.16074">
        <ele>1193.1999511719</ele>
        <time>2014-02-22T11:24:37.000Z</time>
      </trkpt>
      <trkpt lat="45.74414" lon="6.16076">
        <ele>1192.5999755859</ele>
        <time>2014-02-22T11:24:43.000Z</time>
      </trkpt>
      <trkpt lat="45.74413" lon="6.16077">
        <ele>1188.4000244141</ele>
        <time>2014-02-22T11:24:50.000Z</time>
      </trkpt>
      <trkpt lat="45.74408" lon="6.1608">
        <ele>1182.5999755859</ele>
        <time>2014-02-22T11:24:57.000Z</time>
      </trkpt>
      <trkpt lat="45.74395" lon="6.1608">
        <ele>1180.5999755859</ele>
        <time>2014-02-22T11:25:01.000Z</time>
      </trkpt>
      <trkpt lat="45.74377" lon="6.16081">
        <ele>1179.1999511719</ele>
        <time>2014-02-22T11:25:05.000Z</time>
      </trkpt>
      <trkpt lat="45.74359" lon="6.16092">
        <ele>1175.8000488281</ele>
        <time>2014-02-22T11:25:09.000Z</time>
      </trkpt>
      <trkpt lat="45.74338" lon="6.16103">
        <ele>1173</ele>
        <time>2014-02-22T11:25:13.000Z</time>
      </trkpt>
      <trkpt lat="45.74319" lon="6.16102">
        <ele>1169.1999511719</ele>
        <time>2014-02-22T11:25:17.000Z</time>
      </trkpt>
      <trkpt lat="45.74309" lon="6.16105">
        <ele>1168.1999511719</ele>
        <time>2014-02-22T11:25:19.000Z</time>
      </trkpt>
      <trkpt lat="45.74284" lon="6.16117">
        <ele>1163.8000488281</ele>
        <time>2014-02-22T11:25:25.000Z</time>
      </trkpt>
      <trkpt lat="45.74268" lon="6.16143">
        <ele>1159</ele>
        <time>2014-02-22T11:25:30.000Z</time>
      </trkpt>
      <trkpt lat="45.74262" lon="6.1614">
        <ele>1157</ele>
        <time>2014-02-22T11:25:32.000Z</time>
      </trkpt>
      <trkpt lat="45.74262" lon="6.16126">
        <ele>1154.1999511719</ele>
        <time>2014-02-22T11:25:34.000Z</time>
      </trkpt>
      <trkpt lat="45.74267" lon="6.16089">
        <ele>1147.4000244141</ele>
        <time>2014-02-22T11:25:39.000Z</time>
      </trkpt>
      <trkpt lat="45.74269" lon="6.16081">
        <ele>1145.5999755859</ele>
        <time>2014-02-22T11:25:40.000Z</time>
      </trkpt>
      <trkpt lat="45.74281" lon="6.16049">
        <ele>1138.8000488281</ele>
        <time>2014-02-22T11:25:44.000Z</time>
      </trkpt>
      <trkpt lat="45.74284" lon="6.16042">
        <ele>1137.8000488281</ele>
        <time>2014-02-22T11:25:45.000Z</time>
      </trkpt>
      <trkpt lat="45.74296" lon="6.16008">
        <ele>1133.5999755859</ele>
        <time>2014-02-22T11:25:50.000Z</time>
      </trkpt>
      <trkpt lat="45.74294" lon="6.16004">
        <ele>1131.5999755859</ele>
        <time>2014-02-22T11:25:52.000Z</time>
      </trkpt>
      <trkpt lat="45.74291" lon="6.16006">
        <ele>1131.1999511719</ele>
        <time>2014-02-22T11:25:53.000Z</time>
      </trkpt>
      <trkpt lat="45.74276" lon="6.16019">
        <ele>1129.5999755859</ele>
        <time>2014-02-22T11:25:57.000Z</time>
      </trkpt>
      <trkpt lat="45.74261" lon="6.16033">
        <ele>1128.8000488281</ele>
        <time>2014-02-22T11:26:02.000Z</time>
      </trkpt>
      <trkpt lat="45.7425" lon="6.16041">
        <ele>1126.4000244141</ele>
        <time>2014-02-22T11:26:05.000Z</time>
      </trkpt>
      <trkpt lat="45.74237" lon="6.16033">
        <ele>1122.4000244141</ele>
        <time>2014-02-22T11:26:08.000Z</time>
      </trkpt>
      <trkpt lat="45.74237" lon="6.16025">
        <ele>1121</ele>
        <time>2014-02-22T11:26:09.000Z</time>
      </trkpt>
      <trkpt lat="45.74232" lon="6.15995">
        <ele>1114.4000244141</ele>
        <time>2014-02-22T11:26:13.000Z</time>
      </trkpt>
      <trkpt lat="45.7422" lon="6.15992">
        <ele>1110.4000244141</ele>
        <time>2014-02-22T11:26:15.000Z</time>
      </trkpt>
      <trkpt lat="45.74212" lon="6.15977">
        <ele>1106.1999511719</ele>
        <time>2014-02-22T11:26:17.000Z</time>
      </trkpt>
      <trkpt lat="45.74201" lon="6.15968">
        <ele>1100.4000244141</ele>
        <time>2014-02-22T11:26:20.000Z</time>
      </trkpt>
      <trkpt lat="45.74187" lon="6.1598">
        <ele>1097</ele>
        <time>2014-02-22T11:26:23.000Z</time>
      </trkpt>
      <trkpt lat="45.74169" lon="6.15976">
        <ele>1094.5999755859</ele>
        <time>2014-02-22T11:26:26.000Z</time>
      </trkpt>
      <trkpt lat="45.74164" lon="6.15963">
        <ele>1091.8000488281</ele>
        <time>2014-02-22T11:26:28.000Z</time>
      </trkpt>
      <trkpt lat="45.74159" lon="6.15941">
        <ele>1088.8000488281</ele>
        <time>2014-02-22T11:26:31.000Z</time>
      </trkpt>
      <trkpt lat="45.74144" lon="6.15925">
        <ele>1085</ele>
        <time>2014-02-22T11:26:35.000Z</time>
      </trkpt>
      <trkpt lat="45.74132" lon="6.1592">
        <ele>1082.5999755859</ele>
        <time>2014-02-22T11:26:38.000Z</time>
      </trkpt>
      <trkpt lat="45.74131" lon="6.1592">
        <ele>1081.5999755859</ele>
        <time>2014-02-22T11:26:39.000Z</time>
      </trkpt>
      <trkpt lat="45.74129" lon="6.15922">
        <ele>1081.1999511719</ele>
        <time>2014-02-22T11:26:41.000Z</time>
      </trkpt>
      <trkpt lat="45.74122" lon="6.15919">
        <ele>1078.8000488281</ele>
        <time>2014-02-22T11:26:45.000Z</time>
      </trkpt>
      <trkpt lat="45.74117" lon="6.15914">
        <ele>1077.8000488281</ele>
        <time>2014-02-22T11:26:48.000Z</time>
      </trkpt>
      <trkpt lat="45.74113" lon="6.15914">
        <ele>1076.4000244141</ele>
        <time>2014-02-22T11:26:54.000Z</time>
      </trkpt>
      <trkpt lat="45.74112" lon="6.15915">
        <ele>1077.8000488281</ele>
        <time>2014-02-22T11:27:00.000Z</time>
      </trkpt>
    </trkseg>
  </trk>
</gpx>